<?xml version='1.0' encoding='UTF-8'?><gpx version="1.1" creator="JPX - https://github.com/jenetics/jpx" xmlns="http://www.topografix.com/GPX/1/1"><trk><trkseg><trkpt lat="33.55096761666667" lon="-111.58157385000001"><ele>434.0</ele><time>2026-04-08T16:25:00.798Z</time></trkpt><trkpt lat="33.55088731666666" lon="-111.58158463333332"><ele>434.0</ele><time>2026-04-08T16:25:05.802Z</time></trkpt><trkpt lat="33.55083501666666" lon="-111.58154068333333"><ele>434.0</ele><time>2026-04-08T16:25:08.799Z</time></trkpt><trkpt lat="33.550759" lon="-111.58148911666667"><ele>434.0</ele><time>2026-04-08T16:25:56.872Z</time></trkpt><trkpt lat="33.55065683333333" lon="-111.58145711666667"><ele>434.0</ele><time>2026-04-08T16:25:58.877Z</time></trkpt><trkpt lat="33.55053793333333" lon="-111.58143403333334"><ele>433.99999999999994</ele><time>2026-04-08T16:26:00.882Z</time></trkpt><trkpt lat="33.550411616666665" lon="-111.58143431666667"><ele>434.0</ele><time>2026-04-08T16:26:02.887Z</time></trkpt><trkpt lat="33.550343983333335" lon="-111.58145676666668"><ele>434.0</ele><time>2026-04-08T16:26:03.902Z</time></trkpt><trkpt lat="33.55027463333333" lon="-111.58148538333334"><ele>434.0</ele><time>2026-04-08T16:26:04.891Z</time></trkpt><trkpt lat="33.550204916666665" lon="-111.5815046"><ele>433.99999999999994</ele><time>2026-04-08T16:26:05.892Z</time></trkpt><trkpt lat="33.55013258333333" lon="-111.58150493333333"><ele>434.0</ele><time>2026-04-08T16:26:06.897Z</time></trkpt><trkpt lat="33.55005753333333" lon="-111.58148806666668"><ele>433.99999999999994</ele><time>2026-04-08T16:26:07.893Z</time></trkpt><trkpt lat="33.549984583333334" lon="-111.58144711666668"><ele>434.0</ele><time>2026-04-08T16:26:08.905Z</time></trkpt><trkpt lat="33.549922450000004" lon="-111.58138824999999"><ele>434.0</ele><time>2026-04-08T16:26:09.907Z</time></trkpt><trkpt lat="33.5498682" lon="-111.58132873333334"><ele>434.0</ele><time>2026-04-08T16:26:10.898Z</time></trkpt><trkpt lat="33.549814233333336" lon="-111.58127538333335"><ele>433.99999999999994</ele><time>2026-04-08T16:26:11.912Z</time></trkpt><trkpt lat="33.54975711666667" lon="-111.58122235"><ele>434.0</ele><time>2026-04-08T16:26:12.912Z</time></trkpt><trkpt lat="33.54969275" lon="-111.58116991666667"><ele>434.2857142857143</ele><time>2026-04-08T16:26:13.893Z</time></trkpt><trkpt lat="33.54962498333333" lon="-111.58112326666667"><ele>434.57142857142856</ele><time>2026-04-08T16:26:14.914Z</time></trkpt><trkpt lat="33.5495565" lon="-111.58108445"><ele>434.8571428571429</ele><time>2026-04-08T16:26:15.928Z</time></trkpt><trkpt lat="33.54948965" lon="-111.58105580000002"><ele>435.1428571428571</ele><time>2026-04-08T16:26:16.897Z</time></trkpt><trkpt lat="33.549421450000004" lon="-111.58104098333334"><ele>435.42857142857144</ele><time>2026-04-08T16:26:17.917Z</time></trkpt><trkpt lat="33.549349649999996" lon="-111.58104155000002"><ele>435.7142857142857</ele><time>2026-04-08T16:26:18.907Z</time></trkpt><trkpt lat="33.54927775" lon="-111.58105509999999"><ele>436.0</ele><time>2026-04-08T16:26:19.92Z</time></trkpt><trkpt lat="33.54920548333334" lon="-111.58107713333332"><ele>436.50000000000006</ele><time>2026-04-08T16:26:20.923Z</time></trkpt><trkpt lat="33.549131933333335" lon="-111.58110281666669"><ele>437.0</ele><time>2026-04-08T16:26:21.937Z</time></trkpt><trkpt lat="33.54905258333333" lon="-111.58112240000001"><ele>437.5</ele><time>2026-04-08T16:26:22.927Z</time></trkpt><trkpt lat="33.5489649" lon="-111.58113038333333"><ele>438.0</ele><time>2026-04-08T16:26:23.917Z</time></trkpt><trkpt lat="33.54887515000001" lon="-111.58112670000001"><ele>438.50000000000006</ele><time>2026-04-08T16:26:24.919Z</time></trkpt><trkpt lat="33.54878661666667" lon="-111.58111740000001"><ele>439.0</ele><time>2026-04-08T16:26:25.923Z</time></trkpt><trkpt lat="33.5487002" lon="-111.58111451666666"><ele>439.1666666666667</ele><time>2026-04-08T16:26:26.914Z</time></trkpt><trkpt lat="33.54861781666667" lon="-111.58112296666668"><ele>439.33333333333337</ele><time>2026-04-08T16:26:27.927Z</time></trkpt><trkpt lat="33.548539600000005" lon="-111.581142"><ele>439.5</ele><time>2026-04-08T16:26:28.928Z</time></trkpt><trkpt lat="33.54846568333333" lon="-111.58117555"><ele>439.66666666666663</ele><time>2026-04-08T16:26:29.935Z</time></trkpt><trkpt lat="33.54839935" lon="-111.58121881666666"><ele>439.8333333333333</ele><time>2026-04-08T16:26:30.926Z</time></trkpt><trkpt lat="33.54833286666667" lon="-111.5812583"><ele>440.0</ele><time>2026-04-08T16:26:31.922Z</time></trkpt><trkpt lat="33.548259050000006" lon="-111.58129065"><ele>439.99999999999994</ele><time>2026-04-08T16:26:32.921Z</time></trkpt><trkpt lat="33.54818304999999" lon="-111.58131705"><ele>440.0</ele><time>2026-04-08T16:26:33.946Z</time></trkpt><trkpt lat="33.54810175" lon="-111.58133385000001"><ele>440.0</ele><time>2026-04-08T16:26:34.927Z</time></trkpt><trkpt lat="33.54801848333333" lon="-111.58134363333332"><ele>440.0</ele><time>2026-04-08T16:26:35.935Z</time></trkpt><trkpt lat="33.54793466666666" lon="-111.58134643333334"><ele>439.99999999999994</ele><time>2026-04-08T16:26:36.943Z</time></trkpt><trkpt lat="33.54784873333333" lon="-111.5813461"><ele>440.0</ele><time>2026-04-08T16:26:37.938Z</time></trkpt><trkpt lat="33.54777059999999" lon="-111.58134495"><ele>439.99999999999994</ele><time>2026-04-08T16:26:38.927Z</time></trkpt><trkpt lat="33.5476952" lon="-111.58133816666665"><ele>440.0</ele><time>2026-04-08T16:26:39.946Z</time></trkpt><trkpt lat="33.54761953333333" lon="-111.58131976666667"><ele>440.0</ele><time>2026-04-08T16:26:40.946Z</time></trkpt><trkpt lat="33.547544583333334" lon="-111.58128598333333"><ele>440.0</ele><time>2026-04-08T16:26:41.951Z</time></trkpt><trkpt lat="33.547470516666664" lon="-111.58123595"><ele>439.99999999999994</ele><time>2026-04-08T16:26:42.94Z</time></trkpt><trkpt lat="33.547397366666665" lon="-111.58117663333333"><ele>440.0</ele><time>2026-04-08T16:26:43.945Z</time></trkpt><trkpt lat="33.54732275" lon="-111.58111543333334"><ele>440.3333333333333</ele><time>2026-04-08T16:26:44.938Z</time></trkpt><trkpt lat="33.547250500000004" lon="-111.58106064999998"><ele>440.66666666666663</ele><time>2026-04-08T16:26:45.939Z</time></trkpt><trkpt lat="33.547180633333326" lon="-111.58101088333333"><ele>441.0</ele><time>2026-04-08T16:26:46.949Z</time></trkpt><trkpt lat="33.54710818333333" lon="-111.58096633333335"><ele>441.33333333333337</ele><time>2026-04-08T16:26:47.956Z</time></trkpt><trkpt lat="33.5470297" lon="-111.5809304"><ele>441.6666666666667</ele><time>2026-04-08T16:26:48.958Z</time></trkpt><trkpt lat="33.5469418" lon="-111.5809055"><ele>442.0</ele><time>2026-04-08T16:26:49.948Z</time></trkpt><trkpt lat="33.54684483333333" lon="-111.58088793333333"><ele>442.40000000000003</ele><time>2026-04-08T16:26:50.963Z</time></trkpt><trkpt lat="33.54674435" lon="-111.58087721666668"><ele>442.80000000000007</ele><time>2026-04-08T16:26:51.954Z</time></trkpt><trkpt lat="33.54664868333333" lon="-111.58087011666666"><ele>443.2</ele><time>2026-04-08T16:26:52.953Z</time></trkpt><trkpt lat="33.54656011666667" lon="-111.58086638333334"><ele>443.6</ele><time>2026-04-08T16:26:53.96Z</time></trkpt><trkpt lat="33.54647511666667" lon="-111.58087210000001"><ele>444.0</ele><time>2026-04-08T16:26:54.972Z</time></trkpt><trkpt lat="33.546389266666665" lon="-111.5808909"><ele>444.0</ele><time>2026-04-08T16:26:55.962Z</time></trkpt><trkpt lat="33.54629855" lon="-111.58091998333333"><ele>444.0</ele><time>2026-04-08T16:26:56.953Z</time></trkpt><trkpt lat="33.54620255" lon="-111.58094770000001"><ele>444.0</ele><time>2026-04-08T16:26:57.968Z</time></trkpt><trkpt lat="33.54610185" lon="-111.58096983333336"><ele>444.0</ele><time>2026-04-08T16:26:58.963Z</time></trkpt><trkpt lat="33.54599831666667" lon="-111.58098606666667"><ele>444.0</ele><time>2026-04-08T16:26:59.973Z</time></trkpt><trkpt lat="33.545892333333335" lon="-111.58100156666666"><ele>444.4</ele><time>2026-04-08T16:27:00.969Z</time></trkpt><trkpt lat="33.545793249999996" lon="-111.58102471666668"><ele>444.79999999999995</ele><time>2026-04-08T16:27:01.982Z</time></trkpt><trkpt lat="33.54569756666667" lon="-111.58104535"><ele>445.20000000000005</ele><time>2026-04-08T16:27:02.97Z</time></trkpt><trkpt lat="33.545599349999996" lon="-111.58105358333331"><ele>445.6</ele><time>2026-04-08T16:27:03.985Z</time></trkpt><trkpt lat="33.54550351666666" lon="-111.58105176666668"><ele>446.0</ele><time>2026-04-08T16:27:04.988Z</time></trkpt><trkpt lat="33.54541123333333" lon="-111.58103383333334"><ele>446.6</ele><time>2026-04-08T16:27:05.977Z</time></trkpt><trkpt lat="33.54532028333333" lon="-111.58100046666665"><ele>447.20000000000005</ele><time>2026-04-08T16:27:06.978Z</time></trkpt><trkpt lat="33.545231550000004" lon="-111.58095681666667"><ele>447.79999999999995</ele><time>2026-04-08T16:27:07.993Z</time></trkpt><trkpt lat="33.54514865" lon="-111.58089871666668"><ele>448.4</ele><time>2026-04-08T16:27:08.974Z</time></trkpt><trkpt lat="33.545073083333335" lon="-111.58082805"><ele>449.0</ele><time>2026-04-08T16:27:09.99Z</time></trkpt><trkpt lat="33.54500771666667" lon="-111.58075245"><ele>448.99999999999994</ele><time>2026-04-08T16:27:10.972Z</time></trkpt><trkpt lat="33.544953" lon="-111.58067788333335"><ele>449.0</ele><time>2026-04-08T16:27:11.978Z</time></trkpt><trkpt lat="33.54491235" lon="-111.58059561666666"><ele>449.0</ele><time>2026-04-08T16:27:12.99Z</time></trkpt><trkpt lat="33.544878000000004" lon="-111.58050641666667"><ele>449.0</ele><time>2026-04-08T16:27:13.978Z</time></trkpt><trkpt lat="33.54484136666667" lon="-111.58041578333332"><ele>448.99999999999994</ele><time>2026-04-08T16:27:15.015Z</time></trkpt><trkpt lat="33.544801766666666" lon="-111.58032495"><ele>449.0</ele><time>2026-04-08T16:27:15.979Z</time></trkpt><trkpt lat="33.544760116666666" lon="-111.58023370000001"><ele>449.16666666666663</ele><time>2026-04-08T16:27:16.993Z</time></trkpt><trkpt lat="33.5447179" lon="-111.58014024999999"><ele>449.3333333333333</ele><time>2026-04-08T16:27:17.984Z</time></trkpt><trkpt lat="33.5446812" lon="-111.580049"><ele>449.5</ele><time>2026-04-08T16:27:18.998Z</time></trkpt><trkpt lat="33.54463723333333" lon="-111.57996621666666"><ele>449.66666666666663</ele><time>2026-04-08T16:27:19.994Z</time></trkpt><trkpt lat="33.54456823333333" lon="-111.57989160000001"><ele>449.8333333333333</ele><time>2026-04-08T16:27:21.004Z</time></trkpt><trkpt lat="33.54448838333334" lon="-111.57982041666668"><ele>450.0</ele><time>2026-04-08T16:27:21.994Z</time></trkpt><trkpt lat="33.544415400000005" lon="-111.57975193333331"><ele>450.3333333333333</ele><time>2026-04-08T16:27:23.008Z</time></trkpt><trkpt lat="33.54434695" lon="-111.57969228333334"><ele>450.66666666666663</ele><time>2026-04-08T16:27:24.009Z</time></trkpt><trkpt lat="33.54428478333333" lon="-111.57964348333334"><ele>451.0</ele><time>2026-04-08T16:27:24.998Z</time></trkpt><trkpt lat="33.544229933333334" lon="-111.57960341666667"><ele>451.3333333333333</ele><time>2026-04-08T16:27:26.004Z</time></trkpt><trkpt lat="33.54411088333333" lon="-111.57954611666668"><ele>451.66666666666663</ele><time>2026-04-08T16:27:28Z</time></trkpt><trkpt lat="33.54404348333333" lon="-111.5795323"><ele>452.0</ele><time>2026-04-08T16:27:29.018Z</time></trkpt><trkpt lat="33.54397733333334" lon="-111.57952869999998"><ele>451.99999999999994</ele><time>2026-04-08T16:27:30.017Z</time></trkpt><trkpt lat="33.543855566666664" lon="-111.57953406666665"><ele>452.0</ele><time>2026-04-08T16:27:32.023Z</time></trkpt><trkpt lat="33.54379108333333" lon="-111.57953185"><ele>452.0</ele><time>2026-04-08T16:27:33.008Z</time></trkpt><trkpt lat="33.54372205" lon="-111.57952025000002"><ele>452.0</ele><time>2026-04-08T16:27:34.012Z</time></trkpt><trkpt lat="33.543653033333335" lon="-111.57950076666665"><ele>451.99999999999994</ele><time>2026-04-08T16:27:35.014Z</time></trkpt><trkpt lat="33.543581483333334" lon="-111.57948676666669"><ele>452.0</ele><time>2026-04-08T16:27:36.03Z</time></trkpt><trkpt lat="33.54350431666666" lon="-111.579481"><ele>452.49999999999994</ele><time>2026-04-08T16:27:37.02Z</time></trkpt><trkpt lat="33.54342418333333" lon="-111.57947535"><ele>453.0</ele><time>2026-04-08T16:27:38.028Z</time></trkpt><trkpt lat="33.5433414" lon="-111.57946671666664"><ele>453.5</ele><time>2026-04-08T16:27:39.028Z</time></trkpt><trkpt lat="33.54325778333334" lon="-111.57945271666668"><ele>454.0</ele><time>2026-04-08T16:27:40.03Z</time></trkpt><trkpt lat="33.54317508333334" lon="-111.57943126666665"><ele>454.49999999999994</ele><time>2026-04-08T16:27:41.068Z</time></trkpt><trkpt lat="33.543101" lon="-111.57941076666667"><ele>455.0</ele><time>2026-04-08T16:27:42.034Z</time></trkpt><trkpt lat="33.54303638333334" lon="-111.57939385"><ele>455.0</ele><time>2026-04-08T16:27:43.034Z</time></trkpt><trkpt lat="33.54292016666667" lon="-111.5793869"><ele>455.0</ele><time>2026-04-08T16:27:45.025Z</time></trkpt><trkpt lat="33.5428172" lon="-111.57938751666667"><ele>455.0</ele><time>2026-04-08T16:27:47.025Z</time></trkpt><trkpt lat="33.54274026666667" lon="-111.57934046666666"><ele>455.0</ele><time>2026-04-08T16:27:49.03Z</time></trkpt><trkpt lat="33.54269455" lon="-111.57924831666666"><ele>455.0</ele><time>2026-04-08T16:27:51.038Z</time></trkpt><trkpt lat="33.54264406666667" lon="-111.57916463333333"><ele>455.6</ele><time>2026-04-08T16:27:53.041Z</time></trkpt><trkpt lat="33.542571849999995" lon="-111.57909480000002"><ele>456.2</ele><time>2026-04-08T16:27:55.045Z</time></trkpt><trkpt lat="33.542503249999996" lon="-111.57904191666665"><ele>456.79999999999995</ele><time>2026-04-08T16:27:57.052Z</time></trkpt><trkpt lat="33.54241965" lon="-111.57899628333335"><ele>457.4</ele><time>2026-04-08T16:27:59.056Z</time></trkpt><trkpt lat="33.54234138333334" lon="-111.57893658333332"><ele>458.0</ele><time>2026-04-08T16:28:01.046Z</time></trkpt><trkpt lat="33.542266966666666" lon="-111.57887113333334"><ele>458.0</ele><time>2026-04-08T16:28:03.068Z</time></trkpt><trkpt lat="33.542193366666666" lon="-111.57882229999998"><ele>457.99999999999994</ele><time>2026-04-08T16:28:05.052Z</time></trkpt><trkpt lat="33.54211456666667" lon="-111.57882425000003"><ele>457.99999999999994</ele><time>2026-04-08T16:28:07.085Z</time></trkpt><trkpt lat="33.542037449999995" lon="-111.57891253333334"><ele>458.0</ele><time>2026-04-08T16:28:09.07Z</time></trkpt><trkpt lat="33.54194535" lon="-111.57901318333333"><ele>458.0</ele><time>2026-04-08T16:28:11.058Z</time></trkpt><trkpt lat="33.541883999999996" lon="-111.57904481666667"><ele>458.1428571428571</ele><time>2026-04-08T16:28:12.083Z</time></trkpt><trkpt lat="33.541818733333336" lon="-111.57906178333333"><ele>458.28571428571433</ele><time>2026-04-08T16:28:13.073Z</time></trkpt><trkpt lat="33.54175416666667" lon="-111.57906858333332"><ele>458.42857142857144</ele><time>2026-04-08T16:28:14.064Z</time></trkpt><trkpt lat="33.54168768333333" lon="-111.57906419999999"><ele>458.57142857142856</ele><time>2026-04-08T16:28:15.079Z</time></trkpt><trkpt lat="33.54161966666666" lon="-111.57904011666666"><ele>458.71428571428567</ele><time>2026-04-08T16:28:16.073Z</time></trkpt><trkpt lat="33.541559083333325" lon="-111.57899414999999"><ele>458.8571428571429</ele><time>2026-04-08T16:28:17.065Z</time></trkpt><trkpt lat="33.54150768333333" lon="-111.57893421666668"><ele>459.0</ele><time>2026-04-08T16:28:18.089Z</time></trkpt><trkpt lat="33.54145428333334" lon="-111.57887331666667"><ele>459.0</ele><time>2026-04-08T16:28:19.077Z</time></trkpt><trkpt lat="33.54139285" lon="-111.57881731666667"><ele>459.0</ele><time>2026-04-08T16:28:20.088Z</time></trkpt><trkpt lat="33.54132925" lon="-111.57876805"><ele>459.0</ele><time>2026-04-08T16:28:21.076Z</time></trkpt><trkpt lat="33.54127268333333" lon="-111.57871906666665"><ele>459.0</ele><time>2026-04-08T16:28:22.096Z</time></trkpt><trkpt lat="33.54121883333333" lon="-111.57866695"><ele>459.0</ele><time>2026-04-08T16:28:23.079Z</time></trkpt><trkpt lat="33.54115541666667" lon="-111.57862133333334"><ele>459.0</ele><time>2026-04-08T16:28:24.083Z</time></trkpt><trkpt lat="33.54108221666667" lon="-111.57858331666667"><ele>459.0</ele><time>2026-04-08T16:28:25.084Z</time></trkpt><trkpt lat="33.541007883333336" lon="-111.57854725"><ele>459.42857142857144</ele><time>2026-04-08T16:28:26.093Z</time></trkpt><trkpt lat="33.540937500000005" lon="-111.57851378333335"><ele>459.85714285714283</ele><time>2026-04-08T16:28:27.09Z</time></trkpt><trkpt lat="33.54087025" lon="-111.57848960000001"><ele>460.2857142857143</ele><time>2026-04-08T16:28:28.103Z</time></trkpt><trkpt lat="33.54080378333333" lon="-111.57847293333334"><ele>460.7142857142857</ele><time>2026-04-08T16:28:29.09Z</time></trkpt><trkpt lat="33.54073760000001" lon="-111.57845175"><ele>461.1428571428571</ele><time>2026-04-08T16:28:30.089Z</time></trkpt><trkpt lat="33.54067158333333" lon="-111.57842205"><ele>461.57142857142856</ele><time>2026-04-08T16:28:31.106Z</time></trkpt><trkpt lat="33.54060596666667" lon="-111.5783868"><ele>462.0</ele><time>2026-04-08T16:28:32.088Z</time></trkpt><trkpt lat="33.540540033333336" lon="-111.57834784999999"><ele>462.0</ele><time>2026-04-08T16:28:33.138Z</time></trkpt><trkpt lat="33.540475183333335" lon="-111.57830596666666"><ele>462.0</ele><time>2026-04-08T16:28:34.103Z</time></trkpt><trkpt lat="33.5404106" lon="-111.57826048333334"><ele>462.0</ele><time>2026-04-08T16:28:35.093Z</time></trkpt><trkpt lat="33.540348083333335" lon="-111.5782106"><ele>462.0</ele><time>2026-04-08T16:28:36.108Z</time></trkpt><trkpt lat="33.540288616666665" lon="-111.5781557"><ele>462.0</ele><time>2026-04-08T16:28:37.099Z</time></trkpt><trkpt lat="33.54023303333334" lon="-111.57809498333333"><ele>462.0</ele><time>2026-04-08T16:28:38.11Z</time></trkpt><trkpt lat="33.540180050000004" lon="-111.57802978333333"><ele>462.3333333333333</ele><time>2026-04-08T16:28:39.112Z</time></trkpt><trkpt lat="33.540127950000006" lon="-111.57796163333333"><ele>462.66666666666663</ele><time>2026-04-08T16:28:40.119Z</time></trkpt><trkpt lat="33.54007708333334" lon="-111.5778934"><ele>463.0</ele><time>2026-04-08T16:28:41.109Z</time></trkpt><trkpt lat="33.540023616666666" lon="-111.57782581666667"><ele>463.3333333333333</ele><time>2026-04-08T16:28:42.117Z</time></trkpt><trkpt lat="33.539962116666665" lon="-111.57776205"><ele>463.66666666666663</ele><time>2026-04-08T16:28:43.109Z</time></trkpt><trkpt lat="33.5398954" lon="-111.57770491666666"><ele>464.0</ele><time>2026-04-08T16:28:44.121Z</time></trkpt><trkpt lat="33.53982981666666" lon="-111.57765458333334"><ele>463.99999999999994</ele><time>2026-04-08T16:28:45.124Z</time></trkpt><trkpt lat="33.539767033333334" lon="-111.57761729999999"><ele>464.0</ele><time>2026-04-08T16:28:46.133Z</time></trkpt><trkpt lat="33.53965203333333" lon="-111.57756685"><ele>464.0</ele><time>2026-04-08T16:28:48.127Z</time></trkpt><trkpt lat="33.53952935" lon="-111.57755653333332"><ele>464.0</ele><time>2026-04-08T16:28:50.139Z</time></trkpt><trkpt lat="33.5394636" lon="-111.57756348333332"><ele>463.99999999999994</ele><time>2026-04-08T16:28:51.137Z</time></trkpt><trkpt lat="33.53939598333333" lon="-111.57756538333332"><ele>464.0</ele><time>2026-04-08T16:28:52.13Z</time></trkpt><trkpt lat="33.53932531666667" lon="-111.57754915"><ele>464.16666666666663</ele><time>2026-04-08T16:28:53.119Z</time></trkpt><trkpt lat="33.539258200000006" lon="-111.57750738333334"><ele>464.3333333333333</ele><time>2026-04-08T16:28:54.135Z</time></trkpt><trkpt lat="33.539192416666666" lon="-111.57744636666666"><ele>464.5</ele><time>2026-04-08T16:28:55.131Z</time></trkpt><trkpt lat="33.53912253333333" lon="-111.57738230000001"><ele>464.66666666666663</ele><time>2026-04-08T16:28:56.145Z</time></trkpt><trkpt lat="33.5390442" lon="-111.57733185"><ele>464.8333333333333</ele><time>2026-04-08T16:28:57.139Z</time></trkpt><trkpt lat="33.53896438333334" lon="-111.57729198333334"><ele>465.0</ele><time>2026-04-08T16:28:58.142Z</time></trkpt><trkpt lat="33.538893900000005" lon="-111.57724076666668"><ele>465.0</ele><time>2026-04-08T16:28:59.148Z</time></trkpt><trkpt lat="33.53883295" lon="-111.57716406666665"><ele>465.0</ele><time>2026-04-08T16:29:00.159Z</time></trkpt><trkpt lat="33.538776999999996" lon="-111.57708043333332"><ele>465.0</ele><time>2026-04-08T16:29:01.149Z</time></trkpt><trkpt lat="33.53872055" lon="-111.57700600000001"><ele>465.0</ele><time>2026-04-08T16:29:02.152Z</time></trkpt><trkpt lat="33.53865441666667" lon="-111.57694181666666"><ele>465.0</ele><time>2026-04-08T16:29:03.134Z</time></trkpt><trkpt lat="33.538579983333335" lon="-111.57689261666667"><ele>465.0</ele><time>2026-04-08T16:29:04.153Z</time></trkpt><trkpt lat="33.5384982" lon="-111.5768538"><ele>465.3333333333333</ele><time>2026-04-08T16:29:05.144Z</time></trkpt><trkpt lat="33.538412799999996" lon="-111.57681283333334"><ele>465.66666666666663</ele><time>2026-04-08T16:29:06.155Z</time></trkpt><trkpt lat="33.53833203333334" lon="-111.57676363333334"><ele>466.0</ele><time>2026-04-08T16:29:07.138Z</time></trkpt><trkpt lat="33.53825990000001" lon="-111.57671309999999"><ele>466.3333333333333</ele><time>2026-04-08T16:29:08.154Z</time></trkpt><trkpt lat="33.53818628333334" lon="-111.57667301666667"><ele>466.66666666666663</ele><time>2026-04-08T16:29:09.141Z</time></trkpt><trkpt lat="33.53810326666667" lon="-111.57664770000001"><ele>467.0</ele><time>2026-04-08T16:29:10.165Z</time></trkpt><trkpt lat="33.53801718333334" lon="-111.57663776666668"><ele>466.99999999999994</ele><time>2026-04-08T16:29:11.164Z</time></trkpt><trkpt lat="33.53793595" lon="-111.57663951666667"><ele>467.0</ele><time>2026-04-08T16:29:12.164Z</time></trkpt><trkpt lat="33.537861150000005" lon="-111.57663488333333"><ele>467.0</ele><time>2026-04-08T16:29:13.155Z</time></trkpt><trkpt lat="33.537789950000004" lon="-111.57661959999999"><ele>467.0</ele><time>2026-04-08T16:29:14.154Z</time></trkpt><trkpt lat="33.53771543333333" lon="-111.57660116666666"><ele>466.99999999999994</ele><time>2026-04-08T16:29:15.17Z</time></trkpt><trkpt lat="33.5376363" lon="-111.57657701666668"><ele>467.0</ele><time>2026-04-08T16:29:16.151Z</time></trkpt><trkpt lat="33.53755483333333" lon="-111.57654050000001"><ele>467.42857142857133</ele><time>2026-04-08T16:29:17.172Z</time></trkpt><trkpt lat="33.537477083333336" lon="-111.57649646666665"><ele>467.85714285714283</ele><time>2026-04-08T16:29:18.169Z</time></trkpt><trkpt lat="33.53740753333333" lon="-111.5764532"><ele>468.2857142857142</ele><time>2026-04-08T16:29:19.16Z</time></trkpt><trkpt lat="33.53734428333333" lon="-111.57641321666667"><ele>468.71428571428567</ele><time>2026-04-08T16:29:20.173Z</time></trkpt><trkpt lat="33.537282649999995" lon="-111.57637623333333"><ele>469.1428571428571</ele><time>2026-04-08T16:29:21.159Z</time></trkpt><trkpt lat="33.53721945" lon="-111.57634668333333"><ele>469.57142857142856</ele><time>2026-04-08T16:29:22.164Z</time></trkpt><trkpt lat="33.53715646666667" lon="-111.57632333333333"><ele>470.0</ele><time>2026-04-08T16:29:23.181Z</time></trkpt><trkpt lat="33.537095" lon="-111.57630544999999"><ele>470.2857142857143</ele><time>2026-04-08T16:29:24.165Z</time></trkpt><trkpt lat="33.5370309" lon="-111.57629613333332"><ele>470.57142857142856</ele><time>2026-04-08T16:29:25.165Z</time></trkpt><trkpt lat="33.53696396666667" lon="-111.57630320000001"><ele>470.85714285714283</ele><time>2026-04-08T16:29:26.215Z</time></trkpt><trkpt lat="33.536898150000006" lon="-111.57632385"><ele>471.1428571428571</ele><time>2026-04-08T16:29:27.179Z</time></trkpt><trkpt lat="33.536839916666665" lon="-111.57636273333334"><ele>471.42857142857144</ele><time>2026-04-08T16:29:28.171Z</time></trkpt><trkpt lat="33.53678605" lon="-111.5764132"><ele>471.71428571428567</ele><time>2026-04-08T16:29:29.188Z</time></trkpt><trkpt lat="33.53672331666667" lon="-111.57645788333333"><ele>472.0</ele><time>2026-04-08T16:29:30.175Z</time></trkpt><trkpt lat="33.536647816666665" lon="-111.57649613333332"><ele>472.00000000000006</ele><time>2026-04-08T16:29:31.189Z</time></trkpt><trkpt lat="33.536573516666664" lon="-111.57653161666667"><ele>472.0</ele><time>2026-04-08T16:29:32.198Z</time></trkpt><trkpt lat="33.5365061" lon="-111.57656049999999"><ele>472.0</ele><time>2026-04-08T16:29:33.188Z</time></trkpt><trkpt lat="33.53643701666667" lon="-111.57658136666664"><ele>472.0</ele><time>2026-04-08T16:29:34.178Z</time></trkpt><trkpt lat="33.53636383333333" lon="-111.57659991666667"><ele>472.00000000000006</ele><time>2026-04-08T16:29:35.198Z</time></trkpt><trkpt lat="33.53628825" lon="-111.57661756666667"><ele>472.0</ele><time>2026-04-08T16:29:36.188Z</time></trkpt><trkpt lat="33.53621203333333" lon="-111.57662696666667"><ele>472.42857142857144</ele><time>2026-04-08T16:29:37.202Z</time></trkpt><trkpt lat="33.53613416666667" lon="-111.57662193333333"><ele>472.8571428571429</ele><time>2026-04-08T16:29:38.198Z</time></trkpt><trkpt lat="33.53605695" lon="-111.57660575"><ele>473.28571428571433</ele><time>2026-04-08T16:29:39.188Z</time></trkpt><trkpt lat="33.53598215" lon="-111.57658668333333"><ele>473.7142857142857</ele><time>2026-04-08T16:29:40.208Z</time></trkpt><trkpt lat="33.535908666666664" lon="-111.5765756"><ele>474.1428571428572</ele><time>2026-04-08T16:29:41.189Z</time></trkpt><trkpt lat="33.5358366" lon="-111.57657328333333"><ele>474.5714285714286</ele><time>2026-04-08T16:29:42.2Z</time></trkpt><trkpt lat="33.535766566666666" lon="-111.57657830000001"><ele>475.0</ele><time>2026-04-08T16:29:43.212Z</time></trkpt><trkpt lat="33.535697033333335" lon="-111.57659711666666"><ele>475.00000000000006</ele><time>2026-04-08T16:29:44.195Z</time></trkpt><trkpt lat="33.53562526666666" lon="-111.57662383333333"><ele>475.0</ele><time>2026-04-08T16:29:45.209Z</time></trkpt><trkpt lat="33.53555088333333" lon="-111.57663815"><ele>475.0</ele><time>2026-04-08T16:29:46.215Z</time></trkpt><trkpt lat="33.535473450000005" lon="-111.57663141666666"><ele>475.0</ele><time>2026-04-08T16:29:47.205Z</time></trkpt><trkpt lat="33.535392333333334" lon="-111.57660893333332"><ele>475.00000000000006</ele><time>2026-04-08T16:29:48.231Z</time></trkpt><trkpt lat="33.53531556666667" lon="-111.57657023333334"><ele>475.0</ele><time>2026-04-08T16:29:49.209Z</time></trkpt><trkpt lat="33.53524361666667" lon="-111.57651499999999"><ele>475.1666666666667</ele><time>2026-04-08T16:29:50.205Z</time></trkpt><trkpt lat="33.53517168333334" lon="-111.57644835"><ele>475.33333333333337</ele><time>2026-04-08T16:29:51.22Z</time></trkpt><trkpt lat="33.53510523333333" lon="-111.57637680000002"><ele>475.5</ele><time>2026-04-08T16:29:52.228Z</time></trkpt><trkpt lat="33.53505103333333" lon="-111.57629976666666"><ele>475.66666666666663</ele><time>2026-04-08T16:29:53.235Z</time></trkpt><trkpt lat="33.5350022" lon="-111.57622064999998"><ele>475.8333333333333</ele><time>2026-04-08T16:29:54.224Z</time></trkpt><trkpt lat="33.534945816666664" lon="-111.57614346666666"><ele>476.0</ele><time>2026-04-08T16:29:55.214Z</time></trkpt><trkpt lat="33.534873733333335" lon="-111.57607258333334"><ele>476.20000000000005</ele><time>2026-04-08T16:29:56.33Z</time></trkpt><trkpt lat="33.53478321666666" lon="-111.57600383333332"><ele>476.40000000000003</ele><time>2026-04-08T16:29:57.324Z</time></trkpt><trkpt lat="33.53468361666667" lon="-111.57593921666667"><ele>476.6</ele><time>2026-04-08T16:29:58.334Z</time></trkpt><trkpt lat="33.5345869" lon="-111.57588491666665"><ele>476.8</ele><time>2026-04-08T16:29:59.324Z</time></trkpt><trkpt lat="33.53449315" lon="-111.57584196666666"><ele>477.0</ele><time>2026-04-08T16:30:00.317Z</time></trkpt><trkpt lat="33.534402533333335" lon="-111.57579911666666"><ele>477.6</ele><time>2026-04-08T16:30:01.325Z</time></trkpt><trkpt lat="33.534319266666664" lon="-111.57574991666667"><ele>478.20000000000005</ele><time>2026-04-08T16:30:02.321Z</time></trkpt><trkpt lat="33.53423755" lon="-111.57570755"><ele>478.8</ele><time>2026-04-08T16:30:03.339Z</time></trkpt><trkpt lat="33.53415116666667" lon="-111.57567495"><ele>479.4</ele><time>2026-04-08T16:30:04.324Z</time></trkpt><trkpt lat="33.5340632" lon="-111.57564423333334"><ele>480.0</ele><time>2026-04-08T16:30:05.344Z</time></trkpt><trkpt lat="33.53397725" lon="-111.57560890000002"><ele>480.0</ele><time>2026-04-08T16:30:06.33Z</time></trkpt><trkpt lat="33.53389656666667" lon="-111.5755673"><ele>480.0</ele><time>2026-04-08T16:30:07.329Z</time></trkpt><trkpt lat="33.5338254" lon="-111.57551280000001"><ele>480.0</ele><time>2026-04-08T16:30:08.336Z</time></trkpt><trkpt lat="33.53376615" lon="-111.57545125"><ele>480.0</ele><time>2026-04-08T16:30:09.33Z</time></trkpt><trkpt lat="33.533718066666665" lon="-111.57539735"><ele>480.0</ele><time>2026-04-08T16:30:10.346Z</time></trkpt><trkpt lat="33.533661849999994" lon="-111.57532436666668"><ele>480.0</ele><time>2026-04-08T16:30:12.344Z</time></trkpt><trkpt lat="33.53360978333334" lon="-111.57527206666667"><ele>480.6666666666667</ele><time>2026-04-08T16:30:14.335Z</time></trkpt><trkpt lat="33.53350785" lon="-111.57522231666665"><ele>481.33333333333337</ele><time>2026-04-08T16:30:16.359Z</time></trkpt><trkpt lat="33.533445316666665" lon="-111.575198"><ele>482.0</ele><time>2026-04-08T16:30:17.359Z</time></trkpt><trkpt lat="33.5333786" lon="-111.57516773333333"><ele>482.6666666666667</ele><time>2026-04-08T16:30:18.349Z</time></trkpt><trkpt lat="33.533313883333335" lon="-111.57512918333332"><ele>483.33333333333337</ele><time>2026-04-08T16:30:19.364Z</time></trkpt><trkpt lat="33.53324943333334" lon="-111.57508191666666"><ele>484.0</ele><time>2026-04-08T16:30:20.356Z</time></trkpt><trkpt lat="33.53318278333334" lon="-111.57502953333332"><ele>484.0</ele><time>2026-04-08T16:30:21.344Z</time></trkpt><trkpt lat="33.53311255" lon="-111.57497288333334"><ele>484.0</ele><time>2026-04-08T16:30:22.359Z</time></trkpt><trkpt lat="33.533044866666664" lon="-111.57491471666665"><ele>484.0</ele><time>2026-04-08T16:30:23.349Z</time></trkpt><trkpt lat="33.53298326666667" lon="-111.57485826666668"><ele>484.0</ele><time>2026-04-08T16:30:24.365Z</time></trkpt><trkpt lat="33.532867933333335" lon="-111.5747513"><ele>484.0</ele><time>2026-04-08T16:30:25.354Z</time></trkpt><trkpt lat="33.53281663333333" lon="-111.57469631666667"><ele>484.4285714285714</ele><time>2026-04-08T16:30:26.369Z</time></trkpt><trkpt lat="33.532760700000004" lon="-111.57464488333332"><ele>484.8571428571428</ele><time>2026-04-08T16:30:27.362Z</time></trkpt><trkpt lat="33.53269805" lon="-111.57459421666665"><ele>485.2857142857143</ele><time>2026-04-08T16:30:28.361Z</time></trkpt><trkpt lat="33.5326375" lon="-111.57454023333332"><ele>485.71428571428567</ele><time>2026-04-08T16:30:29.377Z</time></trkpt><trkpt lat="33.53258236666667" lon="-111.57448718333332"><ele>486.1428571428571</ele><time>2026-04-08T16:30:30.363Z</time></trkpt><trkpt lat="33.532529233333335" lon="-111.57443403333333"><ele>486.57142857142856</ele><time>2026-04-08T16:30:31.367Z</time></trkpt><trkpt lat="33.53248275" lon="-111.57437001666666"><ele>487.0</ele><time>2026-04-08T16:30:32.371Z</time></trkpt><trkpt lat="33.53243633333333" lon="-111.57429948333332"><ele>487.00000000000006</ele><time>2026-04-08T16:30:33.36Z</time></trkpt><trkpt lat="33.53237478333333" lon="-111.57423491666665"><ele>487.0</ele><time>2026-04-08T16:30:34.365Z</time></trkpt><trkpt lat="33.53229953333334" lon="-111.57418203333333"><ele>487.0</ele><time>2026-04-08T16:30:35.381Z</time></trkpt><trkpt lat="33.532215083333334" lon="-111.57414671666665"><ele>487.0</ele><time>2026-04-08T16:30:36.387Z</time></trkpt><trkpt lat="33.532129383333334" lon="-111.57411823333332"><ele>487.00000000000006</ele><time>2026-04-08T16:30:37.379Z</time></trkpt><trkpt lat="33.532044516666666" lon="-111.57407586666667"><ele>487.0</ele><time>2026-04-08T16:30:38.383Z</time></trkpt><trkpt lat="33.53196163333334" lon="-111.57401561666664"><ele>487.40000000000003</ele><time>2026-04-08T16:30:39.369Z</time></trkpt><trkpt lat="33.53181435" lon="-111.57390556666665"><ele>487.80000000000007</ele><time>2026-04-08T16:30:41.396Z</time></trkpt><trkpt lat="33.53174975" lon="-111.57386628333333"><ele>488.2</ele><time>2026-04-08T16:30:42.377Z</time></trkpt><trkpt lat="33.53168358333333" lon="-111.57383274999998"><ele>488.6</ele><time>2026-04-08T16:30:43.375Z</time></trkpt><trkpt lat="33.53161031666667" lon="-111.57380441666668"><ele>489.0</ele><time>2026-04-08T16:30:44.379Z</time></trkpt><trkpt lat="33.53153201666667" lon="-111.57378241666666"><ele>489.0</ele><time>2026-04-08T16:30:45.378Z</time></trkpt><trkpt lat="33.53145411666667" lon="-111.57375678333334"><ele>489.0</ele><time>2026-04-08T16:30:46.385Z</time></trkpt><trkpt lat="33.531380500000004" lon="-111.57372384999998"><ele>489.0</ele><time>2026-04-08T16:30:47.399Z</time></trkpt><trkpt lat="33.53130485" lon="-111.57369938333335"><ele>489.0</ele><time>2026-04-08T16:30:48.393Z</time></trkpt><trkpt lat="33.53122058333334" lon="-111.57369416666667"><ele>489.0</ele><time>2026-04-08T16:30:49.404Z</time></trkpt><trkpt lat="33.5311315" lon="-111.57370383333334"><ele>489.0</ele><time>2026-04-08T16:30:50.394Z</time></trkpt><trkpt lat="33.53104291666667" lon="-111.57372386666667"><ele>489.5</ele><time>2026-04-08T16:30:51.399Z</time></trkpt><trkpt lat="33.53095305" lon="-111.57374001666668"><ele>490.0</ele><time>2026-04-08T16:30:52.41Z</time></trkpt><trkpt lat="33.53086416666667" lon="-111.57374658333335"><ele>490.5</ele><time>2026-04-08T16:30:53.389Z</time></trkpt><trkpt lat="33.530778266666665" lon="-111.57374873333335"><ele>491.0</ele><time>2026-04-08T16:30:54.405Z</time></trkpt><trkpt lat="33.5306962" lon="-111.57375108333332"><ele>491.5</ele><time>2026-04-08T16:30:55.409Z</time></trkpt><trkpt lat="33.530618" lon="-111.57374103333335"><ele>492.0</ele><time>2026-04-08T16:30:56.401Z</time></trkpt><trkpt lat="33.530541666666664" lon="-111.57373146666664"><ele>492.0</ele><time>2026-04-08T16:30:57.409Z</time></trkpt><trkpt lat="33.53046591666667" lon="-111.57373361666666"><ele>492.0</ele><time>2026-04-08T16:30:58.419Z</time></trkpt><trkpt lat="33.530386750000005" lon="-111.57374278333334"><ele>492.0</ele><time>2026-04-08T16:30:59.421Z</time></trkpt><trkpt lat="33.53030451666667" lon="-111.57375631666667"><ele>492.0</ele><time>2026-04-08T16:31:00.419Z</time></trkpt><trkpt lat="33.53021885" lon="-111.57376981666665"><ele>492.0</ele><time>2026-04-08T16:31:01.424Z</time></trkpt><trkpt lat="33.530131516666664" lon="-111.57377765000001"><ele>492.0</ele><time>2026-04-08T16:31:02.404Z</time></trkpt><trkpt lat="33.53004670000001" lon="-111.57378946666667"><ele>492.0</ele><time>2026-04-08T16:31:03.419Z</time></trkpt><trkpt lat="33.529963216666665" lon="-111.57379631666666"><ele>492.0</ele><time>2026-04-08T16:31:04.41Z</time></trkpt><trkpt lat="33.52987903333333" lon="-111.5737946"><ele>492.0</ele><time>2026-04-08T16:31:05.415Z</time></trkpt><trkpt lat="33.52979258333333" lon="-111.57378031666667"><ele>492.0</ele><time>2026-04-08T16:31:06.414Z</time></trkpt><trkpt lat="33.529707349999995" lon="-111.57374591666667"><ele>492.0</ele><time>2026-04-08T16:31:07.425Z</time></trkpt><trkpt lat="33.529627600000005" lon="-111.57369808333333"><ele>492.0</ele><time>2026-04-08T16:31:08.424Z</time></trkpt><trkpt lat="33.529551850000004" lon="-111.57364786666668"><ele>492.3333333333333</ele><time>2026-04-08T16:31:09.43Z</time></trkpt><trkpt lat="33.52947926666666" lon="-111.57360553333335"><ele>492.66666666666663</ele><time>2026-04-08T16:31:10.435Z</time></trkpt><trkpt lat="33.52940341666667" lon="-111.57358153333334"><ele>493.0</ele><time>2026-04-08T16:31:11.432Z</time></trkpt><trkpt lat="33.529325183333334" lon="-111.57356751666666"><ele>493.3333333333333</ele><time>2026-04-08T16:31:12.439Z</time></trkpt><trkpt lat="33.5292468" lon="-111.57355371666667"><ele>493.66666666666663</ele><time>2026-04-08T16:31:13.429Z</time></trkpt><trkpt lat="33.52916525" lon="-111.57354298333334"><ele>494.0</ele><time>2026-04-08T16:31:14.42Z</time></trkpt><trkpt lat="33.52908211666667" lon="-111.57353778333332"><ele>493.99999999999994</ele><time>2026-04-08T16:31:15.424Z</time></trkpt><trkpt lat="33.52899671666667" lon="-111.57354258333335"><ele>494.0</ele><time>2026-04-08T16:31:16.425Z</time></trkpt><trkpt lat="33.52890953333333" lon="-111.57356055"><ele>494.0</ele><time>2026-04-08T16:31:17.44Z</time></trkpt><trkpt lat="33.52882123333333" lon="-111.57358356666667"><ele>494.0</ele><time>2026-04-08T16:31:18.429Z</time></trkpt><trkpt lat="33.52873421666667" lon="-111.57360428333334"><ele>493.99999999999994</ele><time>2026-04-08T16:31:19.441Z</time></trkpt><trkpt lat="33.52865153333333" lon="-111.57362545"><ele>494.0</ele><time>2026-04-08T16:31:20.442Z</time></trkpt><trkpt lat="33.52857363333334" lon="-111.57365645"><ele>494.66666666666663</ele><time>2026-04-08T16:31:21.432Z</time></trkpt><trkpt lat="33.528506416666666" lon="-111.57369355000002"><ele>495.3333333333333</ele><time>2026-04-08T16:31:22.445Z</time></trkpt><trkpt lat="33.5284387" lon="-111.57371733333333"><ele>496.0</ele><time>2026-04-08T16:31:23.432Z</time></trkpt><trkpt lat="33.52835925" lon="-111.57372638333334"><ele>496.66666666666663</ele><time>2026-04-08T16:31:24.445Z</time></trkpt><trkpt lat="33.5282806" lon="-111.57372981666668"><ele>497.3333333333333</ele><time>2026-04-08T16:31:25.437Z</time></trkpt><trkpt lat="33.52820631666667" lon="-111.57371975000001"><ele>498.0</ele><time>2026-04-08T16:31:26.459Z</time></trkpt><trkpt lat="33.528130383333334" lon="-111.5736946"><ele>498.1666666666667</ele><time>2026-04-08T16:31:27.445Z</time></trkpt><trkpt lat="33.52805425" lon="-111.57366615000001"><ele>498.33333333333337</ele><time>2026-04-08T16:31:28.457Z</time></trkpt><trkpt lat="33.527976366666664" lon="-111.57364661666666"><ele>498.5</ele><time>2026-04-08T16:31:29.454Z</time></trkpt><trkpt lat="33.52789075" lon="-111.57364006666667"><ele>498.6666666666667</ele><time>2026-04-08T16:31:30.444Z</time></trkpt><trkpt lat="33.527797416666665" lon="-111.57364265"><ele>498.83333333333337</ele><time>2026-04-08T16:31:31.467Z</time></trkpt><trkpt lat="33.527709800000004" lon="-111.57365133333333"><ele>499.0</ele><time>2026-04-08T16:31:32.444Z</time></trkpt><trkpt lat="33.52763338333333" lon="-111.57366528333333"><ele>499.00000000000006</ele><time>2026-04-08T16:31:33.461Z</time></trkpt><trkpt lat="33.52756633333333" lon="-111.57368438333333"><ele>499.0</ele><time>2026-04-08T16:31:34.457Z</time></trkpt><trkpt lat="33.52750461666667" lon="-111.57370231666667"><ele>499.0</ele><time>2026-04-08T16:31:35.465Z</time></trkpt><trkpt lat="33.52737821666666" lon="-111.57368185"><ele>499.0</ele><time>2026-04-08T16:31:37.469Z</time></trkpt><trkpt lat="33.527320366666665" lon="-111.57363356666669"><ele>499.00000000000006</ele><time>2026-04-08T16:31:38.48Z</time></trkpt><trkpt lat="33.5272814" lon="-111.57356796666666"><ele>499.0</ele><time>2026-04-08T16:31:39.474Z</time></trkpt><trkpt lat="33.527250916666674" lon="-111.57343283333334"><ele>499.0</ele><time>2026-04-08T16:31:41.47Z</time></trkpt><trkpt lat="33.52720333333333" lon="-111.57332515000002"><ele>499.0</ele><time>2026-04-08T16:31:43.464Z</time></trkpt><trkpt lat="33.52713146666667" lon="-111.57326024999999"><ele>499.0</ele><time>2026-04-08T16:31:45.467Z</time></trkpt><trkpt lat="33.52705291666667" lon="-111.57326046666667"><ele>499.0</ele><time>2026-04-08T16:31:47.479Z</time></trkpt><trkpt lat="33.52697328333334" lon="-111.57331360000002"><ele>499.0</ele><time>2026-04-08T16:31:49.473Z</time></trkpt><trkpt lat="33.526884566666666" lon="-111.57337940000001"><ele>499.79999999999995</ele><time>2026-04-08T16:31:51.475Z</time></trkpt><trkpt lat="33.526778050000004" lon="-111.57339670000002"><ele>500.59999999999997</ele><time>2026-04-08T16:31:53.486Z</time></trkpt><trkpt lat="33.52666386666667" lon="-111.57338426666665"><ele>501.4</ele><time>2026-04-08T16:31:55.493Z</time></trkpt><trkpt lat="33.5265603" lon="-111.57337745000002"><ele>502.2</ele><time>2026-04-08T16:31:57.489Z</time></trkpt><trkpt lat="33.52645691666667" lon="-111.57333758333334"><ele>503.0</ele><time>2026-04-08T16:31:59.5Z</time></trkpt><trkpt lat="33.52636330000001" lon="-111.57328036666668"><ele>503.0</ele><time>2026-04-08T16:32:01.505Z</time></trkpt><trkpt lat="33.52627818333333" lon="-111.57322081666668"><ele>502.99999999999994</ele><time>2026-04-08T16:32:03.489Z</time></trkpt><trkpt lat="33.52617479999999" lon="-111.57320861666668"><ele>502.99999999999994</ele><time>2026-04-08T16:32:05.5Z</time></trkpt><trkpt lat="33.52606445" lon="-111.57330325"><ele>503.0</ele><time>2026-04-08T16:32:07.505Z</time></trkpt><trkpt lat="33.52601516666667" lon="-111.57337798333334"><ele>503.0</ele><time>2026-04-08T16:32:08.52Z</time></trkpt><trkpt lat="33.52595313333334" lon="-111.57343661666667"><ele>503.28571428571433</ele><time>2026-04-08T16:32:09.511Z</time></trkpt><trkpt lat="33.52588626666666" lon="-111.57348463333335"><ele>503.5714285714286</ele><time>2026-04-08T16:32:10.5Z</time></trkpt><trkpt lat="33.52582328333334" lon="-111.57353104999999"><ele>503.8571428571429</ele><time>2026-04-08T16:32:11.513Z</time></trkpt><trkpt lat="33.5257568" lon="-111.57357371666667"><ele>504.1428571428571</ele><time>2026-04-08T16:32:12.505Z</time></trkpt><trkpt lat="33.52568965" lon="-111.57361645"><ele>504.4285714285714</ele><time>2026-04-08T16:32:13.517Z</time></trkpt><trkpt lat="33.525624500000006" lon="-111.57365561666666"><ele>504.71428571428567</ele><time>2026-04-08T16:32:14.51Z</time></trkpt><trkpt lat="33.52556176666667" lon="-111.57369198333333"><ele>505.0</ele><time>2026-04-08T16:32:15.51Z</time></trkpt><trkpt lat="33.52550000000001" lon="-111.57373818333332"><ele>505.00000000000006</ele><time>2026-04-08T16:32:16.515Z</time></trkpt><trkpt lat="33.5254387" lon="-111.57379721666666"><ele>505.0</ele><time>2026-04-08T16:32:17.53Z</time></trkpt><trkpt lat="33.5253735" lon="-111.57386378333335"><ele>505.0</ele><time>2026-04-08T16:32:18.53Z</time></trkpt><trkpt lat="33.52530513333334" lon="-111.57392493333333"><ele>505.0</ele><time>2026-04-08T16:32:19.516Z</time></trkpt><trkpt lat="33.525239316666664" lon="-111.5739774"><ele>505.00000000000006</ele><time>2026-04-08T16:32:20.521Z</time></trkpt><trkpt lat="33.525175616666665" lon="-111.57402951666667"><ele>505.0</ele><time>2026-04-08T16:32:21.537Z</time></trkpt><trkpt lat="33.52511441666667" lon="-111.57409176666667"><ele>505.2</ele><time>2026-04-08T16:32:22.526Z</time></trkpt><trkpt lat="33.52505428333333" lon="-111.57416516666666"><ele>505.4</ele><time>2026-04-08T16:32:23.531Z</time></trkpt><trkpt lat="33.52499325" lon="-111.57425031666668"><ele>505.6</ele><time>2026-04-08T16:32:24.52Z</time></trkpt><trkpt lat="33.52493393333333" lon="-111.57434156666669"><ele>505.8</ele><time>2026-04-08T16:32:25.521Z</time></trkpt><trkpt lat="33.52487573333334" lon="-111.57442721666666"><ele>506.0</ele><time>2026-04-08T16:32:26.523Z</time></trkpt><trkpt lat="33.524815133333334" lon="-111.5745027"><ele>506.4285714285715</ele><time>2026-04-08T16:32:27.546Z</time></trkpt><trkpt lat="33.52475041666666" lon="-111.574571"><ele>506.8571428571429</ele><time>2026-04-08T16:32:28.544Z</time></trkpt><trkpt lat="33.52468648333333" lon="-111.57463468333333"><ele>507.2857142857143</ele><time>2026-04-08T16:32:29.538Z</time></trkpt><trkpt lat="33.5246314" lon="-111.57469423333332"><ele>507.7142857142857</ele><time>2026-04-08T16:32:30.539Z</time></trkpt><trkpt lat="33.5245801" lon="-111.57474455000002"><ele>508.1428571428571</ele><time>2026-04-08T16:32:31.542Z</time></trkpt><trkpt lat="33.52452221666667" lon="-111.57477904999999"><ele>508.5714285714285</ele><time>2026-04-08T16:32:32.537Z</time></trkpt><trkpt lat="33.52445491666667" lon="-111.57478911666666"><ele>508.99999999999994</ele><time>2026-04-08T16:32:33.553Z</time></trkpt><trkpt lat="33.5243863" lon="-111.57478285"><ele>508.99999999999994</ele><time>2026-04-08T16:32:34.536Z</time></trkpt><trkpt lat="33.52426418333334" lon="-111.57479581666668"><ele>509.0</ele><time>2026-04-08T16:32:36.54Z</time></trkpt><trkpt lat="33.52416813333333" lon="-111.57488128333334"><ele>509.0</ele><time>2026-04-08T16:32:38.55Z</time></trkpt><trkpt lat="33.524123" lon="-111.57493513333333"><ele>509.0</ele><time>2026-04-08T16:32:39.56Z</time></trkpt><trkpt lat="33.524073666666666" lon="-111.57498650000001"><ele>508.99999999999994</ele><time>2026-04-08T16:32:40.553Z</time></trkpt><trkpt lat="33.52402226666666" lon="-111.57503206666668"><ele>509.0</ele><time>2026-04-08T16:32:41.565Z</time></trkpt><trkpt lat="33.523963116666664" lon="-111.57506633333333"><ele>508.99999999999994</ele><time>2026-04-08T16:32:42.558Z</time></trkpt><trkpt lat="33.52389803333333" lon="-111.57508741666666"><ele>509.0</ele><time>2026-04-08T16:32:43.547Z</time></trkpt><trkpt lat="33.52382898333334" lon="-111.57508973333333"><ele>509.0</ele><time>2026-04-08T16:32:44.564Z</time></trkpt><trkpt lat="33.523759483333336" lon="-111.5750763"><ele>509.0</ele><time>2026-04-08T16:32:45.555Z</time></trkpt><trkpt lat="33.52369358333334" lon="-111.57506183333335"><ele>508.99999999999994</ele><time>2026-04-08T16:32:46.571Z</time></trkpt><trkpt lat="33.523573266666666" lon="-111.57505178333335"><ele>509.0</ele><time>2026-04-08T16:32:48.572Z</time></trkpt><trkpt lat="33.52345798333333" lon="-111.57504623333335"><ele>508.4</ele><time>2026-04-08T16:32:50.562Z</time></trkpt><trkpt lat="33.52334128333334" lon="-111.5750378"><ele>507.79999999999995</ele><time>2026-04-08T16:32:52.557Z</time></trkpt><trkpt lat="33.523236483333335" lon="-111.57503788333332"><ele>507.20000000000005</ele><time>2026-04-08T16:32:54.576Z</time></trkpt><trkpt lat="33.52314196666667" lon="-111.57504025000001"><ele>506.6</ele><time>2026-04-08T16:32:56.585Z</time></trkpt><trkpt lat="33.52303728333333" lon="-111.57505521666666"><ele>506.0</ele><time>2026-04-08T16:32:58.585Z</time></trkpt><trkpt lat="33.52291425" lon="-111.57509955"><ele>504.99999999999994</ele><time>2026-04-08T16:33:00.57Z</time></trkpt><trkpt lat="33.52285401666666" lon="-111.57512531666667"><ele>504.0</ele><time>2026-04-08T16:33:01.59Z</time></trkpt><trkpt lat="33.52274653333333" lon="-111.57516011666667"><ele>503.0</ele><time>2026-04-08T16:33:03.585Z</time></trkpt><trkpt lat="33.52264018333334" lon="-111.5751997"><ele>502.0</ele><time>2026-04-08T16:33:05.596Z</time></trkpt><trkpt lat="33.522551916666664" lon="-111.57521736666666"><ele>500.99999999999994</ele><time>2026-04-08T16:33:07.596Z</time></trkpt><trkpt lat="33.52248751666667" lon="-111.57523731666667"><ele>500.0</ele><time>2026-04-08T16:33:10.603Z</time></trkpt><trkpt lat="33.5224538" lon="-111.57516631666668"><ele>499.99999999999994</ele><time>2026-04-08T16:35:02.748Z</time></trkpt><trkpt lat="33.522381966666664" lon="-111.57517083333333"><ele>500.0</ele><time>2026-04-08T16:35:05.748Z</time></trkpt><trkpt lat="33.522303883333336" lon="-111.57513535000001"><ele>500.0</ele><time>2026-04-08T16:35:08.779Z</time></trkpt><trkpt lat="33.52222708333334" lon="-111.57508245"><ele>500.0</ele><time>2026-04-08T16:35:10.763Z</time></trkpt><trkpt lat="33.522148566666665" lon="-111.57501395"><ele>499.99999999999994</ele><time>2026-04-08T16:35:12.766Z</time></trkpt><trkpt lat="33.52207805" lon="-111.57495558333335"><ele>500.0</ele><time>2026-04-08T16:35:14.789Z</time></trkpt><trkpt lat="33.522015333333336" lon="-111.57489025000001"><ele>500.66666666666663</ele><time>2026-04-08T16:35:16.78Z</time></trkpt><trkpt lat="33.52192123333333" lon="-111.57484525000001"><ele>501.3333333333333</ele><time>2026-04-08T16:35:18.782Z</time></trkpt><trkpt lat="33.521799316666666" lon="-111.57482281666668"><ele>502.0</ele><time>2026-04-08T16:35:20.792Z</time></trkpt><trkpt lat="33.52173575" lon="-111.57479909999999"><ele>502.66666666666663</ele><time>2026-04-08T16:35:21.79Z</time></trkpt><trkpt lat="33.52167333333333" lon="-111.5747712"><ele>503.3333333333333</ele><time>2026-04-08T16:35:22.78Z</time></trkpt><trkpt lat="33.52160826666667" lon="-111.57474334999999"><ele>504.0</ele><time>2026-04-08T16:35:23.8Z</time></trkpt><trkpt lat="33.52154535" lon="-111.57471066666666"><ele>504.0</ele><time>2026-04-08T16:35:24.79Z</time></trkpt><trkpt lat="33.5214845" lon="-111.57467208333334"><ele>504.0</ele><time>2026-04-08T16:35:25.78Z</time></trkpt><trkpt lat="33.52142203333334" lon="-111.57463313333335"><ele>504.0</ele><time>2026-04-08T16:35:26.79Z</time></trkpt><trkpt lat="33.5213603" lon="-111.57459695000001"><ele>504.0</ele><time>2026-04-08T16:35:27.79Z</time></trkpt><trkpt lat="33.52130138333334" lon="-111.57456411666665"><ele>504.0</ele><time>2026-04-08T16:35:28.788Z</time></trkpt><trkpt lat="33.521243483333336" lon="-111.57452958333333"><ele>504.0</ele><time>2026-04-08T16:35:29.796Z</time></trkpt><trkpt lat="33.52118518333333" lon="-111.57448860000001"><ele>504.0</ele><time>2026-04-08T16:35:30.807Z</time></trkpt><trkpt lat="33.521120249999996" lon="-111.57443793333333"><ele>504.3333333333333</ele><time>2026-04-08T16:35:31.792Z</time></trkpt><trkpt lat="33.5210503" lon="-111.57438048333334"><ele>504.66666666666663</ele><time>2026-04-08T16:35:32.807Z</time></trkpt><trkpt lat="33.52098663333334" lon="-111.57432101666667"><ele>505.0</ele><time>2026-04-08T16:35:33.812Z</time></trkpt><trkpt lat="33.520927566666664" lon="-111.57426663333332"><ele>505.3333333333333</ele><time>2026-04-08T16:35:34.793Z</time></trkpt><trkpt lat="33.520872250000004" lon="-111.57422381666665"><ele>505.66666666666663</ele><time>2026-04-08T16:35:35.801Z</time></trkpt><trkpt lat="33.52077091666667" lon="-111.57416185"><ele>506.0</ele><time>2026-04-08T16:35:37.806Z</time></trkpt><trkpt lat="33.520668533333335" lon="-111.5741109"><ele>505.99999999999994</ele><time>2026-04-08T16:35:39.811Z</time></trkpt><trkpt lat="33.5205808" lon="-111.57401656666667"><ele>506.0</ele><time>2026-04-08T16:35:41.821Z</time></trkpt><trkpt lat="33.52055081666667" lon="-111.57394504999999"><ele>506.0</ele><time>2026-04-08T16:35:42.821Z</time></trkpt><trkpt lat="33.52052663333333" lon="-111.57386378333335"><ele>506.0</ele><time>2026-04-08T16:35:43.821Z</time></trkpt><trkpt lat="33.5205017" lon="-111.57378138333333"><ele>505.99999999999994</ele><time>2026-04-08T16:35:44.81Z</time></trkpt><trkpt lat="33.52047895" lon="-111.57370376666668"><ele>506.0</ele><time>2026-04-08T16:35:45.811Z</time></trkpt><trkpt lat="33.52045768333333" lon="-111.5736226"><ele>506.49999999999994</ele><time>2026-04-08T16:35:46.827Z</time></trkpt><trkpt lat="33.520430499999996" lon="-111.57353628333333"><ele>507.0</ele><time>2026-04-08T16:35:47.807Z</time></trkpt><trkpt lat="33.52040301666666" lon="-111.57345111666667"><ele>507.5</ele><time>2026-04-08T16:35:48.821Z</time></trkpt><trkpt lat="33.52037853333333" lon="-111.57337199999999"><ele>508.0</ele><time>2026-04-08T16:35:49.833Z</time></trkpt><trkpt lat="33.52031373333333" lon="-111.57325334999999"><ele>508.49999999999994</ele><time>2026-04-08T16:35:51.828Z</time></trkpt><trkpt lat="33.520261" lon="-111.57320963333335"><ele>509.0</ele><time>2026-04-08T16:35:52.831Z</time></trkpt><trkpt lat="33.520190983333336" lon="-111.57317288333333"><ele>508.99999999999994</ele><time>2026-04-08T16:35:53.821Z</time></trkpt><trkpt lat="33.520116216666665" lon="-111.57314323333333"><ele>509.0</ele><time>2026-04-08T16:35:54.832Z</time></trkpt><trkpt lat="33.520043683333334" lon="-111.57311501666666"><ele>509.0</ele><time>2026-04-08T16:35:55.823Z</time></trkpt><trkpt lat="33.519974833333336" lon="-111.57307199999998"><ele>509.0</ele><time>2026-04-08T16:35:56.821Z</time></trkpt><trkpt lat="33.519913816666666" lon="-111.57301028333335"><ele>508.99999999999994</ele><time>2026-04-08T16:35:57.831Z</time></trkpt><trkpt lat="33.519854683333335" lon="-111.57293113333331"><ele>509.0</ele><time>2026-04-08T16:35:58.828Z</time></trkpt><trkpt lat="33.5197962" lon="-111.57283706666668"><ele>508.4</ele><time>2026-04-08T16:35:59.838Z</time></trkpt><trkpt lat="33.51974775" lon="-111.57273256666667"><ele>507.79999999999995</ele><time>2026-04-08T16:36:00.846Z</time></trkpt><trkpt lat="33.519707616666665" lon="-111.57263675000002"><ele>507.20000000000005</ele><time>2026-04-08T16:36:01.855Z</time></trkpt><trkpt lat="33.51967715" lon="-111.57254863333334"><ele>506.6</ele><time>2026-04-08T16:36:02.844Z</time></trkpt><trkpt lat="33.519652883333336" lon="-111.57246775"><ele>506.0</ele><time>2026-04-08T16:36:03.834Z</time></trkpt><trkpt lat="33.51962473333333" lon="-111.57233749999999"><ele>506.0</ele><time>2026-04-08T16:36:05.841Z</time></trkpt><trkpt lat="33.51961386666667" lon="-111.57222179999998"><ele>506.0</ele><time>2026-04-08T16:36:07.846Z</time></trkpt><trkpt lat="33.51959203333333" lon="-111.57211546666667"><ele>506.0</ele><time>2026-04-08T16:36:09.843Z</time></trkpt><trkpt lat="33.51956305" lon="-111.57202004999999"><ele>506.0</ele><time>2026-04-08T16:36:11.864Z</time></trkpt><trkpt lat="33.51947335" lon="-111.57193328333334"><ele>506.0</ele><time>2026-04-08T16:36:13.857Z</time></trkpt><trkpt lat="33.519381366666664" lon="-111.57187873333332"><ele>506.8333333333333</ele><time>2026-04-08T16:36:15.866Z</time></trkpt><trkpt lat="33.51933016666667" lon="-111.57180234999998"><ele>507.66666666666663</ele><time>2026-04-08T16:36:17.851Z</time></trkpt><trkpt lat="33.51930961666667" lon="-111.57171933333333"><ele>508.5</ele><time>2026-04-08T16:36:19.852Z</time></trkpt><trkpt lat="33.519301" lon="-111.57163333333335"><ele>509.33333333333337</ele><time>2026-04-08T16:36:21.863Z</time></trkpt><trkpt lat="33.51928175" lon="-111.57152821666665"><ele>510.1666666666667</ele><time>2026-04-08T16:36:24.877Z</time></trkpt><trkpt lat="33.5192274" lon="-111.57147196666668"><ele>511.0</ele><time>2026-04-08T16:36:26.867Z</time></trkpt><trkpt lat="33.51916191666667" lon="-111.57142713333333"><ele>511.0</ele><time>2026-04-08T16:36:28.878Z</time></trkpt><trkpt lat="33.51906625" lon="-111.5714026"><ele>511.0</ele><time>2026-04-08T16:36:30.883Z</time></trkpt><trkpt lat="33.51896316666667" lon="-111.57139243333334"><ele>511.0</ele><time>2026-04-08T16:36:32.882Z</time></trkpt><trkpt lat="33.5188567" lon="-111.57140213333332"><ele>511.0</ele><time>2026-04-08T16:36:34.891Z</time></trkpt><trkpt lat="33.518748800000004" lon="-111.57141148333335"><ele>511.0</ele><time>2026-04-08T16:36:36.897Z</time></trkpt><trkpt lat="33.518631633333335" lon="-111.57141491666667"><ele>511.20000000000005</ele><time>2026-04-08T16:36:38.901Z</time></trkpt><trkpt lat="33.5185136" lon="-111.57141793333334"><ele>511.40000000000003</ele><time>2026-04-08T16:36:40.891Z</time></trkpt><trkpt lat="33.518414799999995" lon="-111.57143206666667"><ele>511.6</ele><time>2026-04-08T16:36:42.889Z</time></trkpt><trkpt lat="33.51832698333333" lon="-111.57144058333333"><ele>511.8</ele><time>2026-04-08T16:36:44.902Z</time></trkpt><trkpt lat="33.51822251666667" lon="-111.57143171666667"><ele>512.0</ele><time>2026-04-08T16:36:46.901Z</time></trkpt><trkpt lat="33.51811705" lon="-111.57142038333335"><ele>512.0</ele><time>2026-04-08T16:36:48.918Z</time></trkpt><trkpt lat="33.518021649999994" lon="-111.57144335"><ele>512.0</ele><time>2026-04-08T16:36:50.916Z</time></trkpt><trkpt lat="33.51793883333333" lon="-111.57147798333331"><ele>512.0</ele><time>2026-04-08T16:36:52.916Z</time></trkpt><trkpt lat="33.51784043333334" lon="-111.57148081666666"><ele>512.0</ele><time>2026-04-08T16:36:54.93Z</time></trkpt><trkpt lat="33.5177283" lon="-111.5714868"><ele>512.0</ele><time>2026-04-08T16:36:56.91Z</time></trkpt><trkpt lat="33.51760289999999" lon="-111.57149230000002"><ele>512.1666666666666</ele><time>2026-04-08T16:36:58.916Z</time></trkpt><trkpt lat="33.517538933333334" lon="-111.57149293333332"><ele>512.3333333333333</ele><time>2026-04-08T16:36:59.93Z</time></trkpt><trkpt lat="33.51741513333333" lon="-111.57148653333334"><ele>512.5</ele><time>2026-04-08T16:37:01.936Z</time></trkpt><trkpt lat="33.51735003333334" lon="-111.57146720000001"><ele>512.6666666666666</ele><time>2026-04-08T16:37:02.926Z</time></trkpt><trkpt lat="33.5172887" lon="-111.57143361666667"><ele>512.8333333333334</ele><time>2026-04-08T16:37:03.927Z</time></trkpt><trkpt lat="33.51722915" lon="-111.57139354999998"><ele>513.0</ele><time>2026-04-08T16:37:04.917Z</time></trkpt><trkpt lat="33.517168983333335" lon="-111.57135101666665"><ele>513.0</ele><time>2026-04-08T16:37:05.921Z</time></trkpt><trkpt lat="33.51710823333333" lon="-111.5713116"><ele>513.0</ele><time>2026-04-08T16:37:06.936Z</time></trkpt><trkpt lat="33.51704626666667" lon="-111.57128083333335"><ele>513.0</ele><time>2026-04-08T16:37:07.921Z</time></trkpt><trkpt lat="33.51698655" lon="-111.57125253333334"><ele>513.0</ele><time>2026-04-08T16:37:08.932Z</time></trkpt><trkpt lat="33.51688541666667" lon="-111.57121333333333"><ele>513.0</ele><time>2026-04-08T16:37:10.946Z</time></trkpt><trkpt lat="33.516800800000006" lon="-111.57122179999999"><ele>513.0</ele><time>2026-04-08T16:37:12.947Z</time></trkpt><trkpt lat="33.516714416666666" lon="-111.57123976666665"><ele>513.4</ele><time>2026-04-08T16:37:14.932Z</time></trkpt><trkpt lat="33.51662615" lon="-111.57121573333335"><ele>513.8</ele><time>2026-04-08T16:37:16.938Z</time></trkpt><trkpt lat="33.51657351666667" lon="-111.57116791666667"><ele>514.2</ele><time>2026-04-08T16:37:19.951Z</time></trkpt><trkpt lat="33.51663584999999" lon="-111.57108744999998"><ele>514.6</ele><time>2026-04-08T16:37:42.005Z</time></trkpt><trkpt lat="33.51668455" lon="-111.57096975000002"><ele>515.0</ele><time>2026-04-08T16:37:43.992Z</time></trkpt><trkpt lat="33.516705200000004" lon="-111.57085453333333"><ele>515.8333333333333</ele><time>2026-04-08T16:37:45.992Z</time></trkpt><trkpt lat="33.516689516666666" lon="-111.57075208333332"><ele>516.6666666666666</ele><time>2026-04-08T16:37:48.005Z</time></trkpt><trkpt lat="33.516662116666666" lon="-111.57063966666668"><ele>517.5</ele><time>2026-04-08T16:37:49.986Z</time></trkpt><trkpt lat="33.51660853333333" lon="-111.57055843333333"><ele>518.3333333333334</ele><time>2026-04-08T16:37:51.992Z</time></trkpt><trkpt lat="33.51655735" lon="-111.57048071666668"><ele>519.1666666666667</ele><time>2026-04-08T16:37:54.011Z</time></trkpt><trkpt lat="33.516496999999994" lon="-111.57042593333331"><ele>520.0</ele><time>2026-04-08T16:37:56.013Z</time></trkpt><trkpt lat="33.51640808333333" lon="-111.57037488333333"><ele>522.0</ele><time>2026-04-08T16:37:58.012Z</time></trkpt><trkpt lat="33.51631196666666" lon="-111.57030156666667"><ele>524.0</ele><time>2026-04-08T16:38:00.012Z</time></trkpt><trkpt lat="33.51621645" lon="-111.57021816666665"><ele>526.0</ele><time>2026-04-08T16:38:02.017Z</time></trkpt><trkpt lat="33.51616168333333" lon="-111.57017796666665"><ele>528.0</ele><time>2026-04-08T16:38:03.006Z</time></trkpt><trkpt lat="33.51610053333333" lon="-111.57014423333334"><ele>530.0</ele><time>2026-04-08T16:38:04.001Z</time></trkpt><trkpt lat="33.516042983333335" lon="-111.57010711666665"><ele>532.0</ele><time>2026-04-08T16:38:05.043Z</time></trkpt><trkpt lat="33.51598823333334" lon="-111.57006163333332"><ele>532.0</ele><time>2026-04-08T16:38:06.002Z</time></trkpt><trkpt lat="33.51593086666667" lon="-111.57001151666667"><ele>532.0</ele><time>2026-04-08T16:38:07.013Z</time></trkpt><trkpt lat="33.5158725" lon="-111.56995665000001"><ele>532.0</ele><time>2026-04-08T16:38:08.021Z</time></trkpt><trkpt lat="33.515815800000006" lon="-111.56989950000002"><ele>532.0</ele><time>2026-04-08T16:38:09.033Z</time></trkpt><trkpt lat="33.515761733333335" lon="-111.56983901666666"><ele>532.0</ele><time>2026-04-08T16:38:10.018Z</time></trkpt><trkpt lat="33.51571486666667" lon="-111.56978178333333"><ele>532.0</ele><time>2026-04-08T16:38:11.022Z</time></trkpt><trkpt lat="33.51562875" lon="-111.56969413333333"><ele>532.0</ele><time>2026-04-08T16:38:13.023Z</time></trkpt><trkpt lat="33.51553273333333" lon="-111.56961121666667"><ele>532.0</ele><time>2026-04-08T16:38:15.025Z</time></trkpt><trkpt lat="33.515447" lon="-111.56955418333334"><ele>532.0</ele><time>2026-04-08T16:38:17.031Z</time></trkpt><trkpt lat="33.5153569" lon="-111.56952756666665"><ele>532.0</ele><time>2026-04-08T16:38:19.028Z</time></trkpt><trkpt lat="33.5152958" lon="-111.56949783333333"><ele>532.0</ele><time>2026-04-08T16:38:21.043Z</time></trkpt><trkpt lat="33.51522335" lon="-111.56949218333334"><ele>532.0</ele><time>2026-04-08T16:41:26.399Z</time></trkpt><trkpt lat="33.51514783333334" lon="-111.56952331666668"><ele>531.8000000000001</ele><time>2026-04-08T16:41:28.399Z</time></trkpt><trkpt lat="33.515053849999994" lon="-111.56955408333333"><ele>531.6</ele><time>2026-04-08T16:41:30.404Z</time></trkpt><trkpt lat="33.51495706666666" lon="-111.56957031666667"><ele>531.4000000000001</ele><time>2026-04-08T16:41:32.404Z</time></trkpt><trkpt lat="33.514854666666665" lon="-111.56955833333335"><ele>531.2</ele><time>2026-04-08T16:41:34.394Z</time></trkpt><trkpt lat="33.51473631666667" lon="-111.56950501666667"><ele>531.0</ele><time>2026-04-08T16:41:36.423Z</time></trkpt><trkpt lat="33.51467713333333" lon="-111.56946935"><ele>531.8571428571429</ele><time>2026-04-08T16:41:37.407Z</time></trkpt><trkpt lat="33.5146217" lon="-111.56943293333333"><ele>532.7142857142858</ele><time>2026-04-08T16:41:38.397Z</time></trkpt><trkpt lat="33.514561816666664" lon="-111.56940201666667"><ele>533.5714285714286</ele><time>2026-04-08T16:41:39.415Z</time></trkpt><trkpt lat="33.514497" lon="-111.56937556666665"><ele>534.4285714285714</ele><time>2026-04-08T16:41:40.403Z</time></trkpt><trkpt lat="33.51443398333333" lon="-111.56934421666668"><ele>535.2857142857142</ele><time>2026-04-08T16:41:41.398Z</time></trkpt><trkpt lat="33.5143738" lon="-111.56930410000001"><ele>536.1428571428571</ele><time>2026-04-08T16:41:42.415Z</time></trkpt><trkpt lat="33.51431998333334" lon="-111.56925976666668"><ele>537.0</ele><time>2026-04-08T16:41:43.419Z</time></trkpt><trkpt lat="33.51422303333333" lon="-111.56916341666665"><ele>537.2857142857142</ele><time>2026-04-08T16:41:45.413Z</time></trkpt><trkpt lat="33.5141688" lon="-111.56911996666668"><ele>537.5714285714286</ele><time>2026-04-08T16:41:46.413Z</time></trkpt><trkpt lat="33.514109266666665" lon="-111.56908483333332"><ele>537.8571428571429</ele><time>2026-04-08T16:41:47.428Z</time></trkpt><trkpt lat="33.51404266666667" lon="-111.56905023333331"><ele>538.1428571428571</ele><time>2026-04-08T16:41:48.429Z</time></trkpt><trkpt lat="33.513977833333335" lon="-111.56900078333335"><ele>538.4285714285714</ele><time>2026-04-08T16:41:49.425Z</time></trkpt><trkpt lat="33.51391891666666" lon="-111.56894009999999"><ele>538.7142857142857</ele><time>2026-04-08T16:41:50.414Z</time></trkpt><trkpt lat="33.513866883333336" lon="-111.56888403333332"><ele>539.0</ele><time>2026-04-08T16:41:51.419Z</time></trkpt><trkpt lat="33.51381048333334" lon="-111.56883608333335"><ele>539.0</ele><time>2026-04-08T16:41:52.452Z</time></trkpt><trkpt lat="33.513750083333335" lon="-111.56878861666667"><ele>539.0</ele><time>2026-04-08T16:41:53.458Z</time></trkpt><trkpt lat="33.513687483333335" lon="-111.56873891666667"><ele>539.0</ele><time>2026-04-08T16:41:54.418Z</time></trkpt><trkpt lat="33.51363121666667" lon="-111.56868428333334"><ele>539.0</ele><time>2026-04-08T16:41:55.444Z</time></trkpt><trkpt lat="33.51358131666667" lon="-111.56862956666667"><ele>539.0</ele><time>2026-04-08T16:41:56.421Z</time></trkpt><trkpt lat="33.51352631666667" lon="-111.56858390000001"><ele>539.0</ele><time>2026-04-08T16:41:57.438Z</time></trkpt><trkpt lat="33.513460650000006" lon="-111.56855159999998"><ele>539.0</ele><time>2026-04-08T16:41:58.428Z</time></trkpt><trkpt lat="33.51339528333333" lon="-111.56852731666669"><ele>539.5</ele><time>2026-04-08T16:41:59.438Z</time></trkpt><trkpt lat="33.51333223333334" lon="-111.56850498333334"><ele>540.0</ele><time>2026-04-08T16:42:00.445Z</time></trkpt><trkpt lat="33.51326923333333" lon="-111.56848169999999"><ele>540.5</ele><time>2026-04-08T16:42:01.424Z</time></trkpt><trkpt lat="33.513157533333334" lon="-111.56844281666666"><ele>541.0</ele><time>2026-04-08T16:42:03.452Z</time></trkpt><trkpt lat="33.513083916666666" lon="-111.56838359999999"><ele>541.5</ele><time>2026-04-08T16:42:05.434Z</time></trkpt><trkpt lat="33.51302531666667" lon="-111.56828288333332"><ele>542.0</ele><time>2026-04-08T16:42:07.439Z</time></trkpt><trkpt lat="33.51299246666667" lon="-111.56821810000001"><ele>542.0</ele><time>2026-04-08T16:42:08.43Z</time></trkpt><trkpt lat="33.512958850000004" lon="-111.56814879999999"><ele>542.0</ele><time>2026-04-08T16:42:09.454Z</time></trkpt><trkpt lat="33.51292733333333" lon="-111.56807583333332"><ele>542.0</ele><time>2026-04-08T16:42:10.444Z</time></trkpt><trkpt lat="33.512855583333334" lon="-111.56795448333332"><ele>542.0</ele><time>2026-04-08T16:42:12.44Z</time></trkpt><trkpt lat="33.51276781666666" lon="-111.56785583333334"><ele>542.0</ele><time>2026-04-08T16:42:14.444Z</time></trkpt><trkpt lat="33.51265311666667" lon="-111.56780459999999"><ele>543.1428571428571</ele><time>2026-04-08T16:42:16.449Z</time></trkpt><trkpt lat="33.51258411666667" lon="-111.56779118333334"><ele>544.2857142857143</ele><time>2026-04-08T16:42:17.444Z</time></trkpt><trkpt lat="33.512510516666666" lon="-111.56779231666667"><ele>545.4285714285714</ele><time>2026-04-08T16:42:18.484Z</time></trkpt><trkpt lat="33.51243736666667" lon="-111.56780163333333"><ele>546.5714285714286</ele><time>2026-04-08T16:42:19.445Z</time></trkpt><trkpt lat="33.51236485" lon="-111.56779546666667"><ele>547.7142857142857</ele><time>2026-04-08T16:42:20.468Z</time></trkpt><trkpt lat="33.512296033333335" lon="-111.56776415"><ele>548.8571428571429</ele><time>2026-04-08T16:42:21.459Z</time></trkpt><trkpt lat="33.51223996666667" lon="-111.56771891666666"><ele>550.0</ele><time>2026-04-08T16:42:22.457Z</time></trkpt><trkpt lat="33.51216301666666" lon="-111.56760823333333"><ele>550.0</ele><time>2026-04-08T16:42:24.495Z</time></trkpt><trkpt lat="33.512095683333335" lon="-111.56751046666669"><ele>550.0</ele><time>2026-04-08T16:42:26.469Z</time></trkpt><trkpt lat="33.51203078333333" lon="-111.56741808333332"><ele>550.0</ele><time>2026-04-08T16:42:28.457Z</time></trkpt><trkpt lat="33.51197586666667" lon="-111.56732500000001"><ele>550.0</ele><time>2026-04-08T16:42:30.453Z</time></trkpt><trkpt lat="33.51192375" lon="-111.5672185"><ele>550.0</ele><time>2026-04-08T16:42:32.468Z</time></trkpt><trkpt lat="33.5118902" lon="-111.56711109999999"><ele>551.8333333333334</ele><time>2026-04-08T16:42:34.461Z</time></trkpt><trkpt lat="33.5118589" lon="-111.56700818333331"><ele>553.6666666666667</ele><time>2026-04-08T16:42:36.466Z</time></trkpt><trkpt lat="33.51180675" lon="-111.56693144999998"><ele>555.5</ele><time>2026-04-08T16:42:38.463Z</time></trkpt><trkpt lat="33.51173803333334" lon="-111.56687910000001"><ele>557.3333333333334</ele><time>2026-04-08T16:42:40.485Z</time></trkpt><trkpt lat="33.511661866666664" lon="-111.56685721666665"><ele>559.1666666666666</ele><time>2026-04-08T16:42:42.48Z</time></trkpt><trkpt lat="33.51159738333333" lon="-111.56682305000001"><ele>561.0</ele><time>2026-04-08T16:42:44.476Z</time></trkpt><trkpt lat="33.51155468333333" lon="-111.5667478"><ele>561.0</ele><time>2026-04-08T16:42:46.481Z</time></trkpt><trkpt lat="33.511495599999996" lon="-111.56668198333334"><ele>561.0</ele><time>2026-04-08T16:42:48.492Z</time></trkpt><trkpt lat="33.511404066666664" lon="-111.56661793333333"><ele>561.0</ele><time>2026-04-08T16:42:50.493Z</time></trkpt><trkpt lat="33.5113057" lon="-111.56656193333335"><ele>561.0</ele><time>2026-04-08T16:42:52.495Z</time></trkpt><trkpt lat="33.51121198333333" lon="-111.56650383333333"><ele>561.0</ele><time>2026-04-08T16:42:54.484Z</time></trkpt><trkpt lat="33.511120283333334" lon="-111.56643063333335"><ele>559.5</ele><time>2026-04-08T16:42:56.51Z</time></trkpt><trkpt lat="33.5110324" lon="-111.56635141666665"><ele>558.0</ele><time>2026-04-08T16:42:58.499Z</time></trkpt><trkpt lat="33.510952933333336" lon="-111.566243"><ele>556.5</ele><time>2026-04-08T16:43:00.496Z</time></trkpt><trkpt lat="33.51090133333333" lon="-111.5661349"><ele>555.0</ele><time>2026-04-08T16:43:02.513Z</time></trkpt><trkpt lat="33.51085028333333" lon="-111.56600481666668"><ele>555.0</ele><time>2026-04-08T16:43:04.519Z</time></trkpt><trkpt lat="33.510823333333335" lon="-111.56593108333334"><ele>555.0</ele><time>2026-04-08T16:43:05.508Z</time></trkpt><trkpt lat="33.510791000000005" lon="-111.56586041666667"><ele>555.0</ele><time>2026-04-08T16:43:06.522Z</time></trkpt><trkpt lat="33.51074406666667" lon="-111.56574295"><ele>555.0</ele><time>2026-04-08T16:43:08.504Z</time></trkpt><trkpt lat="33.51074993333334" lon="-111.56563751666665"><ele>555.0</ele><time>2026-04-08T16:43:10.516Z</time></trkpt><trkpt lat="33.51079581666667" lon="-111.56554736666668"><ele>555.0</ele><time>2026-04-08T16:43:12.519Z</time></trkpt><trkpt lat="33.51084611666667" lon="-111.56546275000001"><ele>557.8</ele><time>2026-04-08T16:43:14.512Z</time></trkpt><trkpt lat="33.510873616666665" lon="-111.56535568333332"><ele>560.6</ele><time>2026-04-08T16:43:16.509Z</time></trkpt><trkpt lat="33.51088443333333" lon="-111.56525126666665"><ele>563.4</ele><time>2026-04-08T16:43:18.527Z</time></trkpt><trkpt lat="33.51086038333334" lon="-111.56515786666665"><ele>566.2</ele><time>2026-04-08T16:43:20.526Z</time></trkpt><trkpt lat="33.51083861666667" lon="-111.56504808333332"><ele>569.0</ele><time>2026-04-08T16:43:22.522Z</time></trkpt><trkpt lat="33.51083213333333" lon="-111.56491640000002"><ele>569.0</ele><time>2026-04-08T16:43:24.53Z</time></trkpt><trkpt lat="33.51081016666667" lon="-111.56480238333333"><ele>569.0</ele><time>2026-04-08T16:43:26.534Z</time></trkpt><trkpt lat="33.510754266666666" lon="-111.56471434999999"><ele>569.0</ele><time>2026-04-08T16:43:28.547Z</time></trkpt><trkpt lat="33.51069401666667" lon="-111.56467156666668"><ele>569.0</ele><time>2026-04-08T16:43:30.542Z</time></trkpt><trkpt lat="33.5106266" lon="-111.56467673333333"><ele>569.0</ele><time>2026-04-08T16:43:32.557Z</time></trkpt><trkpt lat="33.51055693333333" lon="-111.56473333333332"><ele>569.0</ele><time>2026-04-08T16:43:34.551Z</time></trkpt><trkpt lat="33.51051558333334" lon="-111.56480096666668"><ele>569.0</ele><time>2026-04-08T16:43:36.548Z</time></trkpt><trkpt lat="33.51049001666667" lon="-111.56488361666668"><ele>569.0</ele><time>2026-04-08T16:43:39.562Z</time></trkpt><trkpt lat="33.510460333333334" lon="-111.56496389999998"><ele>569.0</ele><time>2026-04-08T16:43:41.542Z</time></trkpt><trkpt lat="33.51040606666666" lon="-111.56504828333334"><ele>569.0</ele><time>2026-04-08T16:43:43.564Z</time></trkpt><trkpt lat="33.510339316666666" lon="-111.56510598333334"><ele>569.0</ele><time>2026-04-08T16:43:45.561Z</time></trkpt><trkpt lat="33.51025701666667" lon="-111.56513799999999"><ele>569.0</ele><time>2026-04-08T16:43:47.566Z</time></trkpt><trkpt lat="33.510159916666666" lon="-111.56513756666668"><ele>567.8</ele><time>2026-04-08T16:43:49.568Z</time></trkpt><trkpt lat="33.5100571" lon="-111.56512579999999"><ele>566.5999999999999</ele><time>2026-04-08T16:43:51.573Z</time></trkpt><trkpt lat="33.50995881666667" lon="-111.56512228333335"><ele>565.4</ele><time>2026-04-08T16:43:53.578Z</time></trkpt><trkpt lat="33.509854733333334" lon="-111.56511581666668"><ele>564.1999999999999</ele><time>2026-04-08T16:43:55.581Z</time></trkpt><trkpt lat="33.5097224" lon="-111.56509464999999"><ele>563.0</ele><time>2026-04-08T16:43:57.563Z</time></trkpt><trkpt lat="33.50964918333333" lon="-111.56507506666667"><ele>563.0</ele><time>2026-04-08T16:43:58.576Z</time></trkpt><trkpt lat="33.509580750000005" lon="-111.56504684999999"><ele>563.0</ele><time>2026-04-08T16:43:59.566Z</time></trkpt><trkpt lat="33.50951643333334" lon="-111.56500613333334"><ele>563.0</ele><time>2026-04-08T16:44:00.583Z</time></trkpt><trkpt lat="33.50944833333333" lon="-111.56495988333333"><ele>563.0</ele><time>2026-04-08T16:44:01.577Z</time></trkpt><trkpt lat="33.509375999999996" lon="-111.56491073333333"><ele>563.0</ele><time>2026-04-08T16:44:02.589Z</time></trkpt><trkpt lat="33.50930365" lon="-111.56486125"><ele>563.0</ele><time>2026-04-08T16:44:03.584Z</time></trkpt><trkpt lat="33.509231416666665" lon="-111.5648135"><ele>562.1428571428571</ele><time>2026-04-08T16:44:04.581Z</time></trkpt><trkpt lat="33.509164483333336" lon="-111.56476456666665"><ele>561.2857142857143</ele><time>2026-04-08T16:44:05.581Z</time></trkpt><trkpt lat="33.509104533333335" lon="-111.56472225"><ele>560.4285714285714</ele><time>2026-04-08T16:44:06.589Z</time></trkpt><trkpt lat="33.509048916666664" lon="-111.56468195000001"><ele>559.5714285714286</ele><time>2026-04-08T16:44:07.596Z</time></trkpt><trkpt lat="33.50899068333333" lon="-111.56463711666666"><ele>558.7142857142857</ele><time>2026-04-08T16:44:08.581Z</time></trkpt><trkpt lat="33.5089344" lon="-111.56457908333333"><ele>557.8571428571429</ele><time>2026-04-08T16:44:09.596Z</time></trkpt><trkpt lat="33.508883383333334" lon="-111.56451136666666"><ele>557.0</ele><time>2026-04-08T16:44:10.585Z</time></trkpt><trkpt lat="33.50883481666666" lon="-111.56444801666667"><ele>558.3333333333333</ele><time>2026-04-08T16:44:11.585Z</time></trkpt><trkpt lat="33.50879146666667" lon="-111.56438905000002"><ele>559.6666666666666</ele><time>2026-04-08T16:44:12.594Z</time></trkpt><trkpt lat="33.50871995" lon="-111.56429081666666"><ele>561.0</ele><time>2026-04-08T16:44:14.594Z</time></trkpt><trkpt lat="33.50865796666667" lon="-111.56420741666668"><ele>562.3333333333334</ele><time>2026-04-08T16:44:16.636Z</time></trkpt><trkpt lat="33.50860616666666" lon="-111.56413775"><ele>563.6666666666667</ele><time>2026-04-08T16:44:18.591Z</time></trkpt><trkpt lat="33.5085607" lon="-111.56404208333333"><ele>565.0</ele><time>2026-04-08T16:44:20.596Z</time></trkpt><trkpt lat="33.50852805" lon="-111.56395491666665"><ele>565.0</ele><time>2026-04-08T16:44:22.605Z</time></trkpt><trkpt lat="33.508497000000006" lon="-111.56386593333333"><ele>565.0</ele><time>2026-04-08T16:44:24.609Z</time></trkpt><trkpt lat="33.50845171666666" lon="-111.56378520000001"><ele>565.0</ele><time>2026-04-08T16:44:26.62Z</time></trkpt><trkpt lat="33.50838625" lon="-111.56373671666667"><ele>565.0</ele><time>2026-04-08T16:44:28.616Z</time></trkpt><trkpt lat="33.50831545" lon="-111.56371951666667"><ele>565.0</ele><time>2026-04-08T16:44:30.61Z</time></trkpt><trkpt lat="33.50823468333333" lon="-111.5636622"><ele>565.0</ele><time>2026-04-08T16:44:32.633Z</time></trkpt><trkpt lat="33.508178916666665" lon="-111.56358448333333"><ele>565.0</ele><time>2026-04-08T16:44:34.624Z</time></trkpt><trkpt lat="33.50812546666667" lon="-111.56353146666667"><ele>565.0</ele><time>2026-04-08T16:44:36.636Z</time></trkpt><trkpt lat="33.508059116666665" lon="-111.56357611666667"><ele>565.0</ele><time>2026-04-08T16:44:38.644Z</time></trkpt><trkpt lat="33.508037716666664" lon="-111.56366875"><ele>565.0</ele><time>2026-04-08T16:44:40.64Z</time></trkpt><trkpt lat="33.50808286666667" lon="-111.56378185000001"><ele>565.0</ele><time>2026-04-08T16:44:42.631Z</time></trkpt><trkpt lat="33.50808933333334" lon="-111.56391751666666"><ele>565.0</ele><time>2026-04-08T16:44:44.646Z</time></trkpt><trkpt lat="33.50807343333334" lon="-111.56404138333333"><ele>565.0</ele><time>2026-04-08T16:44:46.651Z</time></trkpt><trkpt lat="33.5080824" lon="-111.56417703333334"><ele>565.0</ele><time>2026-04-08T16:44:48.659Z</time></trkpt><trkpt lat="33.5080981" lon="-111.56431181666667"><ele>565.0</ele><time>2026-04-08T16:44:50.663Z</time></trkpt><trkpt lat="33.508105500000006" lon="-111.5644205"><ele>565.0</ele><time>2026-04-08T16:44:52.647Z</time></trkpt><trkpt lat="33.50813108333333" lon="-111.56452233333333"><ele>565.0</ele><time>2026-04-08T16:44:54.658Z</time></trkpt><trkpt lat="33.50819256666667" lon="-111.56459465"><ele>563.0</ele><time>2026-04-08T16:44:56.667Z</time></trkpt><trkpt lat="33.50826598333333" lon="-111.564654"><ele>561.0</ele><time>2026-04-08T16:44:58.674Z</time></trkpt><trkpt lat="33.50832991666667" lon="-111.56474725000001"><ele>559.0</ele><time>2026-04-08T16:45:00.674Z</time></trkpt><trkpt lat="33.50837628333334" lon="-111.56486625000001"><ele>557.0</ele><time>2026-04-08T16:45:02.661Z</time></trkpt><trkpt lat="33.50839676666667" lon="-111.56501438333335"><ele>555.0</ele><time>2026-04-08T16:45:04.671Z</time></trkpt><trkpt lat="33.50839055" lon="-111.56516406666667"><ele>555.0</ele><time>2026-04-08T16:45:06.679Z</time></trkpt><trkpt lat="33.50836098333333" lon="-111.56528363333332"><ele>555.0</ele><time>2026-04-08T16:45:08.691Z</time></trkpt><trkpt lat="33.50832703333333" lon="-111.56536708333333"><ele>555.0</ele><time>2026-04-08T16:45:10.679Z</time></trkpt><trkpt lat="33.508271283333336" lon="-111.56543715000001"><ele>555.0</ele><time>2026-04-08T16:45:12.683Z</time></trkpt><trkpt lat="33.50819488333333" lon="-111.56548736666667"><ele>555.0</ele><time>2026-04-08T16:45:14.686Z</time></trkpt><trkpt lat="33.508098749999995" lon="-111.56550598333332"><ele>555.0</ele><time>2026-04-08T16:45:16.694Z</time></trkpt><trkpt lat="33.507975699999996" lon="-111.56550941666667"><ele>553.4</ele><time>2026-04-08T16:45:18.7Z</time></trkpt><trkpt lat="33.50785925" lon="-111.56553916666665"><ele>551.8</ele><time>2026-04-08T16:45:20.704Z</time></trkpt><trkpt lat="33.507741366666664" lon="-111.56556133333333"><ele>550.2</ele><time>2026-04-08T16:45:22.691Z</time></trkpt><trkpt lat="33.50767831666667" lon="-111.56557050000002"><ele>548.6</ele><time>2026-04-08T16:45:23.699Z</time></trkpt><trkpt lat="33.507575233333334" lon="-111.56557829999998"><ele>547.0</ele><time>2026-04-08T16:45:25.704Z</time></trkpt><trkpt lat="33.5074929" lon="-111.56558523333334"><ele>547.0</ele><time>2026-04-08T16:45:27.709Z</time></trkpt><trkpt lat="33.507402983333336" lon="-111.56562116666667"><ele>547.0</ele><time>2026-04-08T16:45:29.721Z</time></trkpt><trkpt lat="33.50729711666667" lon="-111.5656609"><ele>547.0</ele><time>2026-04-08T16:45:31.726Z</time></trkpt><trkpt lat="33.50720261666667" lon="-111.56571265"><ele>547.0</ele><time>2026-04-08T16:45:33.714Z</time></trkpt><trkpt lat="33.507109" lon="-111.56572158333331"><ele>547.0</ele><time>2026-04-08T16:45:35.716Z</time></trkpt><trkpt lat="33.50701838333333" lon="-111.56569775000001"><ele>547.6666666666667</ele><time>2026-04-08T16:45:37.724Z</time></trkpt><trkpt lat="33.50695288333333" lon="-111.56564781666665"><ele>548.3333333333334</ele><time>2026-04-08T16:45:39.727Z</time></trkpt><trkpt lat="33.506896149999996" lon="-111.56558793333333"><ele>549.0</ele><time>2026-04-08T16:45:41.724Z</time></trkpt><trkpt lat="33.5068093" lon="-111.56553819999999"><ele>549.6666666666666</ele><time>2026-04-08T16:45:43.717Z</time></trkpt><trkpt lat="33.50670926666667" lon="-111.56546978333333"><ele>550.3333333333333</ele><time>2026-04-08T16:45:45.73Z</time></trkpt><trkpt lat="33.50664196666666" lon="-111.5654407"><ele>551.0</ele><time>2026-04-08T16:45:46.732Z</time></trkpt><trkpt lat="33.50656341666667" lon="-111.56539894999999"><ele>551.0</ele><time>2026-04-08T16:45:47.747Z</time></trkpt><trkpt lat="33.50648895" lon="-111.56534788333332"><ele>551.0</ele><time>2026-04-08T16:45:48.744Z</time></trkpt><trkpt lat="33.50642856666666" lon="-111.56530663333334"><ele>551.0</ele><time>2026-04-08T16:45:49.735Z</time></trkpt><trkpt lat="33.506337183333336" lon="-111.56524451666667"><ele>551.0</ele><time>2026-04-08T16:45:51.739Z</time></trkpt><trkpt lat="33.506251066666664" lon="-111.56522686666666"><ele>551.0</ele><time>2026-04-08T16:45:53.754Z</time></trkpt><trkpt lat="33.506177433333335" lon="-111.56525673333333"><ele>551.0</ele><time>2026-04-08T16:45:55.742Z</time></trkpt><trkpt lat="33.50610455" lon="-111.56530448333332"><ele>551.0</ele><time>2026-04-08T16:45:57.745Z</time></trkpt><trkpt lat="33.50601221666666" lon="-111.56532694999999"><ele>551.0</ele><time>2026-04-08T16:45:59.758Z</time></trkpt><trkpt lat="33.505937216666666" lon="-111.56535180000002"><ele>551.0</ele><time>2026-04-08T16:46:01.757Z</time></trkpt><trkpt lat="33.50585615" lon="-111.56538624999999"><ele>551.0</ele><time>2026-04-08T16:46:03.778Z</time></trkpt><trkpt lat="33.50576126666667" lon="-111.56544235000003"><ele>551.0</ele><time>2026-04-08T16:46:05.757Z</time></trkpt><trkpt lat="33.50565271666667" lon="-111.56540106666667"><ele>551.0</ele><time>2026-04-08T16:46:07.754Z</time></trkpt><trkpt lat="33.50556066666666" lon="-111.56532800000001"><ele>551.0</ele><time>2026-04-08T16:46:09.767Z</time></trkpt><trkpt lat="33.505467599999996" lon="-111.56525076666668"><ele>551.0</ele><time>2026-04-08T16:46:11.762Z</time></trkpt><trkpt lat="33.50536493333333" lon="-111.56521478333335"><ele>551.0</ele><time>2026-04-08T16:46:13.779Z</time></trkpt><trkpt lat="33.50526033333333" lon="-111.56519179999998"><ele>551.0</ele><time>2026-04-08T16:46:15.782Z</time></trkpt><trkpt lat="33.5051492" lon="-111.56521216666667"><ele>552.0</ele><time>2026-04-08T16:46:17.769Z</time></trkpt><trkpt lat="33.50504621666666" lon="-111.56525615000001"><ele>553.0</ele><time>2026-04-08T16:46:19.771Z</time></trkpt><trkpt lat="33.50492813333334" lon="-111.56521798333333"><ele>554.0</ele><time>2026-04-08T16:46:21.775Z</time></trkpt><trkpt lat="33.50487203333333" lon="-111.56517781666668"><ele>555.0</ele><time>2026-04-08T16:46:22.795Z</time></trkpt><trkpt lat="33.50482315" lon="-111.56512721666668"><ele>556.0</ele><time>2026-04-08T16:46:23.779Z</time></trkpt><trkpt lat="33.504779549999995" lon="-111.56506958333333"><ele>557.0</ele><time>2026-04-08T16:46:24.779Z</time></trkpt><trkpt lat="33.504735733333334" lon="-111.56501423333332"><ele>557.0</ele><time>2026-04-08T16:46:25.787Z</time></trkpt><trkpt lat="33.50469113333333" lon="-111.56495991666667"><ele>557.0</ele><time>2026-04-08T16:46:26.796Z</time></trkpt><trkpt lat="33.50464353333333" lon="-111.56490476666669"><ele>557.0</ele><time>2026-04-08T16:46:27.8Z</time></trkpt><trkpt lat="33.504590916666665" lon="-111.56484918333332"><ele>557.0</ele><time>2026-04-08T16:46:28.792Z</time></trkpt><trkpt lat="33.50453421666667" lon="-111.56478815"><ele>557.0</ele><time>2026-04-08T16:46:29.808Z</time></trkpt><trkpt lat="33.504478266666666" lon="-111.56472684999999"><ele>557.0</ele><time>2026-04-08T16:46:30.797Z</time></trkpt><trkpt lat="33.50442375" lon="-111.56466681666667"><ele>557.0</ele><time>2026-04-08T16:46:31.789Z</time></trkpt><trkpt lat="33.50436813333333" lon="-111.56461033333332"><ele>556.7142857142858</ele><time>2026-04-08T16:46:32.804Z</time></trkpt><trkpt lat="33.50430696666666" lon="-111.56456188333334"><ele>556.4285714285714</ele><time>2026-04-08T16:46:33.795Z</time></trkpt><trkpt lat="33.504247400000004" lon="-111.56451688333334"><ele>556.1428571428571</ele><time>2026-04-08T16:46:34.807Z</time></trkpt><trkpt lat="33.50419288333333" lon="-111.56447486666667"><ele>555.8571428571429</ele><time>2026-04-08T16:46:35.816Z</time></trkpt><trkpt lat="33.50414073333333" lon="-111.56443169999999"><ele>555.5714285714286</ele><time>2026-04-08T16:46:36.812Z</time></trkpt><trkpt lat="33.50408591666667" lon="-111.56438741666668"><ele>555.2857142857143</ele><time>2026-04-08T16:46:37.804Z</time></trkpt><trkpt lat="33.50402525" lon="-111.56434669999999"><ele>555.0</ele><time>2026-04-08T16:46:38.817Z</time></trkpt><trkpt lat="33.50396488333333" lon="-111.56430943333335"><ele>555.0</ele><time>2026-04-08T16:46:39.808Z</time></trkpt><trkpt lat="33.50384678333333" lon="-111.56425231666667"><ele>555.0</ele><time>2026-04-08T16:46:41.815Z</time></trkpt><trkpt lat="33.50378078333333" lon="-111.56422733333332"><ele>555.0</ele><time>2026-04-08T16:46:42.81Z</time></trkpt><trkpt lat="33.50371633333334" lon="-111.56420621666666"><ele>555.0</ele><time>2026-04-08T16:46:43.821Z</time></trkpt><trkpt lat="33.503598933333336" lon="-111.56417916666666"><ele>555.0</ele><time>2026-04-08T16:46:45.838Z</time></trkpt><trkpt lat="33.503492300000005" lon="-111.56416075000001"><ele>557.2</ele><time>2026-04-08T16:46:47.811Z</time></trkpt><trkpt lat="33.50339078333333" lon="-111.56411250000001"><ele>559.4</ele><time>2026-04-08T16:46:49.832Z</time></trkpt><trkpt lat="33.50328976666666" lon="-111.56406851666668"><ele>561.6</ele><time>2026-04-08T16:46:51.824Z</time></trkpt><trkpt lat="33.50319941666667" lon="-111.56401763333332"><ele>563.8</ele><time>2026-04-08T16:46:53.834Z</time></trkpt><trkpt lat="33.503105" lon="-111.56393238333334"><ele>566.0</ele><time>2026-04-08T16:46:55.874Z</time></trkpt><trkpt lat="33.50302551666667" lon="-111.56385233333334"><ele>566.0</ele><time>2026-04-08T16:46:57.834Z</time></trkpt><trkpt lat="33.50292743333333" lon="-111.56380259999999"><ele>566.0</ele><time>2026-04-08T16:46:59.832Z</time></trkpt><trkpt lat="33.502837549999995" lon="-111.56371593333333"><ele>566.0</ele><time>2026-04-08T16:47:01.854Z</time></trkpt><trkpt lat="33.50281186666667" lon="-111.56364383333333"><ele>566.0</ele><time>2026-04-08T16:47:02.846Z</time></trkpt><trkpt lat="33.50277498333333" lon="-111.56352299999999"><ele>566.0</ele><time>2026-04-08T16:47:04.84Z</time></trkpt><trkpt lat="33.5027229" lon="-111.56340686666665"><ele>565.0</ele><time>2026-04-08T16:47:06.862Z</time></trkpt><trkpt lat="33.50265846666667" lon="-111.56329628333333"><ele>564.0</ele><time>2026-04-08T16:47:08.855Z</time></trkpt><trkpt lat="33.502593149999996" lon="-111.56318873333332"><ele>563.0</ele><time>2026-04-08T16:47:10.851Z</time></trkpt><trkpt lat="33.502504916666666" lon="-111.56308956666665"><ele>562.0</ele><time>2026-04-08T16:47:12.874Z</time></trkpt><trkpt lat="33.502410866666665" lon="-111.56299461666667"><ele>562.0</ele><time>2026-04-08T16:47:14.87Z</time></trkpt><trkpt lat="33.50233583333334" lon="-111.56287915"><ele>562.0</ele><time>2026-04-08T16:47:16.864Z</time></trkpt><trkpt lat="33.502300866666666" lon="-111.56280550000001"><ele>562.0</ele><time>2026-04-08T16:47:17.859Z</time></trkpt><trkpt lat="33.502273233333334" lon="-111.56272923333333"><ele>562.0</ele><time>2026-04-08T16:47:18.878Z</time></trkpt><trkpt lat="33.50225195" lon="-111.56265283333332"><ele>562.0</ele><time>2026-04-08T16:47:19.859Z</time></trkpt><trkpt lat="33.50222835" lon="-111.56258031666667"><ele>562.0</ele><time>2026-04-08T16:47:20.88Z</time></trkpt><trkpt lat="33.502145283333334" lon="-111.5624785"><ele>562.3333333333334</ele><time>2026-04-08T16:47:22.878Z</time></trkpt><trkpt lat="33.50208048333333" lon="-111.56245653333332"><ele>562.6666666666667</ele><time>2026-04-08T16:47:23.869Z</time></trkpt><trkpt lat="33.50201345" lon="-111.56245091666666"><ele>563.0</ele><time>2026-04-08T16:47:24.87Z</time></trkpt><trkpt lat="33.50191305" lon="-111.56248631666666"><ele>563.3333333333334</ele><time>2026-04-08T16:47:26.88Z</time></trkpt><trkpt lat="33.501818533333335" lon="-111.56251176666667"><ele>563.6666666666666</ele><time>2026-04-08T16:47:28.9Z</time></trkpt><trkpt lat="33.50171083333333" lon="-111.56251136666667"><ele>564.0</ele><time>2026-04-08T16:47:30.874Z</time></trkpt><trkpt lat="33.50159346666667" lon="-111.56249508333335"><ele>564.0</ele><time>2026-04-08T16:47:32.885Z</time></trkpt><trkpt lat="33.501482349999996" lon="-111.56247898333334"><ele>564.0</ele><time>2026-04-08T16:47:34.89Z</time></trkpt><trkpt lat="33.50138348333333" lon="-111.56241386666667"><ele>564.0</ele><time>2026-04-08T16:47:36.895Z</time></trkpt><trkpt lat="33.50134595" lon="-111.56233928333334"><ele>564.0</ele><time>2026-04-08T16:47:37.886Z</time></trkpt><trkpt lat="33.501307249999996" lon="-111.56226360000001"><ele>564.0</ele><time>2026-04-08T16:47:38.885Z</time></trkpt><trkpt lat="33.50126628333333" lon="-111.56219051666667"><ele>564.0</ele><time>2026-04-08T16:47:39.905Z</time></trkpt><trkpt lat="33.5012237" lon="-111.56211975"><ele>564.2</ele><time>2026-04-08T16:47:40.886Z</time></trkpt><trkpt lat="33.50117863333333" lon="-111.56206103333334"><ele>564.4</ele><time>2026-04-08T16:47:41.9Z</time></trkpt><trkpt lat="33.50109531666667" lon="-111.56195615"><ele>564.6</ele><time>2026-04-08T16:47:43.9Z</time></trkpt><trkpt lat="33.50105898333334" lon="-111.561833"><ele>564.8</ele><time>2026-04-08T16:47:45.911Z</time></trkpt><trkpt lat="33.50102525" lon="-111.56175683333335"><ele>565.0</ele><time>2026-04-08T16:47:47.909Z</time></trkpt><trkpt lat="33.50094241666667" lon="-111.56169681666667"><ele>565.0</ele><time>2026-04-08T16:47:49.916Z</time></trkpt><trkpt lat="33.50084508333333" lon="-111.56161793333334"><ele>565.0</ele><time>2026-04-08T16:47:51.915Z</time></trkpt><trkpt lat="33.50079016666667" lon="-111.56156456666668"><ele>565.0</ele><time>2026-04-08T16:47:52.955Z</time></trkpt><trkpt lat="33.50072906666667" lon="-111.56150431666669"><ele>565.0</ele><time>2026-04-08T16:47:53.919Z</time></trkpt><trkpt lat="33.50066735" lon="-111.56144334999999"><ele>565.0</ele><time>2026-04-08T16:47:54.91Z</time></trkpt><trkpt lat="33.50060393333333" lon="-111.56138881666666"><ele>565.0</ele><time>2026-04-08T16:47:55.911Z</time></trkpt><trkpt lat="33.50053483333333" lon="-111.56134281666667"><ele>565.0</ele><time>2026-04-08T16:47:56.915Z</time></trkpt><trkpt lat="33.50046211666667" lon="-111.56130499999999"><ele>565.0</ele><time>2026-04-08T16:47:57.93Z</time></trkpt><trkpt lat="33.50038536666667" lon="-111.56127655"><ele>565.0</ele><time>2026-04-08T16:47:58.922Z</time></trkpt><trkpt lat="33.50030783333333" lon="-111.56126093333332"><ele>565.0</ele><time>2026-04-08T16:47:59.935Z</time></trkpt><trkpt lat="33.500233916666666" lon="-111.56123526666667"><ele>565.0</ele><time>2026-04-08T16:48:00.924Z</time></trkpt><trkpt lat="33.50016295" lon="-111.56120408333334"><ele>565.0</ele><time>2026-04-08T16:48:01.94Z</time></trkpt><trkpt lat="33.5000984" lon="-111.56117781666666"><ele>565.2857142857142</ele><time>2026-04-08T16:48:02.919Z</time></trkpt><trkpt lat="33.50003663333333" lon="-111.56115346666665"><ele>565.5714285714286</ele><time>2026-04-08T16:48:03.922Z</time></trkpt><trkpt lat="33.49997303333333" lon="-111.56112486666666"><ele>565.8571428571429</ele><time>2026-04-08T16:48:04.936Z</time></trkpt><trkpt lat="33.49990476666667" lon="-111.56109311666667"><ele>566.1428571428571</ele><time>2026-04-08T16:48:05.928Z</time></trkpt><trkpt lat="33.499834766666666" lon="-111.56106153333333"><ele>566.4285714285714</ele><time>2026-04-08T16:48:06.935Z</time></trkpt><trkpt lat="33.499764649999996" lon="-111.56102321666667"><ele>566.7142857142857</ele><time>2026-04-08T16:48:07.928Z</time></trkpt><trkpt lat="33.49969655" lon="-111.56096751666666"><ele>567.0</ele><time>2026-04-08T16:48:08.949Z</time></trkpt><trkpt lat="33.499646399999996" lon="-111.56090268333334"><ele>568.0</ele><time>2026-04-08T16:48:09.934Z</time></trkpt><trkpt lat="33.49958136666667" lon="-111.56078651666667"><ele>569.0</ele><time>2026-04-08T16:48:11.944Z</time></trkpt><trkpt lat="33.49949216666666" lon="-111.56068773333332"><ele>570.0</ele><time>2026-04-08T16:48:13.945Z</time></trkpt><trkpt lat="33.49941406666667" lon="-111.56062126666666"><ele>571.0</ele><time>2026-04-08T16:48:15.956Z</time></trkpt><trkpt lat="33.49933394999999" lon="-111.56058916666667"><ele>572.0</ele><time>2026-04-08T16:48:17.945Z</time></trkpt><trkpt lat="33.499226666666665" lon="-111.56056136666666"><ele>572.0</ele><time>2026-04-08T16:48:19.976Z</time></trkpt><trkpt lat="33.49916746666667" lon="-111.56053283333334"><ele>572.0</ele><time>2026-04-08T16:48:20.964Z</time></trkpt><trkpt lat="33.49910775" lon="-111.56049243333334"><ele>572.0</ele><time>2026-04-08T16:48:21.955Z</time></trkpt><trkpt lat="33.499057783333335" lon="-111.56044213333335"><ele>572.0</ele><time>2026-04-08T16:48:22.969Z</time></trkpt><trkpt lat="33.4990165" lon="-111.56038488333333"><ele>572.0</ele><time>2026-04-08T16:48:23.966Z</time></trkpt><trkpt lat="33.49893693333333" lon="-111.56028005000002"><ele>572.0</ele><time>2026-04-08T16:48:25.966Z</time></trkpt><trkpt lat="33.4988644" lon="-111.5602045"><ele>572.0</ele><time>2026-04-08T16:48:27.971Z</time></trkpt><trkpt lat="33.49877128333333" lon="-111.56015424999998"><ele>572.0</ele><time>2026-04-08T16:48:29.976Z</time></trkpt><trkpt lat="33.49865591666667" lon="-111.56011293333334"><ele>572.0</ele><time>2026-04-08T16:48:31.957Z</time></trkpt><trkpt lat="33.498594983333334" lon="-111.56009289999999"><ele>572.0</ele><time>2026-04-08T16:48:32.971Z</time></trkpt><trkpt lat="33.498533466666665" lon="-111.56007319999999"><ele>572.0</ele><time>2026-04-08T16:48:33.975Z</time></trkpt><trkpt lat="33.49847288333334" lon="-111.56005080000001"><ele>572.0</ele><time>2026-04-08T16:48:34.985Z</time></trkpt><trkpt lat="33.4983709" lon="-111.55999528333331"><ele>572.0</ele><time>2026-04-08T16:48:36.982Z</time></trkpt><trkpt lat="33.498297099999995" lon="-111.55993188333332"><ele>572.0</ele><time>2026-04-08T16:48:38.975Z</time></trkpt><trkpt lat="33.498201333333334" lon="-111.55994306666668"><ele>572.0</ele><time>2026-04-08T16:48:40.976Z</time></trkpt><trkpt lat="33.4980887" lon="-111.55994379999999"><ele>572.0</ele><time>2026-04-08T16:48:42.99Z</time></trkpt><trkpt lat="33.49799253333333" lon="-111.55989866666665"><ele>572.0</ele><time>2026-04-08T16:48:44.99Z</time></trkpt><trkpt lat="33.497923316666665" lon="-111.55985288333335"><ele>572.8000000000001</ele><time>2026-04-08T16:48:46.997Z</time></trkpt><trkpt lat="33.49785273333334" lon="-111.55981916666666"><ele>573.6</ele><time>2026-04-08T16:48:49.005Z</time></trkpt><trkpt lat="33.4977682" lon="-111.55974111666667"><ele>574.4000000000001</ele><time>2026-04-08T16:48:51.006Z</time></trkpt><trkpt lat="33.4976815" lon="-111.55963926666666"><ele>575.2</ele><time>2026-04-08T16:48:53.01Z</time></trkpt><trkpt lat="33.49759736666667" lon="-111.55956669999999"><ele>576.0</ele><time>2026-04-08T16:48:54.99Z</time></trkpt><trkpt lat="33.497481" lon="-111.55951653333335"><ele>576.0</ele><time>2026-04-08T16:48:56.998Z</time></trkpt><trkpt lat="33.49737018333334" lon="-111.55948144999999"><ele>576.0</ele><time>2026-04-08T16:48:59.007Z</time></trkpt><trkpt lat="33.49727358333334" lon="-111.55942275000001"><ele>576.0</ele><time>2026-04-08T16:49:01.008Z</time></trkpt><trkpt lat="33.497181616666666" lon="-111.55939550000001"><ele>576.0</ele><time>2026-04-08T16:49:03.027Z</time></trkpt><trkpt lat="33.49709955" lon="-111.55935651666665"><ele>576.0</ele><time>2026-04-08T16:49:05.025Z</time></trkpt><trkpt lat="33.49706156666667" lon="-111.55925556666668"><ele>577.8</ele><time>2026-04-08T16:49:07.017Z</time></trkpt><trkpt lat="33.49705593333333" lon="-111.55911911666665"><ele>579.6</ele><time>2026-04-08T16:49:09.032Z</time></trkpt><trkpt lat="33.49705746666667" lon="-111.55899335000001"><ele>581.4</ele><time>2026-04-08T16:49:11.038Z</time></trkpt><trkpt lat="33.49705365" lon="-111.5588768"><ele>583.2</ele><time>2026-04-08T16:49:13.048Z</time></trkpt><trkpt lat="33.4970084" lon="-111.55878296666667"><ele>585.0</ele><time>2026-04-08T16:49:15.033Z</time></trkpt><trkpt lat="33.496912550000005" lon="-111.55871798333334"><ele>584.5</ele><time>2026-04-08T16:49:17.045Z</time></trkpt><trkpt lat="33.4968633" lon="-111.55866396666666"><ele>584.0</ele><time>2026-04-08T16:49:18.026Z</time></trkpt><trkpt lat="33.49682096666667" lon="-111.55859558333336"><ele>583.5</ele><time>2026-04-08T16:49:19.041Z</time></trkpt><trkpt lat="33.49678443333333" lon="-111.55853008333334"><ele>583.0</ele><time>2026-04-08T16:49:20.03Z</time></trkpt><trkpt lat="33.49670428333333" lon="-111.55844835"><ele>582.5</ele><time>2026-04-08T16:49:22.047Z</time></trkpt><trkpt lat="33.49660418333334" lon="-111.55844678333334"><ele>582.0</ele><time>2026-04-08T16:49:24.041Z</time></trkpt><trkpt lat="33.49648461666666" lon="-111.55846189999998"><ele>582.0</ele><time>2026-04-08T16:49:26.042Z</time></trkpt><trkpt lat="33.49642013333333" lon="-111.55845321666666"><ele>582.0</ele><time>2026-04-08T16:49:27.036Z</time></trkpt><trkpt lat="33.49631245" lon="-111.55841508333333"><ele>582.0</ele><time>2026-04-08T16:49:29.046Z</time></trkpt><trkpt lat="33.496245316666666" lon="-111.5583926"><ele>582.0</ele><time>2026-04-08T16:49:32.05Z</time></trkpt><trkpt lat="33.496346700000004" lon="-111.55843306666665"><ele>582.0</ele><time>2026-04-08T16:50:44.124Z</time></trkpt><trkpt lat="33.4964207" lon="-111.55845948333332"><ele>582.0</ele><time>2026-04-08T16:50:46.141Z</time></trkpt><trkpt lat="33.496520583333336" lon="-111.55847504999998"><ele>582.0</ele><time>2026-04-08T16:50:49.141Z</time></trkpt><trkpt lat="33.49660313333333" lon="-111.55846725"><ele>582.0</ele><time>2026-04-08T16:50:51.132Z</time></trkpt><trkpt lat="33.49669396666666" lon="-111.55846850000002"><ele>582.0</ele><time>2026-04-08T16:50:53.147Z</time></trkpt><trkpt lat="33.49676951666667" lon="-111.55849500000001"><ele>582.0</ele><time>2026-04-08T16:50:55.156Z</time></trkpt><trkpt lat="33.49682223333333" lon="-111.55853666666665"><ele>582.0</ele><time>2026-04-08T16:50:57.138Z</time></trkpt><trkpt lat="33.496737100000004" lon="-111.55853209999998"><ele>582.0</ele><time>2026-04-08T16:54:07.442Z</time></trkpt><trkpt lat="33.4966526" lon="-111.55848286666667"><ele>582.0</ele><time>2026-04-08T16:54:09.447Z</time></trkpt><trkpt lat="33.4965344" lon="-111.55847661666665"><ele>582.0</ele><time>2026-04-08T16:54:11.436Z</time></trkpt><trkpt lat="33.4964122" lon="-111.5584629"><ele>582.0</ele><time>2026-04-08T16:54:13.436Z</time></trkpt><trkpt lat="33.496314016666666" lon="-111.5584243"><ele>582.0</ele><time>2026-04-08T16:54:15.457Z</time></trkpt><trkpt lat="33.49622873333334" lon="-111.55842121666667"><ele>582.0</ele><time>2026-04-08T16:54:18.458Z</time></trkpt><trkpt lat="33.49614116666667" lon="-111.55837851666666"><ele>582.3333333333334</ele><time>2026-04-08T17:02:55.431Z</time></trkpt><trkpt lat="33.49605296666667" lon="-111.55839061666664"><ele>582.6666666666666</ele><time>2026-04-08T17:02:57.433Z</time></trkpt><trkpt lat="33.495964433333334" lon="-111.5584219"><ele>583.0</ele><time>2026-04-08T17:02:59.447Z</time></trkpt><trkpt lat="33.49588011666666" lon="-111.55841995"><ele>583.3333333333333</ele><time>2026-04-08T17:03:01.433Z</time></trkpt><trkpt lat="33.49580215" lon="-111.55836723333331"><ele>583.6666666666666</ele><time>2026-04-08T17:03:03.45Z</time></trkpt><trkpt lat="33.49572375" lon="-111.55835739999999"><ele>584.0</ele><time>2026-04-08T17:03:05.441Z</time></trkpt><trkpt lat="33.49564456666667" lon="-111.55835929999999"><ele>584.0</ele><time>2026-04-08T17:03:07.464Z</time></trkpt><trkpt lat="33.495565049999996" lon="-111.55838723333332"><ele>584.0</ele><time>2026-04-08T17:03:09.464Z</time></trkpt><trkpt lat="33.495479849999995" lon="-111.55844298333334"><ele>584.0</ele><time>2026-04-08T17:03:11.449Z</time></trkpt><trkpt lat="33.495420683333336" lon="-111.55850793333333"><ele>584.0</ele><time>2026-04-08T17:03:13.455Z</time></trkpt><trkpt lat="33.495352966666665" lon="-111.55851364999998"><ele>584.0</ele><time>2026-04-08T17:03:15.466Z</time></trkpt><trkpt lat="33.49526435" lon="-111.55851173333333"><ele>584.0</ele><time>2026-04-08T17:03:17.469Z</time></trkpt><trkpt lat="33.49517156666666" lon="-111.55849645"><ele>584.2</ele><time>2026-04-08T17:03:20.476Z</time></trkpt><trkpt lat="33.4951078" lon="-111.55844021666665"><ele>584.4</ele><time>2026-04-08T17:03:22.466Z</time></trkpt><trkpt lat="33.49504845" lon="-111.55835290000002"><ele>584.6</ele><time>2026-04-08T17:03:24.469Z</time></trkpt><trkpt lat="33.49497313333333" lon="-111.55828129999999"><ele>584.8</ele><time>2026-04-08T17:03:26.488Z</time></trkpt><trkpt lat="33.49487598333334" lon="-111.55821776666669"><ele>585.0</ele><time>2026-04-08T17:03:28.496Z</time></trkpt><trkpt lat="33.49476481666667" lon="-111.5581973"><ele>585.0</ele><time>2026-04-08T17:03:30.49Z</time></trkpt><trkpt lat="33.49470128333333" lon="-111.55820296666667"><ele>585.0</ele><time>2026-04-08T17:03:31.478Z</time></trkpt><trkpt lat="33.49458528333333" lon="-111.55820958333334"><ele>585.0</ele><time>2026-04-08T17:03:33.482Z</time></trkpt><trkpt lat="33.49449715" lon="-111.55820343333335"><ele>585.0</ele><time>2026-04-08T17:03:35.5Z</time></trkpt><trkpt lat="33.49440895" lon="-111.55817628333334"><ele>585.0</ele><time>2026-04-08T17:03:37.495Z</time></trkpt><trkpt lat="33.49433453333334" lon="-111.55813185"><ele>585.0</ele><time>2026-04-08T17:03:39.494Z</time></trkpt><trkpt lat="33.49425421666666" lon="-111.55809373333335"><ele>585.2</ele><time>2026-04-08T17:03:41.493Z</time></trkpt><trkpt lat="33.494151949999996" lon="-111.55807961666666"><ele>585.4</ele><time>2026-04-08T17:03:44.509Z</time></trkpt><trkpt lat="33.494061366666664" lon="-111.55804539999998"><ele>585.6</ele><time>2026-04-08T17:03:46.514Z</time></trkpt><trkpt lat="33.49396993333333" lon="-111.55800786666666"><ele>585.8</ele><time>2026-04-08T17:03:48.521Z</time></trkpt><trkpt lat="33.49389765" lon="-111.55793783333333"><ele>586.0</ele><time>2026-04-08T17:03:50.5Z</time></trkpt><trkpt lat="33.49386776666667" lon="-111.55784728333334"><ele>585.9999999999999</ele><time>2026-04-08T17:03:52.505Z</time></trkpt><trkpt lat="33.4938277" lon="-111.55776013333335"><ele>586.0</ele><time>2026-04-08T17:03:55.527Z</time></trkpt><trkpt lat="33.4937648" lon="-111.55773624999999"><ele>586.0</ele><time>2026-04-08T17:03:57.518Z</time></trkpt><trkpt lat="33.49371813333333" lon="-111.55765628333333"><ele>586.0</ele><time>2026-04-08T17:03:59.517Z</time></trkpt><trkpt lat="33.493719866666666" lon="-111.55757575000001"><ele>586.0</ele><time>2026-04-08T17:04:01.54Z</time></trkpt><trkpt lat="33.49370533333333" lon="-111.55749943333333"><ele>585.9999999999999</ele><time>2026-04-08T17:04:03.552Z</time></trkpt><trkpt lat="33.49366103333333" lon="-111.5574278"><ele>586.0</ele><time>2026-04-08T17:04:05.534Z</time></trkpt><trkpt lat="33.493586916666665" lon="-111.55738758333332"><ele>586.3333333333334</ele><time>2026-04-08T17:04:07.539Z</time></trkpt><trkpt lat="33.49350511666667" lon="-111.55738553333335"><ele>586.6666666666667</ele><time>2026-04-08T17:04:09.545Z</time></trkpt><trkpt lat="33.49342085" lon="-111.55739138333333"><ele>587.0</ele><time>2026-04-08T17:04:11.55Z</time></trkpt><trkpt lat="33.493352300000005" lon="-111.55740746666667"><ele>587.3333333333334</ele><time>2026-04-08T17:04:13.555Z</time></trkpt><trkpt lat="33.49328395" lon="-111.55746271666666"><ele>587.6666666666666</ele><time>2026-04-08T17:04:15.543Z</time></trkpt><trkpt lat="33.493191633333325" lon="-111.55750906666667"><ele>588.0</ele><time>2026-04-08T17:04:17.557Z</time></trkpt><trkpt lat="33.493086733333335" lon="-111.55754093333336"><ele>588.0</ele><time>2026-04-08T17:04:19.55Z</time></trkpt><trkpt lat="33.49296308333333" lon="-111.55755561666668"><ele>588.0</ele><time>2026-04-08T17:04:21.549Z</time></trkpt><trkpt lat="33.492859233333334" lon="-111.55759305000001"><ele>588.0</ele><time>2026-04-08T17:04:23.559Z</time></trkpt><trkpt lat="33.49278651666667" lon="-111.55765781666666"><ele>588.0</ele><time>2026-04-08T17:04:25.559Z</time></trkpt><trkpt lat="33.492732450000005" lon="-111.55771663333334"><ele>588.0</ele><time>2026-04-08T17:04:27.559Z</time></trkpt><trkpt lat="33.49266826666667" lon="-111.55773345"><ele>589.1666666666666</ele><time>2026-04-08T17:04:29.572Z</time></trkpt><trkpt lat="33.49258716666667" lon="-111.55773073333333"><ele>590.3333333333334</ele><time>2026-04-08T17:04:31.563Z</time></trkpt><trkpt lat="33.49249338333333" lon="-111.55768983333334"><ele>591.5</ele><time>2026-04-08T17:04:33.568Z</time></trkpt><trkpt lat="33.4924095" lon="-111.55765501666669"><ele>592.6666666666667</ele><time>2026-04-08T17:04:35.577Z</time></trkpt><trkpt lat="33.49232211666667" lon="-111.55762248333333"><ele>593.8333333333334</ele><time>2026-04-08T17:04:37.584Z</time></trkpt><trkpt lat="33.49223726666666" lon="-111.55759736666666"><ele>595.0</ele><time>2026-04-08T17:04:39.593Z</time></trkpt><trkpt lat="33.49215133333333" lon="-111.55759206666667"><ele>596.8333333333334</ele><time>2026-04-08T17:04:41.577Z</time></trkpt><trkpt lat="33.49207036666667" lon="-111.55760663333335"><ele>598.6666666666667</ele><time>2026-04-08T17:04:43.58Z</time></trkpt><trkpt lat="33.49198981666667" lon="-111.55759576666667"><ele>600.5</ele><time>2026-04-08T17:04:45.599Z</time></trkpt><trkpt lat="33.49191630000001" lon="-111.55757615"><ele>602.3333333333334</ele><time>2026-04-08T17:04:47.586Z</time></trkpt><trkpt lat="33.49185346666666" lon="-111.55759025"><ele>604.1666666666666</ele><time>2026-04-08T17:04:49.581Z</time></trkpt><trkpt lat="33.4917853" lon="-111.55763628333335"><ele>606.0</ele><time>2026-04-08T17:04:51.589Z</time></trkpt><trkpt lat="33.491717916666666" lon="-111.5576648"><ele>606.0</ele><time>2026-04-08T17:04:53.599Z</time></trkpt><trkpt lat="33.49164486666667" lon="-111.55767128333333"><ele>606.0</ele><time>2026-04-08T17:04:55.585Z</time></trkpt><trkpt lat="33.49157696666667" lon="-111.55768389999999"><ele>606.0</ele><time>2026-04-08T17:04:57.593Z</time></trkpt><trkpt lat="33.4915015" lon="-111.55770093333334"><ele>606.0</ele><time>2026-04-08T17:04:59.599Z</time></trkpt><trkpt lat="33.49142481666667" lon="-111.55771716666668"><ele>606.0</ele><time>2026-04-08T17:05:01.617Z</time></trkpt><trkpt lat="33.49134946666666" lon="-111.55772686666667"><ele>606.0</ele><time>2026-04-08T17:05:03.613Z</time></trkpt><trkpt lat="33.491265399999996" lon="-111.55775653333333"><ele>607.6</ele><time>2026-04-08T17:05:05.606Z</time></trkpt><trkpt lat="33.4911868" lon="-111.55779021666666"><ele>609.2</ele><time>2026-04-08T17:05:07.605Z</time></trkpt><trkpt lat="33.491110033333335" lon="-111.55779280000002"><ele>610.8</ele><time>2026-04-08T17:05:09.619Z</time></trkpt><trkpt lat="33.49101043333334" lon="-111.55776173333334"><ele>612.4</ele><time>2026-04-08T17:05:11.607Z</time></trkpt><trkpt lat="33.4909106" lon="-111.55770608333333"><ele>614.0</ele><time>2026-04-08T17:05:13.61Z</time></trkpt><trkpt lat="33.490806150000004" lon="-111.55763365"><ele>614.0</ele><time>2026-04-08T17:05:15.622Z</time></trkpt><trkpt lat="33.4907209" lon="-111.55758128333333"><ele>614.0</ele><time>2026-04-08T17:05:17.628Z</time></trkpt><trkpt lat="33.490641100000005" lon="-111.557607"><ele>614.0</ele><time>2026-04-08T17:05:20.613Z</time></trkpt><trkpt lat="33.49063183333333" lon="-111.5577037"><ele>614.0</ele><time>2026-04-08T17:05:22.631Z</time></trkpt><trkpt lat="33.49061246666667" lon="-111.55779846666667"><ele>614.0</ele><time>2026-04-08T17:05:24.637Z</time></trkpt><trkpt lat="33.49057208333333" lon="-111.55788638333334"><ele>614.0</ele><time>2026-04-08T17:05:26.618Z</time></trkpt><trkpt lat="33.490519850000005" lon="-111.55796273333333"><ele>616.1666666666666</ele><time>2026-04-08T17:05:28.645Z</time></trkpt><trkpt lat="33.4904498" lon="-111.55802128333335"><ele>618.3333333333333</ele><time>2026-04-08T17:05:30.629Z</time></trkpt><trkpt lat="33.490399749999995" lon="-111.55808016666667"><ele>620.5</ele><time>2026-04-08T17:05:32.638Z</time></trkpt><trkpt lat="33.49037676666667" lon="-111.55815701666667"><ele>622.6666666666666</ele><time>2026-04-08T17:05:34.64Z</time></trkpt><trkpt lat="33.49035311666667" lon="-111.55825293333335"><ele>624.8333333333334</ele><time>2026-04-08T17:05:36.651Z</time></trkpt><trkpt lat="33.490318900000005" lon="-111.55835008333334"><ele>627.0</ele><time>2026-04-08T17:05:38.637Z</time></trkpt><trkpt lat="33.49026983333333" lon="-111.55843975"><ele>627.1666666666666</ele><time>2026-04-08T17:05:40.643Z</time></trkpt><trkpt lat="33.49020813333333" lon="-111.55851284999999"><ele>627.3333333333334</ele><time>2026-04-08T17:05:42.638Z</time></trkpt><trkpt lat="33.49014946666667" lon="-111.55857415000001"><ele>627.5</ele><time>2026-04-08T17:05:44.659Z</time></trkpt><trkpt lat="33.490093949999995" lon="-111.55862129999998"><ele>627.6666666666667</ele><time>2026-04-08T17:05:46.656Z</time></trkpt><trkpt lat="33.49003266666667" lon="-111.55867930000001"><ele>627.8333333333334</ele><time>2026-04-08T17:06:03.668Z</time></trkpt><trkpt lat="33.489974966666665" lon="-111.55872015000001"><ele>628.0</ele><time>2026-04-08T17:06:06.661Z</time></trkpt><trkpt lat="33.489904833333334" lon="-111.55875481666665"><ele>630.0</ele><time>2026-04-08T17:06:10.669Z</time></trkpt><trkpt lat="33.48983073333333" lon="-111.55878478333335"><ele>632.0</ele><time>2026-04-08T17:06:12.679Z</time></trkpt><trkpt lat="33.4897576" lon="-111.55879531666666"><ele>634.0</ele><time>2026-04-08T17:06:14.676Z</time></trkpt><trkpt lat="33.48967390000001" lon="-111.55878555"><ele>636.0</ele><time>2026-04-08T17:06:16.723Z</time></trkpt><trkpt lat="33.48960775" lon="-111.55874278333334"><ele>638.0</ele><time>2026-04-08T17:06:18.68Z</time></trkpt><trkpt lat="33.489551150000004" lon="-111.55867029999999"><ele>640.0</ele><time>2026-04-08T17:06:20.685Z</time></trkpt><trkpt lat="33.48952435" lon="-111.55857325"><ele>641.0</ele><time>2026-04-08T17:06:22.69Z</time></trkpt><trkpt lat="33.48950848333333" lon="-111.55847358333334"><ele>642.0</ele><time>2026-04-08T17:06:24.699Z</time></trkpt><trkpt lat="33.48950098333333" lon="-111.55838141666668"><ele>643.0</ele><time>2026-04-08T17:06:26.679Z</time></trkpt><trkpt lat="33.489483766666666" lon="-111.55830166666668"><ele>644.0</ele><time>2026-04-08T17:06:28.681Z</time></trkpt><trkpt lat="33.489480283333336" lon="-111.55820973333334"><ele>645.0</ele><time>2026-04-08T17:06:30.684Z</time></trkpt><trkpt lat="33.4894763" lon="-111.5581174"><ele>646.0</ele><time>2026-04-08T17:06:32.685Z</time></trkpt><trkpt lat="33.48945911666666" lon="-111.55802508333332"><ele>646.0</ele><time>2026-04-08T17:06:34.696Z</time></trkpt><trkpt lat="33.48942121666666" lon="-111.55791990000002"><ele>646.0</ele><time>2026-04-08T17:06:36.7Z</time></trkpt><trkpt lat="33.4893827" lon="-111.55781148333332"><ele>646.0</ele><time>2026-04-08T17:06:38.713Z</time></trkpt><trkpt lat="33.4893329" lon="-111.55769254999998"><ele>646.0</ele><time>2026-04-08T17:06:40.716Z</time></trkpt><trkpt lat="33.48929505" lon="-111.55758035"><ele>646.0</ele><time>2026-04-08T17:06:42.711Z</time></trkpt><trkpt lat="33.48924838333333" lon="-111.55748093333335"><ele>643.5</ele><time>2026-04-08T17:06:44.709Z</time></trkpt><trkpt lat="33.489180033333334" lon="-111.55739438333333"><ele>641.0</ele><time>2026-04-08T17:06:46.711Z</time></trkpt><trkpt lat="33.48911783333333" lon="-111.55729455"><ele>638.5</ele><time>2026-04-08T17:06:48.721Z</time></trkpt><trkpt lat="33.489081850000005" lon="-111.55722758333334"><ele>636.0</ele><time>2026-04-08T17:06:50.716Z</time></trkpt><trkpt lat="33.48906401666666" lon="-111.55714744999999"><ele>633.5</ele><time>2026-04-08T17:07:04.726Z</time></trkpt><trkpt lat="33.48901721666667" lon="-111.55709108333333"><ele>631.0</ele><time>2026-04-08T17:07:07.72Z</time></trkpt><trkpt lat="33.488952016666666" lon="-111.55704941666666"><ele>629.5</ele><time>2026-04-08T17:07:09.726Z</time></trkpt><trkpt lat="33.48888173333333" lon="-111.55702246666667"><ele>628.0</ele><time>2026-04-08T17:07:11.73Z</time></trkpt><trkpt lat="33.488809683333336" lon="-111.55697426666666"><ele>626.5</ele><time>2026-04-08T17:07:13.736Z</time></trkpt><trkpt lat="33.48873161666667" lon="-111.55692555"><ele>625.0</ele><time>2026-04-08T17:07:15.741Z</time></trkpt><trkpt lat="33.48866045" lon="-111.55688276666666"><ele>623.5</ele><time>2026-04-08T17:07:17.749Z</time></trkpt><trkpt lat="33.488594649999996" lon="-111.55683641666668"><ele>622.0</ele><time>2026-04-08T17:07:19.762Z</time></trkpt><trkpt lat="33.48851188333333" lon="-111.55676356666666"><ele>622.0</ele><time>2026-04-08T17:07:21.755Z</time></trkpt><trkpt lat="33.48843245" lon="-111.55667326666665"><ele>622.0</ele><time>2026-04-08T17:07:23.771Z</time></trkpt><trkpt lat="33.48837881666667" lon="-111.55657238333335"><ele>622.0</ele><time>2026-04-08T17:07:25.741Z</time></trkpt><trkpt lat="33.48832315" lon="-111.55647616666666"><ele>622.0</ele><time>2026-04-08T17:07:27.741Z</time></trkpt><trkpt lat="33.488267666666665" lon="-111.55639858333335"><ele>622.0</ele><time>2026-04-08T17:07:29.75Z</time></trkpt><trkpt lat="33.488244683333335" lon="-111.55630366666668"><ele>620.8000000000001</ele><time>2026-04-08T17:07:31.751Z</time></trkpt><trkpt lat="33.48825838333333" lon="-111.55620108333332"><ele>619.6</ele><time>2026-04-08T17:07:33.765Z</time></trkpt><trkpt lat="33.488313850000004" lon="-111.55611825"><ele>618.4000000000001</ele><time>2026-04-08T17:07:35.749Z</time></trkpt><trkpt lat="33.48837196666666" lon="-111.55601460000001"><ele>617.2</ele><time>2026-04-08T17:07:37.791Z</time></trkpt><trkpt lat="33.4883844" lon="-111.5558799"><ele>616.0</ele><time>2026-04-08T17:07:39.753Z</time></trkpt><trkpt lat="33.488365900000005" lon="-111.55573898333331"><ele>616.0</ele><time>2026-04-08T17:07:41.779Z</time></trkpt><trkpt lat="33.48835363333333" lon="-111.55560916666666"><ele>616.0</ele><time>2026-04-08T17:07:43.775Z</time></trkpt><trkpt lat="33.48835063333333" lon="-111.55548338333334"><ele>616.0</ele><time>2026-04-08T17:07:45.768Z</time></trkpt><trkpt lat="33.488366733333336" lon="-111.5553577"><ele>616.0</ele><time>2026-04-08T17:07:47.761Z</time></trkpt><trkpt lat="33.488400283333334" lon="-111.55526884999999"><ele>616.0</ele><time>2026-04-08T17:07:49.77Z</time></trkpt><trkpt lat="33.48846575" lon="-111.55521598333334"><ele>614.5</ele><time>2026-04-08T17:07:51.883Z</time></trkpt><trkpt lat="33.488541733333335" lon="-111.55516"><ele>613.0</ele><time>2026-04-08T17:07:53.878Z</time></trkpt><trkpt lat="33.48860808333333" lon="-111.55510174999999"><ele>611.5</ele><time>2026-04-08T17:07:55.884Z</time></trkpt><trkpt lat="33.48867963333333" lon="-111.55504481666667"><ele>610.0</ele><time>2026-04-08T17:07:58.881Z</time></trkpt><trkpt lat="33.48872203333334" lon="-111.55498100000001"><ele>608.5</ele><time>2026-04-08T17:08:00.881Z</time></trkpt><trkpt lat="33.48878593333333" lon="-111.55492185"><ele>607.0</ele><time>2026-04-08T17:08:03.89Z</time></trkpt><trkpt lat="33.488834516666664" lon="-111.55487264999998"><ele>606.5</ele><time>2026-04-08T17:08:06.885Z</time></trkpt><trkpt lat="33.48888828333333" lon="-111.55479393333333"><ele>606.0</ele><time>2026-04-08T17:08:09.901Z</time></trkpt><trkpt lat="33.48894583333333" lon="-111.5547037"><ele>605.5</ele><time>2026-04-08T17:08:12.9Z</time></trkpt><trkpt lat="33.48896461666667" lon="-111.55460886666665"><ele>605.0</ele><time>2026-04-08T17:08:15.895Z</time></trkpt><trkpt lat="33.488957199999994" lon="-111.55451376666667"><ele>604.5</ele><time>2026-04-08T17:08:19.92Z</time></trkpt><trkpt lat="33.48896536666667" lon="-111.55442638333334"><ele>604.0</ele><time>2026-04-08T17:08:21.896Z</time></trkpt><trkpt lat="33.48900548333334" lon="-111.55433463333333"><ele>603.7142857142858</ele><time>2026-04-08T17:08:23.919Z</time></trkpt><trkpt lat="33.48903885" lon="-111.55424613333335"><ele>603.4285714285714</ele><time>2026-04-08T17:08:25.912Z</time></trkpt><trkpt lat="33.48905066666667" lon="-111.55414908333333"><ele>603.1428571428571</ele><time>2026-04-08T17:08:27.91Z</time></trkpt><trkpt lat="33.48904803333333" lon="-111.55406483333333"><ele>602.8571428571429</ele><time>2026-04-08T17:08:29.919Z</time></trkpt><trkpt lat="33.4890541" lon="-111.55397421666667"><ele>602.5714285714286</ele><time>2026-04-08T17:08:31.925Z</time></trkpt><trkpt lat="33.489061183333334" lon="-111.55388939999999"><ele>602.2857142857143</ele><time>2026-04-08T17:08:33.907Z</time></trkpt><trkpt lat="33.48904893333333" lon="-111.55381241666667"><ele>602.0</ele><time>2026-04-08T17:08:35.916Z</time></trkpt><trkpt lat="33.48901051666667" lon="-111.5537362"><ele>602.5</ele><time>2026-04-08T17:08:37.918Z</time></trkpt><trkpt lat="33.48898028333333" lon="-111.55364591666667"><ele>603.0</ele><time>2026-04-08T17:08:39.922Z</time></trkpt><trkpt lat="33.48893621666667" lon="-111.5535716"><ele>603.5</ele><time>2026-04-08T17:08:41.92Z</time></trkpt><trkpt lat="33.48889061666666" lon="-111.55347846666666"><ele>604.0</ele><time>2026-04-08T17:08:43.94Z</time></trkpt><trkpt lat="33.488831266666665" lon="-111.55342988333332"><ele>604.5</ele><time>2026-04-08T17:08:51.943Z</time></trkpt><trkpt lat="33.48876931666667" lon="-111.55338105000001"><ele>605.0</ele><time>2026-04-08T17:08:53.942Z</time></trkpt><trkpt lat="33.48870405" lon="-111.55334386666668"><ele>605.0</ele><time>2026-04-08T17:08:55.956Z</time></trkpt><trkpt lat="33.48863195" lon="-111.55333424999999"><ele>605.0</ele><time>2026-04-08T17:08:57.953Z</time></trkpt><trkpt lat="33.488532850000006" lon="-111.55333298333335"><ele>605.0</ele><time>2026-04-08T17:08:59.948Z</time></trkpt><trkpt lat="33.48843049999999" lon="-111.55335821666668"><ele>605.0</ele><time>2026-04-08T17:09:01.96Z</time></trkpt><trkpt lat="33.48833233333333" lon="-111.5534144"><ele>605.0</ele><time>2026-04-08T17:09:03.968Z</time></trkpt><trkpt lat="33.488236799999996" lon="-111.55346641666665"><ele>605.0</ele><time>2026-04-08T17:09:05.948Z</time></trkpt><trkpt lat="33.48812588333333" lon="-111.55348168333333"><ele>605.0</ele><time>2026-04-08T17:09:07.955Z</time></trkpt><trkpt lat="33.48799811666667" lon="-111.55347529999999"><ele>605.0</ele><time>2026-04-08T17:09:09.962Z</time></trkpt><trkpt lat="33.487928200000006" lon="-111.55347133333333"><ele>605.0</ele><time>2026-04-08T17:09:10.973Z</time></trkpt><trkpt lat="33.487854250000005" lon="-111.55346045"><ele>605.0</ele><time>2026-04-08T17:09:11.968Z</time></trkpt><trkpt lat="33.48778045" lon="-111.55344043333334"><ele>605.1666666666666</ele><time>2026-04-08T17:09:12.982Z</time></trkpt><trkpt lat="33.487707183333335" lon="-111.55342273333333"><ele>605.3333333333333</ele><time>2026-04-08T17:09:13.966Z</time></trkpt><trkpt lat="33.487632" lon="-111.55341949999999"><ele>605.5</ele><time>2026-04-08T17:09:14.961Z</time></trkpt><trkpt lat="33.48755983333333" lon="-111.55341883333334"><ele>605.6666666666666</ele><time>2026-04-08T17:09:15.976Z</time></trkpt><trkpt lat="33.487492933333336" lon="-111.55341474999999"><ele>605.8333333333334</ele><time>2026-04-08T17:09:16.973Z</time></trkpt><trkpt lat="33.48738278333334" lon="-111.55340616666666"><ele>606.0</ele><time>2026-04-08T17:09:18.974Z</time></trkpt><trkpt lat="33.4872869" lon="-111.5533848"><ele>606.0</ele><time>2026-04-08T17:09:20.986Z</time></trkpt><trkpt lat="33.48718553333333" lon="-111.55338273333334"><ele>606.0</ele><time>2026-04-08T17:09:22.987Z</time></trkpt><trkpt lat="33.487100866666665" lon="-111.55338203333335"><ele>606.0</ele><time>2026-04-08T17:09:24.989Z</time></trkpt><trkpt lat="33.48704746666667" lon="-111.55342981666666"><ele>606.0</ele><time>2026-04-08T17:09:26.978Z</time></trkpt><trkpt lat="33.48697283333333" lon="-111.55346406666668"><ele>606.0</ele><time>2026-04-08T17:09:28.985Z</time></trkpt><trkpt lat="33.486875883333326" lon="-111.55347868333335"><ele>606.0</ele><time>2026-04-08T17:09:30.993Z</time></trkpt><trkpt lat="33.48677671666667" lon="-111.55347908333333"><ele>607.8</ele><time>2026-04-08T17:09:33.009Z</time></trkpt><trkpt lat="33.486689633333334" lon="-111.55352826666667"><ele>609.6</ele><time>2026-04-08T17:09:34.993Z</time></trkpt><trkpt lat="33.48661791666667" lon="-111.55360156666666"><ele>611.4</ele><time>2026-04-08T17:09:37.016Z</time></trkpt><trkpt lat="33.4865241" lon="-111.55364564999999"><ele>613.2</ele><time>2026-04-08T17:09:38.996Z</time></trkpt><trkpt lat="33.48642903333334" lon="-111.55368251666665"><ele>615.0</ele><time>2026-04-08T17:09:41.003Z</time></trkpt><trkpt lat="33.4863469" lon="-111.55374586666667"><ele>616.4</ele><time>2026-04-08T17:09:43.018Z</time></trkpt><trkpt lat="33.486283433333334" lon="-111.55382365"><ele>617.8</ele><time>2026-04-08T17:09:45.011Z</time></trkpt><trkpt lat="33.48620153333333" lon="-111.55388815"><ele>619.2</ele><time>2026-04-08T17:09:47.009Z</time></trkpt><trkpt lat="33.486106533333334" lon="-111.55396261666668"><ele>620.6</ele><time>2026-04-08T17:09:49.025Z</time></trkpt><trkpt lat="33.48601023333333" lon="-111.55403218333335"><ele>622.0</ele><time>2026-04-08T17:09:51.032Z</time></trkpt><trkpt lat="33.48589043333333" lon="-111.55408363333332"><ele>623.1666666666667</ele><time>2026-04-08T17:09:53.033Z</time></trkpt><trkpt lat="33.485827533333335" lon="-111.55410099999999"><ele>624.3333333333334</ele><time>2026-04-08T17:09:54.025Z</time></trkpt><trkpt lat="33.485730950000004" lon="-111.55412505"><ele>625.5</ele><time>2026-04-08T17:09:56.031Z</time></trkpt><trkpt lat="33.485659416666664" lon="-111.55413488333333"><ele>626.6666666666666</ele><time>2026-04-08T17:10:06.033Z</time></trkpt><trkpt lat="33.485595483333334" lon="-111.55415288333333"><ele>627.8333333333333</ele><time>2026-04-08T17:10:08.041Z</time></trkpt><trkpt lat="33.485509099999994" lon="-111.5541907"><ele>629.0</ele><time>2026-04-08T17:10:10.05Z</time></trkpt><trkpt lat="33.485419066666665" lon="-111.55423326666666"><ele>629.0</ele><time>2026-04-08T17:10:12.046Z</time></trkpt><trkpt lat="33.48533525" lon="-111.55425416666667"><ele>629.0</ele><time>2026-04-08T17:10:14.048Z</time></trkpt><trkpt lat="33.485259299999996" lon="-111.55427900000002"><ele>629.0</ele><time>2026-04-08T17:10:16.066Z</time></trkpt><trkpt lat="33.485194983333336" lon="-111.55435080000001"><ele>629.0</ele><time>2026-04-08T17:10:18.066Z</time></trkpt><trkpt lat="33.48513745" lon="-111.55444275"><ele>629.0</ele><time>2026-04-08T17:10:20.053Z</time></trkpt><trkpt lat="33.485104633333336" lon="-111.55453396666665"><ele>629.0</ele><time>2026-04-08T17:10:22.058Z</time></trkpt><trkpt lat="33.485087183333334" lon="-111.55463885"><ele>630.5</ele><time>2026-04-08T17:10:24.063Z</time></trkpt><trkpt lat="33.48504741666666" lon="-111.55473696666668"><ele>632.0</ele><time>2026-04-08T17:10:26.068Z</time></trkpt><trkpt lat="33.48496504999999" lon="-111.55480178333333"><ele>633.5</ele><time>2026-04-08T17:10:28.092Z</time></trkpt><trkpt lat="33.4848959" lon="-111.55483831666668"><ele>635.0</ele><time>2026-04-08T17:10:30.081Z</time></trkpt><trkpt lat="33.484821333333336" lon="-111.55478346666665"><ele>636.5</ele><time>2026-04-08T17:10:33.074Z</time></trkpt><trkpt lat="33.48479028333334" lon="-111.55471653333335"><ele>638.0</ele><time>2026-04-08T17:10:35.083Z</time></trkpt><trkpt lat="33.48475616666666" lon="-111.55461326666666"><ele>636.8</ele><time>2026-04-08T17:10:38.091Z</time></trkpt><trkpt lat="33.48473" lon="-111.55453606666667"><ele>635.5999999999999</ele><time>2026-04-08T17:10:40.091Z</time></trkpt><trkpt lat="33.484700483333334" lon="-111.55445295"><ele>634.4000000000001</ele><time>2026-04-08T17:10:42.098Z</time></trkpt><trkpt lat="33.48463645" lon="-111.55437490000001"><ele>633.2</ele><time>2026-04-08T17:10:44.102Z</time></trkpt><trkpt lat="33.4845418" lon="-111.55429428333333"><ele>632.0</ele><time>2026-04-08T17:10:46.108Z</time></trkpt><trkpt lat="33.48444405" lon="-111.55420305"><ele>632.0000000000001</ele><time>2026-04-08T17:10:48.096Z</time></trkpt><trkpt lat="33.48439625" lon="-111.5541464"><ele>632.0</ele><time>2026-04-08T17:10:49.104Z</time></trkpt><trkpt lat="33.48434846666667" lon="-111.5540928"><ele>632.0</ele><time>2026-04-08T17:10:50.121Z</time></trkpt><trkpt lat="33.484294516666665" lon="-111.55404418333333"><ele>632.0</ele><time>2026-04-08T17:10:51.135Z</time></trkpt><trkpt lat="33.484231300000005" lon="-111.55400466666667"><ele>632.0</ele><time>2026-04-08T17:10:52.101Z</time></trkpt><trkpt lat="33.48416736666667" lon="-111.55397225"><ele>632.0000000000001</ele><time>2026-04-08T17:10:53.113Z</time></trkpt><trkpt lat="33.48410645" lon="-111.55395205000002"><ele>632.0</ele><time>2026-04-08T17:10:54.106Z</time></trkpt><trkpt lat="33.48399233333333" lon="-111.55396011666664"><ele>632.0</ele><time>2026-04-08T17:10:56.109Z</time></trkpt><trkpt lat="33.48390308333333" lon="-111.55402693333332"><ele>632.0</ele><time>2026-04-08T17:10:58.123Z</time></trkpt><trkpt lat="33.48384588333334" lon="-111.55413591666667"><ele>632.0</ele><time>2026-04-08T17:11:00.127Z</time></trkpt><trkpt lat="33.48377093333333" lon="-111.55423546666667"><ele>632.0</ele><time>2026-04-08T17:11:02.123Z</time></trkpt><trkpt lat="33.48371088333333" lon="-111.55427336666668"><ele>632.0</ele><time>2026-04-08T17:11:03.128Z</time></trkpt><trkpt lat="33.483642583333335" lon="-111.55431073333332"><ele>633.0</ele><time>2026-04-08T17:11:04.123Z</time></trkpt><trkpt lat="33.48357298333334" lon="-111.5543476"><ele>634.0</ele><time>2026-04-08T17:11:05.121Z</time></trkpt><trkpt lat="33.4834997" lon="-111.55438138333332"><ele>635.0</ele><time>2026-04-08T17:11:06.137Z</time></trkpt><trkpt lat="33.48342841666667" lon="-111.55441201666666"><ele>636.0</ele><time>2026-04-08T17:11:07.13Z</time></trkpt><trkpt lat="33.48336823333333" lon="-111.55443815"><ele>637.0</ele><time>2026-04-08T17:11:08.132Z</time></trkpt><trkpt lat="33.48326346666667" lon="-111.5544631"><ele>638.0</ele><time>2026-04-08T17:11:10.161Z</time></trkpt><trkpt lat="33.48316461666666" lon="-111.55447766666666"><ele>639.8</ele><time>2026-04-08T17:11:12.164Z</time></trkpt><trkpt lat="33.483078400000004" lon="-111.55454165000002"><ele>641.5999999999999</ele><time>2026-04-08T17:11:14.143Z</time></trkpt><trkpt lat="33.4829998" lon="-111.55463205"><ele>643.4000000000001</ele><time>2026-04-08T17:11:16.148Z</time></trkpt><trkpt lat="33.4829092" lon="-111.55472935000002"><ele>645.2</ele><time>2026-04-08T17:11:18.138Z</time></trkpt><trkpt lat="33.48286468333333" lon="-111.55478568333334"><ele>647.0</ele><time>2026-04-08T17:11:19.143Z</time></trkpt><trkpt lat="33.48281981666666" lon="-111.55484318333335"><ele>647.0</ele><time>2026-04-08T17:11:20.159Z</time></trkpt><trkpt lat="33.482772583333336" lon="-111.55490026666666"><ele>647.0</ele><time>2026-04-08T17:11:21.147Z</time></trkpt><trkpt lat="33.482724983333334" lon="-111.55495516666667"><ele>647.0</ele><time>2026-04-08T17:11:22.154Z</time></trkpt><trkpt lat="33.48263541666667" lon="-111.55503651666669"><ele>647.0</ele><time>2026-04-08T17:11:24.148Z</time></trkpt><trkpt lat="33.482560150000005" lon="-111.55512158333333"><ele>647.0</ele><time>2026-04-08T17:11:26.169Z</time></trkpt><trkpt lat="33.48249735" lon="-111.55524663333331"><ele>647.0</ele><time>2026-04-08T17:11:28.156Z</time></trkpt><trkpt lat="33.48242726666666" lon="-111.5553499"><ele>647.0</ele><time>2026-04-08T17:11:30.152Z</time></trkpt><trkpt lat="33.482370833333334" lon="-111.55541451666667"><ele>647.0</ele><time>2026-04-08T17:11:32.155Z</time></trkpt><trkpt lat="33.48232675" lon="-111.55549731666667"><ele>647.0</ele><time>2026-04-08T17:11:34.174Z</time></trkpt><trkpt lat="33.482269433333336" lon="-111.55557384999999"><ele>647.0</ele><time>2026-04-08T17:11:36.174Z</time></trkpt><trkpt lat="33.4822012" lon="-111.55564003333333"><ele>647.0</ele><time>2026-04-08T17:11:38.167Z</time></trkpt><trkpt lat="33.48213988333333" lon="-111.55569068333334"><ele>648.2</ele><time>2026-04-08T17:11:40.175Z</time></trkpt><trkpt lat="33.48205073333334" lon="-111.55573341666667"><ele>649.4000000000001</ele><time>2026-04-08T17:11:42.183Z</time></trkpt><trkpt lat="33.48196165" lon="-111.55578348333331"><ele>650.5999999999999</ele><time>2026-04-08T17:11:44.186Z</time></trkpt><trkpt lat="33.48189286666666" lon="-111.55587034999999"><ele>651.8</ele><time>2026-04-08T17:11:46.185Z</time></trkpt><trkpt lat="33.4818337" lon="-111.55597945"><ele>653.0</ele><time>2026-04-08T17:11:48.197Z</time></trkpt><trkpt lat="33.48175211666667" lon="-111.55605410000003"><ele>653.0</ele><time>2026-04-08T17:11:50.202Z</time></trkpt><trkpt lat="33.48166125" lon="-111.55604283333332"><ele>653.0</ele><time>2026-04-08T17:11:52.206Z</time></trkpt><trkpt lat="33.481611" lon="-111.55596108333332"><ele>653.0</ele><time>2026-04-08T17:11:54.188Z</time></trkpt><trkpt lat="33.48157775" lon="-111.55583856666667"><ele>653.0</ele><time>2026-04-08T17:11:56.192Z</time></trkpt><trkpt lat="33.48154098333334" lon="-111.55570296666667"><ele>653.0</ele><time>2026-04-08T17:11:58.206Z</time></trkpt><trkpt lat="33.481512466666665" lon="-111.55558121666667"><ele>653.0</ele><time>2026-04-08T17:12:00.206Z</time></trkpt><trkpt lat="33.48148386666667" lon="-111.55546658333333"><ele>653.0</ele><time>2026-04-08T17:12:02.22Z</time></trkpt><trkpt lat="33.48145168333333" lon="-111.55537446666668"><ele>653.0</ele><time>2026-04-08T17:12:04.218Z</time></trkpt><trkpt lat="33.4814224" lon="-111.55530221666669"><ele>653.0</ele><time>2026-04-08T17:12:06.204Z</time></trkpt><trkpt lat="33.48138101666667" lon="-111.55523863333335"><ele>653.0</ele><time>2026-04-08T17:12:08.212Z</time></trkpt><trkpt lat="33.481326716666665" lon="-111.55515855"><ele>653.0</ele><time>2026-04-08T17:12:11.229Z</time></trkpt><trkpt lat="33.481325549999994" lon="-111.55507693333332"><ele>651.7142857142858</ele><time>2026-04-08T17:12:13.24Z</time></trkpt><trkpt lat="33.48136015" lon="-111.55498853333332"><ele>650.4285714285714</ele><time>2026-04-08T17:12:15.239Z</time></trkpt><trkpt lat="33.4813911" lon="-111.55491288333333"><ele>649.1428571428571</ele><time>2026-04-08T17:12:17.228Z</time></trkpt><trkpt lat="33.4814116" lon="-111.55483485"><ele>647.8571428571429</ele><time>2026-04-08T17:12:19.232Z</time></trkpt><trkpt lat="33.48141879999999" lon="-111.55475608333333"><ele>646.5714285714286</ele><time>2026-04-08T17:12:21.227Z</time></trkpt><trkpt lat="33.481418266666665" lon="-111.55467443333335"><ele>645.2857142857143</ele><time>2026-04-08T17:12:23.245Z</time></trkpt><trkpt lat="33.481429983333335" lon="-111.55458959999999"><ele>644.0</ele><time>2026-04-08T17:12:25.237Z</time></trkpt><trkpt lat="33.48143611666667" lon="-111.55447001666668"><ele>643.2857142857143</ele><time>2026-04-08T17:12:28.246Z</time></trkpt><trkpt lat="33.48144838333334" lon="-111.55437285000001"><ele>642.5714285714286</ele><time>2026-04-08T17:12:30.257Z</time></trkpt><trkpt lat="33.48145876666667" lon="-111.55428383333333"><ele>641.8571428571429</ele><time>2026-04-08T17:12:32.278Z</time></trkpt><trkpt lat="33.481450233333334" lon="-111.55419898333334"><ele>641.1428571428571</ele><time>2026-04-08T17:12:34.264Z</time></trkpt><trkpt lat="33.48144471666667" lon="-111.55411181666665"><ele>640.4285714285714</ele><time>2026-04-08T17:12:36.261Z</time></trkpt><trkpt lat="33.48143153333333" lon="-111.55402705"><ele>639.7142857142858</ele><time>2026-04-08T17:12:38.249Z</time></trkpt><trkpt lat="33.48142276666667" lon="-111.55394589999999"><ele>639.0</ele><time>2026-04-08T17:12:40.26Z</time></trkpt><trkpt lat="33.4814115" lon="-111.55385748333335"><ele>639.0</ele><time>2026-04-08T17:12:42.261Z</time></trkpt><trkpt lat="33.48140316666667" lon="-111.55377101666666"><ele>639.0</ele><time>2026-04-08T17:12:44.267Z</time></trkpt><trkpt lat="33.4813982" lon="-111.55368635"><ele>639.0</ele><time>2026-04-08T17:12:46.271Z</time></trkpt><trkpt lat="33.48141676666667" lon="-111.55356501666665"><ele>639.0</ele><time>2026-04-08T17:12:48.275Z</time></trkpt><trkpt lat="33.48143895" lon="-111.55342016666667"><ele>639.0</ele><time>2026-04-08T17:12:50.273Z</time></trkpt><trkpt lat="33.481447366666664" lon="-111.55329888333333"><ele>637.5</ele><time>2026-04-08T17:12:52.267Z</time></trkpt><trkpt lat="33.481449" lon="-111.55316516666664"><ele>636.0</ele><time>2026-04-08T17:12:54.294Z</time></trkpt><trkpt lat="33.48148066666667" lon="-111.55296228333333"><ele>634.5</ele><time>2026-04-08T17:12:56.274Z</time></trkpt><trkpt lat="33.481438450000006" lon="-111.55285171666668"><ele>633.0</ele><time>2026-04-08T17:12:58.278Z</time></trkpt><trkpt lat="33.4813644" lon="-111.55277748333334"><ele>632.6666666666666</ele><time>2026-04-08T17:13:00.294Z</time></trkpt><trkpt lat="33.4812954" lon="-111.55270171666668"><ele>632.3333333333334</ele><time>2026-04-08T17:13:02.302Z</time></trkpt><trkpt lat="33.481241950000005" lon="-111.55263685"><ele>632.0</ele><time>2026-04-08T17:13:04.3Z</time></trkpt><trkpt lat="33.48118855" lon="-111.55258798333334"><ele>631.6666666666667</ele><time>2026-04-08T17:13:06.287Z</time></trkpt><trkpt lat="33.481145399999996" lon="-111.55252798333333"><ele>631.3333333333334</ele><time>2026-04-08T17:13:08.289Z</time></trkpt><trkpt lat="33.48111143333333" lon="-111.55239996666666"><ele>631.0</ele><time>2026-04-08T17:13:10.295Z</time></trkpt><trkpt lat="33.481094033333335" lon="-111.55224471666668"><ele>631.0</ele><time>2026-04-08T17:13:12.304Z</time></trkpt><trkpt lat="33.4811008" lon="-111.55215846666667"><ele>631.0</ele><time>2026-04-08T17:13:13.29Z</time></trkpt><trkpt lat="33.48111576666667" lon="-111.55208045"><ele>631.0</ele><time>2026-04-08T17:13:14.318Z</time></trkpt><trkpt lat="33.481139250000005" lon="-111.55200535000002"><ele>631.0</ele><time>2026-04-08T17:13:15.297Z</time></trkpt><trkpt lat="33.481163216666666" lon="-111.55192645"><ele>631.0</ele><time>2026-04-08T17:13:16.293Z</time></trkpt><trkpt lat="33.48117868333333" lon="-111.55184758333334"><ele>631.0</ele><time>2026-04-08T17:13:17.303Z</time></trkpt><trkpt lat="33.481201850000005" lon="-111.5517323"><ele>631.0</ele><time>2026-04-08T17:13:19.303Z</time></trkpt><trkpt lat="33.48121598333333" lon="-111.5516235"><ele>631.8</ele><time>2026-04-08T17:13:21.295Z</time></trkpt><trkpt lat="33.48119106666666" lon="-111.55149273333333"><ele>632.6</ele><time>2026-04-08T17:13:23.303Z</time></trkpt><trkpt lat="33.48113961666667" lon="-111.55137873333332"><ele>633.4</ele><time>2026-04-08T17:13:25.334Z</time></trkpt><trkpt lat="33.4811" lon="-111.55125220000001"><ele>634.2</ele><time>2026-04-08T17:13:27.304Z</time></trkpt><trkpt lat="33.48109206666666" lon="-111.55117380000002"><ele>635.0</ele><time>2026-04-08T17:13:28.304Z</time></trkpt><trkpt lat="33.48105631666667" lon="-111.55103199999999"><ele>635.1428571428571</ele><time>2026-04-08T17:13:30.309Z</time></trkpt><trkpt lat="33.481020150000006" lon="-111.55096126666668"><ele>635.2857142857142</ele><time>2026-04-08T17:13:31.322Z</time></trkpt><trkpt lat="33.48098455" lon="-111.55088456666667"><ele>635.4285714285713</ele><time>2026-04-08T17:13:32.314Z</time></trkpt><trkpt lat="33.4809616" lon="-111.55080018333334"><ele>635.5714285714286</ele><time>2026-04-08T17:13:33.329Z</time></trkpt><trkpt lat="33.480946" lon="-111.55071481666667"><ele>635.7142857142858</ele><time>2026-04-08T17:13:34.323Z</time></trkpt><trkpt lat="33.48093071666666" lon="-111.55062918333333"><ele>635.8571428571428</ele><time>2026-04-08T17:13:35.308Z</time></trkpt><trkpt lat="33.480916783333335" lon="-111.55054465"><ele>636.0</ele><time>2026-04-08T17:13:36.333Z</time></trkpt><trkpt lat="33.480900516666665" lon="-111.55046206666665"><ele>636.0</ele><time>2026-04-08T17:13:37.316Z</time></trkpt><trkpt lat="33.48088078333333" lon="-111.55038153333334"><ele>636.0</ele><time>2026-04-08T17:13:38.332Z</time></trkpt><trkpt lat="33.480855633333334" lon="-111.55030498333332"><ele>636.0</ele><time>2026-04-08T17:13:39.33Z</time></trkpt><trkpt lat="33.48082196666667" lon="-111.55023684999999"><ele>636.0</ele><time>2026-04-08T17:13:40.319Z</time></trkpt><trkpt lat="33.4807832" lon="-111.55017481666667"><ele>636.0</ele><time>2026-04-08T17:13:41.339Z</time></trkpt><trkpt lat="33.480736416666666" lon="-111.55012165000001"><ele>636.0</ele><time>2026-04-08T17:13:42.335Z</time></trkpt><trkpt lat="33.480682783333336" lon="-111.55007686666667"><ele>636.0</ele><time>2026-04-08T17:13:43.327Z</time></trkpt><trkpt lat="33.48058853333334" lon="-111.54998286666665"><ele>636.1666666666666</ele><time>2026-04-08T17:13:45.323Z</time></trkpt><trkpt lat="33.480551983333335" lon="-111.54991856666665"><ele>636.3333333333334</ele><time>2026-04-08T17:13:46.324Z</time></trkpt><trkpt lat="33.4804779" lon="-111.54980411666665"><ele>636.5</ele><time>2026-04-08T17:13:48.323Z</time></trkpt><trkpt lat="33.48043806666667" lon="-111.54974368333333"><ele>636.6666666666667</ele><time>2026-04-08T17:13:49.344Z</time></trkpt><trkpt lat="33.48039278333333" lon="-111.54967976666667"><ele>636.8333333333334</ele><time>2026-04-08T17:13:50.346Z</time></trkpt><trkpt lat="33.48034395" lon="-111.54962498333335"><ele>637.0</ele><time>2026-04-08T17:13:51.325Z</time></trkpt><trkpt lat="33.48025678333333" lon="-111.54955036666667"><ele>637.0</ele><time>2026-04-08T17:13:53.338Z</time></trkpt><trkpt lat="33.48022093333333" lon="-111.54943476666668"><ele>637.0</ele><time>2026-04-08T17:13:55.329Z</time></trkpt><trkpt lat="33.48024816666667" lon="-111.54933628333335"><ele>637.0</ele><time>2026-04-08T17:13:57.355Z</time></trkpt><trkpt lat="33.480293583333335" lon="-111.54926846666667"><ele>637.0</ele><time>2026-04-08T17:14:00.347Z</time></trkpt><trkpt lat="33.48035036666667" lon="-111.54922156666667"><ele>637.0</ele><time>2026-04-08T17:16:27.479Z</time></trkpt><trkpt lat="33.4804014" lon="-111.54917135"><ele>637.0</ele><time>2026-04-08T17:16:29.482Z</time></trkpt><trkpt lat="33.48045081666667" lon="-111.54910736666668"><ele>637.0</ele><time>2026-04-08T17:16:31.498Z</time></trkpt><trkpt lat="33.48048705" lon="-111.54901788333333"><ele>637.0</ele><time>2026-04-08T17:16:33.494Z</time></trkpt><trkpt lat="33.480517299999995" lon="-111.54889685000002"><ele>637.0</ele><time>2026-04-08T17:16:35.49Z</time></trkpt><trkpt lat="33.48054303333333" lon="-111.54875415000001"><ele>637.0</ele><time>2026-04-08T17:16:37.487Z</time></trkpt><trkpt lat="33.48054571666667" lon="-111.54867601666668"><ele>637.0</ele><time>2026-04-08T17:16:38.499Z</time></trkpt><trkpt lat="33.480540049999995" lon="-111.54859563333333"><ele>637.0</ele><time>2026-04-08T17:16:39.503Z</time></trkpt><trkpt lat="33.4805375" lon="-111.54851713333333"><ele>638.0</ele><time>2026-04-08T17:16:40.504Z</time></trkpt><trkpt lat="33.48055061666666" lon="-111.54836961666668"><ele>639.0</ele><time>2026-04-08T17:16:42.494Z</time></trkpt><trkpt lat="33.48055878333333" lon="-111.54829309999998"><ele>640.0</ele><time>2026-04-08T17:16:43.491Z</time></trkpt><trkpt lat="33.480561683333335" lon="-111.54821488333334"><ele>641.0</ele><time>2026-04-08T17:16:44.512Z</time></trkpt><trkpt lat="33.480559299999996" lon="-111.54813838333332"><ele>642.0</ele><time>2026-04-08T17:16:45.502Z</time></trkpt><trkpt lat="33.48054885" lon="-111.54800433333332"><ele>643.0</ele><time>2026-04-08T17:16:47.519Z</time></trkpt><trkpt lat="33.48053636666667" lon="-111.54789003333332"><ele>642.3333333333334</ele><time>2026-04-08T17:16:49.514Z</time></trkpt><trkpt lat="33.480512516666664" lon="-111.54775361666668"><ele>641.6666666666667</ele><time>2026-04-08T17:16:51.507Z</time></trkpt><trkpt lat="33.48050549999999" lon="-111.54767728333333"><ele>641.0</ele><time>2026-04-08T17:16:52.518Z</time></trkpt><trkpt lat="33.480508283333336" lon="-111.54759593333334"><ele>640.3333333333334</ele><time>2026-04-08T17:16:53.514Z</time></trkpt><trkpt lat="33.480515583333336" lon="-111.54750618333333"><ele>639.6666666666666</ele><time>2026-04-08T17:16:54.503Z</time></trkpt><trkpt lat="33.48052765" lon="-111.54741430000001"><ele>639.0</ele><time>2026-04-08T17:16:55.504Z</time></trkpt><trkpt lat="33.48054296666667" lon="-111.54732700000001"><ele>639.0</ele><time>2026-04-08T17:16:56.512Z</time></trkpt><trkpt lat="33.480558333333335" lon="-111.54724708333333"><ele>639.0</ele><time>2026-04-08T17:16:57.552Z</time></trkpt><trkpt lat="33.48058218333333" lon="-111.54710593333333"><ele>639.0</ele><time>2026-04-08T17:16:59.507Z</time></trkpt><trkpt lat="33.48059536666666" lon="-111.54695383333335"><ele>639.0</ele><time>2026-04-08T17:17:01.514Z</time></trkpt><trkpt lat="33.480600333333335" lon="-111.54686201666667"><ele>639.0</ele><time>2026-04-08T17:17:02.526Z</time></trkpt><trkpt lat="33.48059893333333" lon="-111.54677429999998"><ele>638.7142857142858</ele><time>2026-04-08T17:17:03.519Z</time></trkpt><trkpt lat="33.48059311666667" lon="-111.54669736666668"><ele>638.4285714285714</ele><time>2026-04-08T17:17:04.529Z</time></trkpt><trkpt lat="33.4805798" lon="-111.54661576666668"><ele>638.1428571428571</ele><time>2026-04-08T17:17:05.511Z</time></trkpt><trkpt lat="33.48056795" lon="-111.54652741666665"><ele>637.8571428571429</ele><time>2026-04-08T17:17:06.535Z</time></trkpt><trkpt lat="33.48056123333333" lon="-111.54644151666668"><ele>637.5714285714286</ele><time>2026-04-08T17:17:07.53Z</time></trkpt><trkpt lat="33.480555233333334" lon="-111.54635859999998"><ele>637.2857142857143</ele><time>2026-04-08T17:17:08.518Z</time></trkpt><trkpt lat="33.48055093333333" lon="-111.54627870000002"><ele>637.0</ele><time>2026-04-08T17:17:09.531Z</time></trkpt><trkpt lat="33.48054961666667" lon="-111.54620255"><ele>637.0</ele><time>2026-04-08T17:17:10.522Z</time></trkpt><trkpt lat="33.480544183333336" lon="-111.54605611666665"><ele>637.0</ele><time>2026-04-08T17:17:12.524Z</time></trkpt><trkpt lat="33.48053933333333" lon="-111.54592720000001"><ele>637.0</ele><time>2026-04-08T17:17:14.529Z</time></trkpt><trkpt lat="33.48050588333333" lon="-111.54578844999999"><ele>637.0</ele><time>2026-04-08T17:17:16.523Z</time></trkpt><trkpt lat="33.480480183333334" lon="-111.5457007"><ele>637.0</ele><time>2026-04-08T17:17:17.527Z</time></trkpt><trkpt lat="33.48045748333333" lon="-111.5456062"><ele>637.0</ele><time>2026-04-08T17:17:18.548Z</time></trkpt><trkpt lat="33.48043461666667" lon="-111.54550776666667"><ele>637.0</ele><time>2026-04-08T17:17:19.548Z</time></trkpt><trkpt lat="33.48040956666667" lon="-111.54541873333334"><ele>637.0</ele><time>2026-04-08T17:17:20.542Z</time></trkpt><trkpt lat="33.4803879" lon="-111.54534383333333"><ele>637.0</ele><time>2026-04-08T17:17:21.546Z</time></trkpt><trkpt lat="33.4803694" lon="-111.54520928333334"><ele>637.0</ele><time>2026-04-08T17:17:23.544Z</time></trkpt><trkpt lat="33.48033126666667" lon="-111.54510348333334"><ele>637.0</ele><time>2026-04-08T17:17:25.534Z</time></trkpt><trkpt lat="33.48023706666667" lon="-111.54500701666666"><ele>638.4000000000001</ele><time>2026-04-08T17:17:27.54Z</time></trkpt><trkpt lat="33.48016836666667" lon="-111.54489533333333"><ele>639.8000000000001</ele><time>2026-04-08T17:17:29.547Z</time></trkpt><trkpt lat="33.48010816666667" lon="-111.54478243333332"><ele>641.2</ele><time>2026-04-08T17:17:31.552Z</time></trkpt><trkpt lat="33.48005116666666" lon="-111.544671"><ele>642.6</ele><time>2026-04-08T17:17:33.557Z</time></trkpt><trkpt lat="33.480013066666665" lon="-111.54456176666666"><ele>644.0</ele><time>2026-04-08T17:17:35.564Z</time></trkpt><trkpt lat="33.47996901666667" lon="-111.54445414999999"><ele>645.8000000000001</ele><time>2026-04-08T17:17:37.542Z</time></trkpt><trkpt lat="33.47992331666667" lon="-111.5443536"><ele>647.6</ele><time>2026-04-08T17:17:39.563Z</time></trkpt><trkpt lat="33.47987403333333" lon="-111.54424169999999"><ele>649.4</ele><time>2026-04-08T17:17:41.554Z</time></trkpt><trkpt lat="33.4798314" lon="-111.54411559999998"><ele>651.2</ele><time>2026-04-08T17:17:43.553Z</time></trkpt><trkpt lat="33.47980376666667" lon="-111.54400911666669"><ele>653.0</ele><time>2026-04-08T17:17:45.566Z</time></trkpt><trkpt lat="33.4797505" lon="-111.54391578333335"><ele>653.0</ele><time>2026-04-08T17:17:47.567Z</time></trkpt><trkpt lat="33.47966976666667" lon="-111.5438698"><ele>653.0</ele><time>2026-04-08T17:17:49.575Z</time></trkpt><trkpt lat="33.479577049999996" lon="-111.54390275"><ele>653.0</ele><time>2026-04-08T17:17:51.594Z</time></trkpt><trkpt lat="33.47948383333333" lon="-111.54389526666668"><ele>653.0</ele><time>2026-04-08T17:17:53.571Z</time></trkpt><trkpt lat="33.4793898" lon="-111.54384839999999"><ele>653.0</ele><time>2026-04-08T17:17:55.578Z</time></trkpt><trkpt lat="33.4792958" lon="-111.54376698333331"><ele>653.6666666666666</ele><time>2026-04-08T17:17:57.572Z</time></trkpt><trkpt lat="33.47920701666667" lon="-111.54367616666666"><ele>654.3333333333333</ele><time>2026-04-08T17:17:59.584Z</time></trkpt><trkpt lat="33.479136483333335" lon="-111.54361211666668"><ele>655.0</ele><time>2026-04-08T17:18:01.572Z</time></trkpt><trkpt lat="33.47905678333333" lon="-111.54354448333333"><ele>655.6666666666666</ele><time>2026-04-08T17:18:03.572Z</time></trkpt><trkpt lat="33.47899725" lon="-111.54351954999998"><ele>656.3333333333334</ele><time>2026-04-08T17:18:04.586Z</time></trkpt><trkpt lat="33.47893213333333" lon="-111.54350436666667"><ele>657.0</ele><time>2026-04-08T17:18:05.577Z</time></trkpt><trkpt lat="33.47886638333333" lon="-111.54350418333333"><ele>656.0</ele><time>2026-04-08T17:18:06.593Z</time></trkpt><trkpt lat="33.478747066666664" lon="-111.5435006"><ele>655.0</ele><time>2026-04-08T17:18:08.594Z</time></trkpt><trkpt lat="33.47863075" lon="-111.54347818333332"><ele>654.0</ele><time>2026-04-08T17:18:10.588Z</time></trkpt><trkpt lat="33.478532433333335" lon="-111.54343789999999"><ele>653.0</ele><time>2026-04-08T17:18:12.584Z</time></trkpt><trkpt lat="33.47847001666666" lon="-111.54340945"><ele>652.0</ele><time>2026-04-08T17:18:13.577Z</time></trkpt><trkpt lat="33.478403699999994" lon="-111.54337779999999"><ele>652.0</ele><time>2026-04-08T17:18:14.598Z</time></trkpt><trkpt lat="33.478342" lon="-111.54333739999998"><ele>652.0</ele><time>2026-04-08T17:18:15.58Z</time></trkpt><trkpt lat="33.47828796666667" lon="-111.54328085000002"><ele>652.0</ele><time>2026-04-08T17:18:16.6Z</time></trkpt><trkpt lat="33.478240066666665" lon="-111.54320979999999"><ele>652.0</ele><time>2026-04-08T17:18:17.593Z</time></trkpt><trkpt lat="33.47819175" lon="-111.54313353333335"><ele>652.0</ele><time>2026-04-08T17:18:18.609Z</time></trkpt><trkpt lat="33.4781426" lon="-111.54305908333332"><ele>652.0</ele><time>2026-04-08T17:18:19.599Z</time></trkpt><trkpt lat="33.47809791666667" lon="-111.5429861"><ele>652.0</ele><time>2026-04-08T17:18:20.59Z</time></trkpt><trkpt lat="33.47805771666666" lon="-111.54292219999999"><ele>652.0</ele><time>2026-04-08T17:18:21.592Z</time></trkpt><trkpt lat="33.47801916666666" lon="-111.54286075"><ele>652.0</ele><time>2026-04-08T17:18:22.594Z</time></trkpt><trkpt lat="33.47798651666667" lon="-111.54279341666667"><ele>652.0</ele><time>2026-04-08T17:18:23.587Z</time></trkpt><trkpt lat="33.47795441666666" lon="-111.54271761666666"><ele>652.0</ele><time>2026-04-08T17:18:24.604Z</time></trkpt><trkpt lat="33.477922166666666" lon="-111.54265185000001"><ele>652.0</ele><time>2026-04-08T17:18:25.598Z</time></trkpt><trkpt lat="33.47786253333334" lon="-111.54253821666667"><ele>652.0</ele><time>2026-04-08T17:18:27.6Z</time></trkpt><trkpt lat="33.47779501666667" lon="-111.54241463333334"><ele>653.1666666666667</ele><time>2026-04-08T17:18:29.613Z</time></trkpt><trkpt lat="33.47776794999999" lon="-111.5423453"><ele>654.3333333333334</ele><time>2026-04-08T17:18:30.602Z</time></trkpt><trkpt lat="33.47773821666666" lon="-111.54227841666666"><ele>655.5</ele><time>2026-04-08T17:18:31.707Z</time></trkpt><trkpt lat="33.47766891666667" lon="-111.54217198333333"><ele>656.6666666666666</ele><time>2026-04-08T17:18:33.698Z</time></trkpt><trkpt lat="33.47761786666666" lon="-111.54206083333331"><ele>657.8333333333333</ele><time>2026-04-08T17:18:35.697Z</time></trkpt><trkpt lat="33.47758808333333" lon="-111.54196836666667"><ele>659.0</ele><time>2026-04-08T17:18:37.719Z</time></trkpt><trkpt lat="33.477555599999995" lon="-111.54187676666666"><ele>660.0</ele><time>2026-04-08T17:18:39.713Z</time></trkpt><trkpt lat="33.47746776666667" lon="-111.54182361666666"><ele>661.0</ele><time>2026-04-08T17:18:41.704Z</time></trkpt><trkpt lat="33.477408350000005" lon="-111.54177761666666"><ele>662.0</ele><time>2026-04-08T17:18:43.724Z</time></trkpt><trkpt lat="33.47737365" lon="-111.54169811666667"><ele>663.0</ele><time>2026-04-08T17:18:45.707Z</time></trkpt><trkpt lat="33.4773576" lon="-111.54158851666666"><ele>664.0</ele><time>2026-04-08T17:18:47.71Z</time></trkpt><trkpt lat="33.47736033333333" lon="-111.54149055000002"><ele>665.0</ele><time>2026-04-08T17:18:49.726Z</time></trkpt><trkpt lat="33.4773315" lon="-111.5414014"><ele>665.0</ele><time>2026-04-08T17:18:51.722Z</time></trkpt><trkpt lat="33.47727441666667" lon="-111.54131663333334"><ele>665.0</ele><time>2026-04-08T17:18:53.731Z</time></trkpt><trkpt lat="33.477203833333334" lon="-111.54123871666667"><ele>665.0</ele><time>2026-04-08T17:18:55.735Z</time></trkpt><trkpt lat="33.477104133333334" lon="-111.54119835000002"><ele>665.0</ele><time>2026-04-08T17:18:57.724Z</time></trkpt><trkpt lat="33.47699051666667" lon="-111.54116061666667"><ele>665.0</ele><time>2026-04-08T17:18:59.751Z</time></trkpt><trkpt lat="33.476895649999996" lon="-111.54111793333335"><ele>666.6666666666666</ele><time>2026-04-08T17:19:01.731Z</time></trkpt><trkpt lat="33.476813416666666" lon="-111.54105933333334"><ele>668.3333333333333</ele><time>2026-04-08T17:19:03.757Z</time></trkpt><trkpt lat="33.47674273333334" lon="-111.54097590000002"><ele>670.0</ele><time>2026-04-08T17:19:05.725Z</time></trkpt><trkpt lat="33.47669500000001" lon="-111.54091326666666"><ele>671.6666666666666</ele><time>2026-04-08T17:19:07.741Z</time></trkpt><trkpt lat="33.4766435" lon="-111.54083370000001"><ele>673.3333333333334</ele><time>2026-04-08T17:19:10.747Z</time></trkpt><trkpt lat="33.47662425" lon="-111.54074725"><ele>675.0</ele><time>2026-04-08T17:19:13.746Z</time></trkpt><trkpt lat="33.476608633333335" lon="-111.54066568333334"><ele>675.0</ele><time>2026-04-08T17:19:15.748Z</time></trkpt><trkpt lat="33.47657566666667" lon="-111.54059389999999"><ele>675.0</ele><time>2026-04-08T17:19:17.749Z</time></trkpt><trkpt lat="33.47652251666667" lon="-111.54052131666667"><ele>675.0</ele><time>2026-04-08T17:19:19.758Z</time></trkpt><trkpt lat="33.47644378333334" lon="-111.54049148333333"><ele>675.0</ele><time>2026-04-08T17:19:21.762Z</time></trkpt><trkpt lat="33.47633581666666" lon="-111.54048300000001"><ele>675.0</ele><time>2026-04-08T17:19:23.742Z</time></trkpt><trkpt lat="33.47623865" lon="-111.54047925000002"><ele>675.0</ele><time>2026-04-08T17:19:25.743Z</time></trkpt><trkpt lat="33.47613343333333" lon="-111.54045945"><ele>675.0</ele><time>2026-04-08T17:19:27.752Z</time></trkpt><trkpt lat="33.476035633333325" lon="-111.54041451666666"><ele>675.0</ele><time>2026-04-08T17:19:29.761Z</time></trkpt><trkpt lat="33.47594871666667" lon="-111.54037916666667"><ele>675.0</ele><time>2026-04-08T17:19:31.762Z</time></trkpt><trkpt lat="33.47585741666666" lon="-111.54036544999998"><ele>675.0</ele><time>2026-04-08T17:19:33.761Z</time></trkpt><trkpt lat="33.47578298333334" lon="-111.54039513333333"><ele>675.0</ele><time>2026-04-08T17:19:35.758Z</time></trkpt><trkpt lat="33.475720466666665" lon="-111.54043031666667"><ele>675.0</ele><time>2026-04-08T17:19:37.767Z</time></trkpt><trkpt lat="33.47562846666666" lon="-111.5403851"><ele>674.8</ele><time>2026-04-08T17:19:39.783Z</time></trkpt><trkpt lat="33.47552833333334" lon="-111.54031416666666"><ele>674.6</ele><time>2026-04-08T17:19:41.774Z</time></trkpt><trkpt lat="33.47544968333333" lon="-111.54024511666667"><ele>674.4000000000001</ele><time>2026-04-08T17:19:43.779Z</time></trkpt><trkpt lat="33.47538183333334" lon="-111.54016401666668"><ele>674.2</ele><time>2026-04-08T17:19:45.785Z</time></trkpt><trkpt lat="33.47529765" lon="-111.54007935"><ele>674.0</ele><time>2026-04-08T17:19:47.762Z</time></trkpt><trkpt lat="33.47519801666667" lon="-111.53999899999998"><ele>674.0</ele><time>2026-04-08T17:19:49.772Z</time></trkpt><trkpt lat="33.4750978" lon="-111.53991794999999"><ele>674.0</ele><time>2026-04-08T17:19:51.782Z</time></trkpt><trkpt lat="33.47502525" lon="-111.53982919999999"><ele>674.0</ele><time>2026-04-08T17:19:53.782Z</time></trkpt><trkpt lat="33.47497916666667" lon="-111.53971871666666"><ele>674.0</ele><time>2026-04-08T17:19:55.772Z</time></trkpt><trkpt lat="33.474935116666664" lon="-111.53962764999999"><ele>674.0</ele><time>2026-04-08T17:19:57.779Z</time></trkpt><trkpt lat="33.474856683333336" lon="-111.53955936666668"><ele>672.8000000000001</ele><time>2026-04-08T17:19:59.791Z</time></trkpt><trkpt lat="33.47480676666667" lon="-111.53945996666668"><ele>671.6</ele><time>2026-04-08T17:20:01.793Z</time></trkpt><trkpt lat="33.47478285" lon="-111.53935279999999"><ele>670.4</ele><time>2026-04-08T17:20:03.797Z</time></trkpt><trkpt lat="33.47475253333334" lon="-111.5392527"><ele>669.2</ele><time>2026-04-08T17:20:05.803Z</time></trkpt><trkpt lat="33.47469136666667" lon="-111.53914615"><ele>668.0</ele><time>2026-04-08T17:20:07.807Z</time></trkpt><trkpt lat="33.47463985" lon="-111.53909775"><ele>668.8333333333333</ele><time>2026-04-08T17:20:08.795Z</time></trkpt><trkpt lat="33.47457335" lon="-111.53905486666666"><ele>669.6666666666666</ele><time>2026-04-08T17:20:09.81Z</time></trkpt><trkpt lat="33.47450583333333" lon="-111.53901883333334"><ele>670.5</ele><time>2026-04-08T17:20:10.802Z</time></trkpt><trkpt lat="33.47444301666667" lon="-111.53899698333335"><ele>671.3333333333334</ele><time>2026-04-08T17:20:11.803Z</time></trkpt><trkpt lat="33.4743495" lon="-111.53894921666667"><ele>672.1666666666667</ele><time>2026-04-08T17:20:13.8Z</time></trkpt><trkpt lat="33.474293716666665" lon="-111.53887548333331"><ele>673.0</ele><time>2026-04-08T17:20:15.813Z</time></trkpt><trkpt lat="33.47427825" lon="-111.53874726666666"><ele>672.5714285714286</ele><time>2026-04-08T17:20:17.808Z</time></trkpt><trkpt lat="33.47429138333334" lon="-111.53866661666667"><ele>672.1428571428571</ele><time>2026-04-08T17:20:18.796Z</time></trkpt><trkpt lat="33.47431645" lon="-111.53857753333331"><ele>671.7142857142857</ele><time>2026-04-08T17:20:19.804Z</time></trkpt><trkpt lat="33.474346" lon="-111.53848585"><ele>671.2857142857142</ele><time>2026-04-08T17:20:20.821Z</time></trkpt><trkpt lat="33.474370799999996" lon="-111.53839946666668"><ele>670.8571428571429</ele><time>2026-04-08T17:20:21.816Z</time></trkpt><trkpt lat="33.47439395" lon="-111.53832041666668"><ele>670.4285714285713</ele><time>2026-04-08T17:20:22.817Z</time></trkpt><trkpt lat="33.47442288333333" lon="-111.53824871666666"><ele>670.0</ele><time>2026-04-08T17:20:23.818Z</time></trkpt><trkpt lat="33.474456" lon="-111.53817923333332"><ele>670.0</ele><time>2026-04-08T17:20:24.81Z</time></trkpt><trkpt lat="33.47448348333333" lon="-111.53810113333333"><ele>670.0</ele><time>2026-04-08T17:20:25.803Z</time></trkpt><trkpt lat="33.47450558333333" lon="-111.53801344999998"><ele>670.0</ele><time>2026-04-08T17:20:26.82Z</time></trkpt><trkpt lat="33.4745271" lon="-111.53791906666666"><ele>670.0</ele><time>2026-04-08T17:20:27.814Z</time></trkpt><trkpt lat="33.47454208333333" lon="-111.53781683333332"><ele>670.0</ele><time>2026-04-08T17:20:28.823Z</time></trkpt><trkpt lat="33.47454483333333" lon="-111.53770831666667"><ele>670.0</ele><time>2026-04-08T17:20:29.856Z</time></trkpt><trkpt lat="33.4745401" lon="-111.53760123333335"><ele>669.6666666666667</ele><time>2026-04-08T17:20:30.817Z</time></trkpt><trkpt lat="33.474534983333335" lon="-111.53749996666666"><ele>669.3333333333334</ele><time>2026-04-08T17:20:31.83Z</time></trkpt><trkpt lat="33.474531999999996" lon="-111.53739821666667"><ele>669.0</ele><time>2026-04-08T17:20:32.823Z</time></trkpt><trkpt lat="33.47452918333333" lon="-111.53729913333333"><ele>668.6666666666666</ele><time>2026-04-08T17:20:33.837Z</time></trkpt><trkpt lat="33.47452808333333" lon="-111.53720603333335"><ele>668.3333333333333</ele><time>2026-04-08T17:20:34.842Z</time></trkpt><trkpt lat="33.474535833333334" lon="-111.53711826666667"><ele>668.0</ele><time>2026-04-08T17:20:35.818Z</time></trkpt><trkpt lat="33.47455365" lon="-111.53703678333335"><ele>667.8</ele><time>2026-04-08T17:20:36.833Z</time></trkpt><trkpt lat="33.47457468333334" lon="-111.53696389999999"><ele>667.5999999999999</ele><time>2026-04-08T17:20:37.845Z</time></trkpt><trkpt lat="33.47462891666667" lon="-111.53684325000002"><ele>667.4000000000001</ele><time>2026-04-08T17:20:39.837Z</time></trkpt><trkpt lat="33.474672299999995" lon="-111.53673553333334"><ele>667.2</ele><time>2026-04-08T17:20:41.83Z</time></trkpt><trkpt lat="33.4747378" lon="-111.53664204999998"><ele>667.0</ele><time>2026-04-08T17:20:43.833Z</time></trkpt><trkpt lat="33.47483191666667" lon="-111.53655275000001"><ele>666.1428571428572</ele><time>2026-04-08T17:20:45.839Z</time></trkpt><trkpt lat="33.47487161666666" lon="-111.53649315"><ele>665.2857142857143</ele><time>2026-04-08T17:20:46.839Z</time></trkpt><trkpt lat="33.4749031" lon="-111.53641809999999"><ele>664.4285714285714</ele><time>2026-04-08T17:20:47.849Z</time></trkpt><trkpt lat="33.47492366666667" lon="-111.53632798333335"><ele>663.5714285714287</ele><time>2026-04-08T17:20:48.842Z</time></trkpt><trkpt lat="33.47493416666667" lon="-111.53623549999999"><ele>662.7142857142858</ele><time>2026-04-08T17:20:49.852Z</time></trkpt><trkpt lat="33.47493468333333" lon="-111.53615038333335"><ele>661.8571428571429</ele><time>2026-04-08T17:20:50.833Z</time></trkpt><trkpt lat="33.47491698333333" lon="-111.53606756666669"><ele>661.0</ele><time>2026-04-08T17:20:51.861Z</time></trkpt><trkpt lat="33.4748945" lon="-111.53597663333333"><ele>660.5</ele><time>2026-04-08T17:20:52.852Z</time></trkpt><trkpt lat="33.47487733333333" lon="-111.53587581666666"><ele>660.0</ele><time>2026-04-08T17:20:53.836Z</time></trkpt><trkpt lat="33.47486451666667" lon="-111.53577508333335"><ele>659.5</ele><time>2026-04-08T17:20:54.861Z</time></trkpt><trkpt lat="33.47485878333334" lon="-111.53568233333333"><ele>659.0</ele><time>2026-04-08T17:20:55.839Z</time></trkpt><trkpt lat="33.4748594" lon="-111.53559255"><ele>658.5</ele><time>2026-04-08T17:20:56.837Z</time></trkpt><trkpt lat="33.47486513333333" lon="-111.53550398333333"><ele>658.0</ele><time>2026-04-08T17:20:57.853Z</time></trkpt><trkpt lat="33.47486228333333" lon="-111.53541535000001"><ele>657.1666666666667</ele><time>2026-04-08T17:20:58.851Z</time></trkpt><trkpt lat="33.47484805" lon="-111.53532961666666"><ele>656.3333333333334</ele><time>2026-04-08T17:20:59.841Z</time></trkpt><trkpt lat="33.47482419999999" lon="-111.53524793333332"><ele>655.5</ele><time>2026-04-08T17:21:00.867Z</time></trkpt><trkpt lat="33.47479043333334" lon="-111.53516405"><ele>654.6666666666666</ele><time>2026-04-08T17:21:01.881Z</time></trkpt><trkpt lat="33.47473886666667" lon="-111.53507159999998"><ele>653.8333333333333</ele><time>2026-04-08T17:21:02.852Z</time></trkpt><trkpt lat="33.47468156666666" lon="-111.53497430000002"><ele>653.0</ele><time>2026-04-08T17:21:03.862Z</time></trkpt><trkpt lat="33.47464573333333" lon="-111.53487701666666"><ele>653.0000000000001</ele><time>2026-04-08T17:21:04.852Z</time></trkpt><trkpt lat="33.47462326666667" lon="-111.5347885"><ele>653.0</ele><time>2026-04-08T17:21:05.868Z</time></trkpt><trkpt lat="33.4745887" lon="-111.53471274999998"><ele>653.0</ele><time>2026-04-08T17:21:06.874Z</time></trkpt><trkpt lat="33.47455706666666" lon="-111.53463345"><ele>653.0</ele><time>2026-04-08T17:21:07.874Z</time></trkpt><trkpt lat="33.474544433333335" lon="-111.53454923333332"><ele>653.0</ele><time>2026-04-08T17:21:08.865Z</time></trkpt><trkpt lat="33.474523700000006" lon="-111.53447464999999"><ele>653.0000000000001</ele><time>2026-04-08T17:21:09.854Z</time></trkpt><trkpt lat="33.47448335" lon="-111.53440733333333"><ele>653.0</ele><time>2026-04-08T17:21:10.864Z</time></trkpt><trkpt lat="33.474432316666665" lon="-111.53435011666667"><ele>652.5999999999999</ele><time>2026-04-08T17:21:11.86Z</time></trkpt><trkpt lat="33.47437873333333" lon="-111.53430633333333"><ele>652.1999999999999</ele><time>2026-04-08T17:21:12.875Z</time></trkpt><trkpt lat="33.47429065" lon="-111.53426059999998"><ele>651.8</ele><time>2026-04-08T17:21:14.879Z</time></trkpt><trkpt lat="33.47419968333334" lon="-111.53414941666666"><ele>651.4</ele><time>2026-04-08T17:22:07.914Z</time></trkpt><trkpt lat="33.47411348333333" lon="-111.53406788333332"><ele>651.0</ele><time>2026-04-08T17:22:09.923Z</time></trkpt><trkpt lat="33.47400616666666" lon="-111.53400654999999"><ele>651.0</ele><time>2026-04-08T17:22:11.925Z</time></trkpt><trkpt lat="33.473896933333336" lon="-111.53394481666668"><ele>651.0</ele><time>2026-04-08T17:22:13.929Z</time></trkpt><trkpt lat="33.47384793333333" lon="-111.53389563333333"><ele>651.0</ele><time>2026-04-08T17:22:14.933Z</time></trkpt><trkpt lat="33.473811500000004" lon="-111.53382918333334"><ele>651.0</ele><time>2026-04-08T17:22:15.946Z</time></trkpt><trkpt lat="33.47379231666666" lon="-111.53375106666665"><ele>651.0</ele><time>2026-04-08T17:22:16.938Z</time></trkpt><trkpt lat="33.47378678333334" lon="-111.533669"><ele>651.0</ele><time>2026-04-08T17:22:17.915Z</time></trkpt><trkpt lat="33.47378668333334" lon="-111.53359016666667"><ele>650.5999999999999</ele><time>2026-04-08T17:22:18.919Z</time></trkpt><trkpt lat="33.47377796666667" lon="-111.53345883333334"><ele>650.2</ele><time>2026-04-08T17:22:20.938Z</time></trkpt><trkpt lat="33.473735733333335" lon="-111.53333533333334"><ele>649.8</ele><time>2026-04-08T17:22:22.943Z</time></trkpt><trkpt lat="33.4736601" lon="-111.53321191666667"><ele>649.4000000000001</ele><time>2026-04-08T17:22:24.933Z</time></trkpt><trkpt lat="33.47360393333333" lon="-111.5331552"><ele>649.0</ele><time>2026-04-08T17:22:25.975Z</time></trkpt><trkpt lat="33.47353351666666" lon="-111.53310645000002"><ele>649.0</ele><time>2026-04-08T17:22:26.938Z</time></trkpt><trkpt lat="33.473460216666666" lon="-111.53306201666668"><ele>649.0</ele><time>2026-04-08T17:22:27.931Z</time></trkpt><trkpt lat="33.47339001666667" lon="-111.53300043333331"><ele>649.0</ele><time>2026-04-08T17:22:28.944Z</time></trkpt><trkpt lat="33.47332363333333" lon="-111.53292093333333"><ele>649.0</ele><time>2026-04-08T17:22:29.937Z</time></trkpt><trkpt lat="33.47325616666667" lon="-111.53285158333334"><ele>649.0</ele><time>2026-04-08T17:22:30.949Z</time></trkpt><trkpt lat="33.473184233333335" lon="-111.53279533333334"><ele>649.0</ele><time>2026-04-08T17:22:31.946Z</time></trkpt><trkpt lat="33.4731074" lon="-111.53274191666667"><ele>648.3333333333334</ele><time>2026-04-08T17:22:32.929Z</time></trkpt><trkpt lat="33.47302895" lon="-111.53268633333334"><ele>647.6666666666667</ele><time>2026-04-08T17:22:33.929Z</time></trkpt><trkpt lat="33.47294735" lon="-111.53263871666668"><ele>647.0</ele><time>2026-04-08T17:22:34.935Z</time></trkpt><trkpt lat="33.472862416666665" lon="-111.5326028"><ele>646.3333333333334</ele><time>2026-04-08T17:22:35.951Z</time></trkpt><trkpt lat="33.4727808" lon="-111.53256691666665"><ele>645.6666666666666</ele><time>2026-04-08T17:22:36.938Z</time></trkpt><trkpt lat="33.47270376666667" lon="-111.5325151"><ele>645.0</ele><time>2026-04-08T17:22:37.953Z</time></trkpt><trkpt lat="33.4726277" lon="-111.53244526666667"><ele>644.0</ele><time>2026-04-08T17:22:38.951Z</time></trkpt><trkpt lat="33.472549449999995" lon="-111.53237298333333"><ele>643.0</ele><time>2026-04-08T17:22:39.937Z</time></trkpt><trkpt lat="33.47246946666667" lon="-111.53231148333334"><ele>642.0</ele><time>2026-04-08T17:22:40.955Z</time></trkpt><trkpt lat="33.47239465" lon="-111.53225226666667"><ele>641.0</ele><time>2026-04-08T17:22:41.963Z</time></trkpt><trkpt lat="33.47233166666667" lon="-111.53217781666666"><ele>640.0</ele><time>2026-04-08T17:22:42.948Z</time></trkpt><trkpt lat="33.47227246666666" lon="-111.53209030000001"><ele>640.0</ele><time>2026-04-08T17:22:43.947Z</time></trkpt><trkpt lat="33.472210583333336" lon="-111.53200476666666"><ele>640.0</ele><time>2026-04-08T17:22:44.939Z</time></trkpt><trkpt lat="33.472144066666665" lon="-111.53192808333333"><ele>640.0</ele><time>2026-04-08T17:22:45.949Z</time></trkpt><trkpt lat="33.4720718" lon="-111.53186068333335"><ele>640.0</ele><time>2026-04-08T17:22:46.964Z</time></trkpt><trkpt lat="33.47199715" lon="-111.53181218333332"><ele>640.0</ele><time>2026-04-08T17:22:47.944Z</time></trkpt><trkpt lat="33.47192718333333" lon="-111.53176185"><ele>640.0</ele><time>2026-04-08T17:22:48.945Z</time></trkpt><trkpt lat="33.471865533333336" lon="-111.53168863333333"><ele>639.5</ele><time>2026-04-08T17:22:49.944Z</time></trkpt><trkpt lat="33.47181258333334" lon="-111.53159856666669"><ele>639.0</ele><time>2026-04-08T17:22:50.954Z</time></trkpt><trkpt lat="33.471762883333334" lon="-111.53151006666667"><ele>638.5</ele><time>2026-04-08T17:22:51.965Z</time></trkpt><trkpt lat="33.47170851666666" lon="-111.5314317"><ele>638.0</ele><time>2026-04-08T17:22:52.994Z</time></trkpt><trkpt lat="33.471660433333334" lon="-111.53135678333334"><ele>637.5</ele><time>2026-04-08T17:22:53.959Z</time></trkpt><trkpt lat="33.47161955" lon="-111.53127731666667"><ele>637.0</ele><time>2026-04-08T17:22:54.956Z</time></trkpt><trkpt lat="33.471577499999995" lon="-111.53119161666667"><ele>636.8571428571429</ele><time>2026-04-08T17:22:55.964Z</time></trkpt><trkpt lat="33.47153313333333" lon="-111.53111013333334"><ele>636.7142857142858</ele><time>2026-04-08T17:22:56.954Z</time></trkpt><trkpt lat="33.47149025" lon="-111.5310357"><ele>636.5714285714286</ele><time>2026-04-08T17:22:57.952Z</time></trkpt><trkpt lat="33.47144615" lon="-111.53097306666666"><ele>636.4285714285714</ele><time>2026-04-08T17:22:58.967Z</time></trkpt><trkpt lat="33.47139805" lon="-111.53092058333336"><ele>636.2857142857143</ele><time>2026-04-08T17:22:59.954Z</time></trkpt><trkpt lat="33.47134578333333" lon="-111.53087421666666"><ele>636.1428571428571</ele><time>2026-04-08T17:23:00.982Z</time></trkpt><trkpt lat="33.47128798333333" lon="-111.53083243333333"><ele>636.0</ele><time>2026-04-08T17:23:01.971Z</time></trkpt><trkpt lat="33.471222049999994" lon="-111.53079653333334"><ele>635.6666666666666</ele><time>2026-04-08T17:23:02.97Z</time></trkpt><trkpt lat="33.47115015" lon="-111.53076806666668"><ele>635.3333333333334</ele><time>2026-04-08T17:23:03.96Z</time></trkpt><trkpt lat="33.4710768" lon="-111.53074968333334"><ele>635.0</ele><time>2026-04-08T17:23:04.968Z</time></trkpt><trkpt lat="33.47100801666666" lon="-111.53073971666666"><ele>634.6666666666667</ele><time>2026-04-08T17:23:05.964Z</time></trkpt><trkpt lat="33.470944366666664" lon="-111.53073865"><ele>634.3333333333334</ele><time>2026-04-08T17:23:06.986Z</time></trkpt><trkpt lat="33.470827416666665" lon="-111.53076118333331"><ele>634.0</ele><time>2026-04-08T17:23:08.983Z</time></trkpt><trkpt lat="33.4707217" lon="-111.53081181666667"><ele>634.0</ele><time>2026-04-08T17:23:10.984Z</time></trkpt><trkpt lat="33.47061991666667" lon="-111.53087224999999"><ele>634.0</ele><time>2026-04-08T17:23:12.975Z</time></trkpt><trkpt lat="33.47051663333333" lon="-111.53093498333335"><ele>634.0</ele><time>2026-04-08T17:23:14.974Z</time></trkpt><trkpt lat="33.470418650000006" lon="-111.53102176666667"><ele>634.0</ele><time>2026-04-08T17:23:16.983Z</time></trkpt><trkpt lat="33.4703721" lon="-111.53107315000001"><ele>634.0</ele><time>2026-04-08T17:23:17.994Z</time></trkpt><trkpt lat="33.470317" lon="-111.53111488333334"><ele>633.3333333333334</ele><time>2026-04-08T17:23:18.989Z</time></trkpt><trkpt lat="33.4702548" lon="-111.53114631666668"><ele>632.6666666666667</ele><time>2026-04-08T17:23:20.014Z</time></trkpt><trkpt lat="33.470184366666665" lon="-111.53117346666667"><ele>632.0</ele><time>2026-04-08T17:23:20.98Z</time></trkpt><trkpt lat="33.4701082" lon="-111.53119591666668"><ele>631.3333333333334</ele><time>2026-04-08T17:23:21.994Z</time></trkpt><trkpt lat="33.470031250000005" lon="-111.53121773333332"><ele>630.6666666666666</ele><time>2026-04-08T17:23:22.988Z</time></trkpt><trkpt lat="33.46995698333333" lon="-111.53124916666665"><ele>630.0</ele><time>2026-04-08T17:23:23.977Z</time></trkpt><trkpt lat="33.469887283333335" lon="-111.53129508333335"><ele>630.0</ele><time>2026-04-08T17:23:24.977Z</time></trkpt><trkpt lat="33.469819683333334" lon="-111.53134271666669"><ele>630.0</ele><time>2026-04-08T17:23:25.982Z</time></trkpt><trkpt lat="33.46974540000001" lon="-111.53138025000001"><ele>630.0</ele><time>2026-04-08T17:23:26.997Z</time></trkpt><trkpt lat="33.469665250000006" lon="-111.53140905000001"><ele>630.0</ele><time>2026-04-08T17:23:27.986Z</time></trkpt><trkpt lat="33.46957653333333" lon="-111.53142966666668"><ele>630.0</ele><time>2026-04-08T17:23:29Z</time></trkpt><trkpt lat="33.46948046666666" lon="-111.53144101666666"><ele>630.0</ele><time>2026-04-08T17:23:29.997Z</time></trkpt><trkpt lat="33.469387033333334" lon="-111.53143746666669"><ele>629.6666666666666</ele><time>2026-04-08T17:23:30.989Z</time></trkpt><trkpt lat="33.469305883333334" lon="-111.53142135000002"><ele>629.3333333333334</ele><time>2026-04-08T17:23:32.003Z</time></trkpt><trkpt lat="33.46923381666666" lon="-111.5313954"><ele>629.0</ele><time>2026-04-08T17:23:32.994Z</time></trkpt><trkpt lat="33.4691613" lon="-111.53135915"><ele>628.6666666666667</ele><time>2026-04-08T17:23:33.988Z</time></trkpt><trkpt lat="33.469083983333334" lon="-111.53131876666666"><ele>628.3333333333334</ele><time>2026-04-08T17:23:35.003Z</time></trkpt><trkpt lat="33.46900505" lon="-111.53127141666667"><ele>628.0</ele><time>2026-04-08T17:23:35.993Z</time></trkpt><trkpt lat="33.46891566666667" lon="-111.53121548333331"><ele>628.0</ele><time>2026-04-08T17:23:37.004Z</time></trkpt><trkpt lat="33.46881506666667" lon="-111.53115596666667"><ele>628.0</ele><time>2026-04-08T17:23:38.013Z</time></trkpt><trkpt lat="33.46871201666667" lon="-111.53110576666668"><ele>628.0</ele><time>2026-04-08T17:23:39.013Z</time></trkpt><trkpt lat="33.46861571666667" lon="-111.53106553333333"><ele>628.0</ele><time>2026-04-08T17:23:40.009Z</time></trkpt><trkpt lat="33.468529116666666" lon="-111.53102824999999"><ele>628.0</ele><time>2026-04-08T17:23:41.005Z</time></trkpt><trkpt lat="33.46845246666667" lon="-111.53098738333335"><ele>627.5</ele><time>2026-04-08T17:23:42.008Z</time></trkpt><trkpt lat="33.468380716666665" lon="-111.53095281666668"><ele>627.0</ele><time>2026-04-08T17:23:43Z</time></trkpt><trkpt lat="33.468305916666665" lon="-111.53093071666666"><ele>626.5</ele><time>2026-04-08T17:23:44.003Z</time></trkpt><trkpt lat="33.46823051666667" lon="-111.53090876666666"><ele>626.0</ele><time>2026-04-08T17:23:45.015Z</time></trkpt><trkpt lat="33.468154883333334" lon="-111.53088709999997"><ele>625.5</ele><time>2026-04-08T17:23:46.006Z</time></trkpt><trkpt lat="33.468073733333334" lon="-111.53087721666667"><ele>625.0</ele><time>2026-04-08T17:23:47.034Z</time></trkpt><trkpt lat="33.467988166666665" lon="-111.53089024999998"><ele>624.5714285714287</ele><time>2026-04-08T17:23:48Z</time></trkpt><trkpt lat="33.46790255" lon="-111.53091476666665"><ele>624.1428571428571</ele><time>2026-04-08T17:23:49.013Z</time></trkpt><trkpt lat="33.46782306666667" lon="-111.53093671666666"><ele>623.7142857142858</ele><time>2026-04-08T17:23:50.005Z</time></trkpt><trkpt lat="33.46774898333333" lon="-111.5309407"><ele>623.2857142857143</ele><time>2026-04-08T17:23:51.02Z</time></trkpt><trkpt lat="33.4676817" lon="-111.53094139999999"><ele>622.8571428571429</ele><time>2026-04-08T17:23:52.022Z</time></trkpt><trkpt lat="33.46761433333334" lon="-111.53094476666665"><ele>622.4285714285714</ele><time>2026-04-08T17:23:53.04Z</time></trkpt><trkpt lat="33.46754598333334" lon="-111.53094553333334"><ele>622.0</ele><time>2026-04-08T17:23:54.018Z</time></trkpt><trkpt lat="33.46748263333333" lon="-111.53094445"><ele>622.0</ele><time>2026-04-08T17:23:55.029Z</time></trkpt><trkpt lat="33.46737115" lon="-111.53094686666667"><ele>622.0</ele><time>2026-04-08T17:23:57.042Z</time></trkpt><trkpt lat="33.46725836666667" lon="-111.53095658333335"><ele>622.0</ele><time>2026-04-08T17:23:59.016Z</time></trkpt><trkpt lat="33.46719285" lon="-111.53097693333332"><ele>622.0</ele><time>2026-04-08T17:24:00.028Z</time></trkpt><trkpt lat="33.467124649999995" lon="-111.53101326666669"><ele>622.0</ele><time>2026-04-08T17:24:01.033Z</time></trkpt><trkpt lat="33.467055566666666" lon="-111.53106228333331"><ele>622.0</ele><time>2026-04-08T17:24:02.022Z</time></trkpt><trkpt lat="33.46698275000001" lon="-111.53111265000001"><ele>621.8333333333334</ele><time>2026-04-08T17:24:03.025Z</time></trkpt><trkpt lat="33.466908333333336" lon="-111.53115590000002"><ele>621.6666666666667</ele><time>2026-04-08T17:24:04.039Z</time></trkpt><trkpt lat="33.466831866666666" lon="-111.53119838333333"><ele>621.5</ele><time>2026-04-08T17:24:05.026Z</time></trkpt><trkpt lat="33.466753133333334" lon="-111.53124726666668"><ele>621.3333333333334</ele><time>2026-04-08T17:24:06.04Z</time></trkpt><trkpt lat="33.466673899999996" lon="-111.53130211666667"><ele>621.1666666666666</ele><time>2026-04-08T17:24:07.023Z</time></trkpt><trkpt lat="33.4665971" lon="-111.5313574"><ele>621.0</ele><time>2026-04-08T17:24:08.048Z</time></trkpt><trkpt lat="33.46652038333333" lon="-111.53141123333334"><ele>620.6666666666666</ele><time>2026-04-08T17:24:09.027Z</time></trkpt><trkpt lat="33.466441483333334" lon="-111.53146013333331"><ele>620.3333333333334</ele><time>2026-04-08T17:24:10.038Z</time></trkpt><trkpt lat="33.46636516666667" lon="-111.53150388333334"><ele>620.0</ele><time>2026-04-08T17:24:11.033Z</time></trkpt><trkpt lat="33.466296316666664" lon="-111.53154918333333"><ele>619.6666666666667</ele><time>2026-04-08T17:24:12.031Z</time></trkpt><trkpt lat="33.46623041666667" lon="-111.53159998333334"><ele>619.3333333333334</ele><time>2026-04-08T17:24:13.054Z</time></trkpt><trkpt lat="33.466169566666665" lon="-111.53165215"><ele>619.0</ele><time>2026-04-08T17:24:14.054Z</time></trkpt><trkpt lat="33.466111749999996" lon="-111.53170215"><ele>619.0</ele><time>2026-04-08T17:24:15.045Z</time></trkpt><trkpt lat="33.4660456" lon="-111.5317428"><ele>619.0</ele><time>2026-04-08T17:24:16.06Z</time></trkpt><trkpt lat="33.46597428333334" lon="-111.53177"><ele>619.0</ele><time>2026-04-08T17:24:17.05Z</time></trkpt><trkpt lat="33.46591178333333" lon="-111.5317934"><ele>619.0</ele><time>2026-04-08T17:24:18.039Z</time></trkpt><trkpt lat="33.465839249999995" lon="-111.53184513333333"><ele>619.0</ele><time>2026-04-08T17:24:20.045Z</time></trkpt><trkpt lat="33.465822233333334" lon="-111.53193288333333"><ele>619.0</ele><time>2026-04-08T17:24:22.053Z</time></trkpt><trkpt lat="33.46583973333334" lon="-111.53210241666665"><ele>618.8</ele><time>2026-04-08T17:24:24.072Z</time></trkpt><trkpt lat="33.465845316666666" lon="-111.53221748333333"><ele>618.5999999999999</ele><time>2026-04-08T17:24:25.062Z</time></trkpt><trkpt lat="33.46584658333334" lon="-111.53234425000001"><ele>618.4</ele><time>2026-04-08T17:24:26.059Z</time></trkpt><trkpt lat="33.46584718333333" lon="-111.53247025"><ele>618.1999999999999</ele><time>2026-04-08T17:24:27.076Z</time></trkpt><trkpt lat="33.46584756666667" lon="-111.53258361666667"><ele>618.0</ele><time>2026-04-08T17:24:28.064Z</time></trkpt><trkpt lat="33.465850616666664" lon="-111.53269375"><ele>618.0</ele><time>2026-04-08T17:24:29.06Z</time></trkpt><trkpt lat="33.46585473333334" lon="-111.53280609999999"><ele>618.0</ele><time>2026-04-08T17:24:30.086Z</time></trkpt><trkpt lat="33.465853300000006" lon="-111.53291348333332"><ele>617.0</ele><time>2026-04-08T17:24:31.073Z</time></trkpt><trkpt lat="33.465846283333335" lon="-111.53301021666667"><ele>617.0</ele><time>2026-04-08T17:24:32.069Z</time></trkpt><trkpt lat="33.4658485" lon="-111.53313163333333"><ele>617.0</ele><time>2026-04-08T17:24:34.078Z</time></trkpt></trkseg></trk></gpx>